<?xml version="1.0" encoding="UTF-8" standalone="no" ?>
<gpx xmlns="http://www.topografix.com/GPX/1/1" xmlns:xsi="http://www.w3.org/2001/XMLSchema-instance" xsi:schemaLocation="http://www.topografix.com/GPX/1/1 http://www.topografix.com/GPX/1/1/gpx.xsd" version="1.1" creator="VisuGPX - https://www.visugpx.com">
  <metadata>
    <name>VacancesDricouZoe</name>
  </metadata>
  <trk>
    <name><![CDATA[Journal actif: 2021-07-01 14:11]]></name>
    <trkseg>
      <trkpt lat="44.64609" lon="-1.24987">
        <ele>1.58</ele>
        <time>2021-07-01T16:11:53Z</time>
      </trkpt>
      <trkpt lat="44.64613" lon="-1.24987">
        <ele>2.06</ele>
        <time>2021-07-01T16:12:39Z</time>
      </trkpt>
      <trkpt lat="44.64618" lon="-1.24995">
        <ele>2.06</ele>
        <time>2021-07-01T16:12:42Z</time>
      </trkpt>
      <trkpt lat="44.64621" lon="-1.24994">
        <ele>2.06</ele>
        <time>2021-07-01T16:12:43Z</time>
      </trkpt>
      <trkpt lat="44.64624" lon="-1.24993">
        <ele>2.06</ele>
        <time>2021-07-01T16:12:44Z</time>
      </trkpt>
      <trkpt lat="44.64671" lon="-1.24972">
        <ele>1.1</ele>
        <time>2021-07-01T16:12:56Z</time>
      </trkpt>
      <trkpt lat="44.64693" lon="-1.24963">
        <ele>2.06</ele>
        <time>2021-07-01T16:13:03Z</time>
      </trkpt>
      <trkpt lat="44.64698" lon="-1.24952">
        <ele>2.54</ele>
        <time>2021-07-01T16:13:04Z</time>
      </trkpt>
      <trkpt lat="44.64696" lon="-1.24878">
        <ele>4.46</ele>
        <time>2021-07-01T16:13:17Z</time>
      </trkpt>
      <trkpt lat="44.64697" lon="-1.24835">
        <ele>1.58</ele>
        <time>2021-07-01T16:13:27Z</time>
      </trkpt>
      <trkpt lat="44.64729" lon="-1.24769">
        <ele>1.1</ele>
        <time>2021-07-01T16:13:41Z</time>
      </trkpt>
      <trkpt lat="44.64734" lon="-1.24759">
        <ele>0.62</ele>
        <time>2021-07-01T16:13:42Z</time>
      </trkpt>
      <trkpt lat="44.64734" lon="-1.24759">
        <ele>0.14</ele>
        <time>2021-07-01T16:13:43Z</time>
      </trkpt>
      <trkpt lat="44.64736" lon="-1.24754">
        <ele>0.14</ele>
        <time>2021-07-01T16:13:44Z</time>
      </trkpt>
      <trkpt lat="44.64738" lon="-1.24748">
        <ele>0.14</ele>
        <time>2021-07-01T16:13:45Z</time>
      </trkpt>
      <trkpt lat="44.6474" lon="-1.24744">
        <ele>-0.34</ele>
        <time>2021-07-01T16:13:46Z</time>
      </trkpt>
      <trkpt lat="44.64744" lon="-1.2474">
        <ele>-0.82</ele>
        <time>2021-07-01T16:13:47Z</time>
      </trkpt>
      <trkpt lat="44.64751" lon="-1.24731">
        <ele>-1.3</ele>
        <time>2021-07-01T16:13:48Z</time>
      </trkpt>
      <trkpt lat="44.64754" lon="-1.24727">
        <ele>-0.82</ele>
        <time>2021-07-01T16:13:49Z</time>
      </trkpt>
      <trkpt lat="44.64754" lon="-1.24727">
        <ele>-1.3</ele>
        <time>2021-07-01T16:13:50Z</time>
      </trkpt>
      <trkpt lat="44.64758" lon="-1.24723">
        <ele>-1.79</ele>
        <time>2021-07-01T16:13:51Z</time>
      </trkpt>
      <trkpt lat="44.64811" lon="-1.24676">
        <ele>-1.79</ele>
        <time>2021-07-01T16:14:06Z</time>
      </trkpt>
      <trkpt lat="44.64822" lon="-1.24653">
        <ele>-2.27</ele>
        <time>2021-07-01T16:14:16Z</time>
      </trkpt>
      <trkpt lat="44.64822" lon="-1.24587">
        <ele>-1.3</ele>
        <time>2021-07-01T16:14:30Z</time>
      </trkpt>
      <trkpt lat="44.64822" lon="-1.24556">
        <ele>0.62</ele>
        <time>2021-07-01T16:14:41Z</time>
      </trkpt>
      <trkpt lat="44.64822" lon="-1.24549">
        <ele>0.14</ele>
        <time>2021-07-01T16:14:42Z</time>
      </trkpt>
      <trkpt lat="44.64826" lon="-1.24545">
        <ele>-0.34</ele>
        <time>2021-07-01T16:14:43Z</time>
      </trkpt>
      <trkpt lat="44.64829" lon="-1.24545">
        <ele>-0.82</ele>
        <time>2021-07-01T16:14:44Z</time>
      </trkpt>
      <trkpt lat="44.64831" lon="-1.24545">
        <ele>-0.34</ele>
        <time>2021-07-01T16:14:45Z</time>
      </trkpt>
      <trkpt lat="44.64888" lon="-1.2455">
        <ele>0.62</ele>
        <time>2021-07-01T16:14:58Z</time>
      </trkpt>
      <trkpt lat="44.64919" lon="-1.24553">
        <ele>0.62</ele>
        <time>2021-07-01T16:15:09Z</time>
      </trkpt>
      <trkpt lat="44.64948" lon="-1.24556">
        <ele>-1.3</ele>
        <time>2021-07-01T16:15:22Z</time>
      </trkpt>
      <trkpt lat="44.64956" lon="-1.24557">
        <ele>-1.79</ele>
        <time>2021-07-01T16:15:24Z</time>
      </trkpt>
      <trkpt lat="44.64961" lon="-1.24558">
        <ele>-1.79</ele>
        <time>2021-07-01T16:15:25Z</time>
      </trkpt>
      <trkpt lat="44.65072" lon="-1.24568">
        <ele>-2.27</ele>
        <time>2021-07-01T16:15:45Z</time>
      </trkpt>
      <trkpt lat="44.65121" lon="-1.24571">
        <ele>0.14</ele>
        <time>2021-07-01T16:15:55Z</time>
      </trkpt>
      <trkpt lat="44.65161" lon="-1.24565">
        <ele>0.14</ele>
        <time>2021-07-01T16:16:07Z</time>
      </trkpt>
      <trkpt lat="44.65197" lon="-1.24525">
        <ele>-0.82</ele>
        <time>2021-07-01T16:16:19Z</time>
      </trkpt>
      <trkpt lat="44.6528" lon="-1.24427">
        <ele>-2.75</ele>
        <time>2021-07-01T16:16:39Z</time>
      </trkpt>
      <trkpt lat="44.65312" lon="-1.24382">
        <ele>-5.63</ele>
        <time>2021-07-01T16:16:50Z</time>
      </trkpt>
      <trkpt lat="44.65312" lon="-1.24382">
        <ele>-5.63</ele>
        <time>2021-07-01T16:16:51Z</time>
      </trkpt>
      <trkpt lat="44.65301" lon="-1.24308">
        <ele>-4.67</ele>
        <time>2021-07-01T16:17:06Z</time>
      </trkpt>
      <trkpt lat="44.65282" lon="-1.243">
        <ele>-3.71</ele>
        <time>2021-07-01T16:17:15Z</time>
      </trkpt>
      <trkpt lat="44.65241" lon="-1.24287">
        <ele>-3.71</ele>
        <time>2021-07-01T16:17:30Z</time>
      </trkpt>
      <trkpt lat="44.65215" lon="-1.2429">
        <ele>-2.75</ele>
        <time>2021-07-01T16:17:42Z</time>
      </trkpt>
      <trkpt lat="44.65187" lon="-1.24319">
        <ele>-3.23</ele>
        <time>2021-07-01T16:17:57Z</time>
      </trkpt>
      <trkpt lat="44.65144" lon="-1.24355">
        <ele>-4.19</ele>
        <time>2021-07-01T16:18:12Z</time>
      </trkpt>
      <trkpt lat="44.65087" lon="-1.24402">
        <ele>-9.96</ele>
        <time>2021-07-01T16:18:32Z</time>
      </trkpt>
      <trkpt lat="44.65044" lon="-1.24437">
        <ele>-9.96</ele>
        <time>2021-07-01T16:18:47Z</time>
      </trkpt>
      <trkpt lat="44.65009" lon="-1.24468">
        <ele>-7.55</ele>
        <time>2021-07-01T16:19:02Z</time>
      </trkpt>
      <trkpt lat="44.64967" lon="-1.24511">
        <ele>-6.59</ele>
        <time>2021-07-01T16:19:16Z</time>
      </trkpt>
      <trkpt lat="44.64942" lon="-1.24541">
        <ele>-6.11</ele>
        <time>2021-07-01T16:19:29Z</time>
      </trkpt>
      <trkpt lat="44.64957" lon="-1.24557">
        <ele>-7.07</ele>
        <time>2021-07-01T16:19:38Z</time>
      </trkpt>
      <trkpt lat="44.64962" lon="-1.24558">
        <ele>-7.55</ele>
        <time>2021-07-01T16:19:39Z</time>
      </trkpt>
      <trkpt lat="44.65042" lon="-1.24565">
        <ele>-9</ele>
        <time>2021-07-01T16:19:51Z</time>
      </trkpt>
      <trkpt lat="44.65144" lon="-1.24572">
        <ele>0.14</ele>
        <time>2021-07-01T16:20:07Z</time>
      </trkpt>
      <trkpt lat="44.65163" lon="-1.24548">
        <ele>0.14</ele>
        <time>2021-07-01T16:20:16Z</time>
      </trkpt>
      <trkpt lat="44.65176" lon="-1.2445">
        <ele>-1.79</ele>
        <time>2021-07-01T16:20:35Z</time>
      </trkpt>
      <trkpt lat="44.65184" lon="-1.24385">
        <ele>-4.19</ele>
        <time>2021-07-01T16:20:51Z</time>
      </trkpt>
      <trkpt lat="44.65191" lon="-1.24332">
        <ele>-3.71</ele>
        <time>2021-07-01T16:21:07Z</time>
      </trkpt>
      <trkpt lat="44.65213" lon="-1.24292">
        <ele>-2.75</ele>
        <time>2021-07-01T16:21:19Z</time>
      </trkpt>
      <trkpt lat="44.65241" lon="-1.24277">
        <ele>-4.19</ele>
        <time>2021-07-01T16:21:30Z</time>
      </trkpt>
      <trkpt lat="44.65275" lon="-1.24244">
        <ele>-4.67</ele>
        <time>2021-07-01T16:21:45Z</time>
      </trkpt>
      <trkpt lat="44.65324" lon="-1.24203">
        <ele>-4.19</ele>
        <time>2021-07-01T16:22:05Z</time>
      </trkpt>
      <trkpt lat="44.65371" lon="-1.24163">
        <ele>-3.71</ele>
        <time>2021-07-01T16:22:27Z</time>
      </trkpt>
      <trkpt lat="44.65384" lon="-1.24151">
        <ele>-3.71</ele>
        <time>2021-07-01T16:22:42Z</time>
      </trkpt>
      <trkpt lat="44.65411" lon="-1.24133">
        <ele>-4.19</ele>
        <time>2021-07-01T16:22:55Z</time>
      </trkpt>
      <trkpt lat="44.65435" lon="-1.24118">
        <ele>-3.71</ele>
        <time>2021-07-01T16:23:06Z</time>
      </trkpt>
      <trkpt lat="44.65471" lon="-1.24096">
        <ele>-2.75</ele>
        <time>2021-07-01T16:23:23Z</time>
      </trkpt>
      <trkpt lat="44.65505" lon="-1.24075">
        <ele>-2.75</ele>
        <time>2021-07-01T16:23:39Z</time>
      </trkpt>
      <trkpt lat="44.65549" lon="-1.24048">
        <ele>-3.71</ele>
        <time>2021-07-01T16:23:56Z</time>
      </trkpt>
      <trkpt lat="44.65556" lon="-1.2405">
        <ele>-3.71</ele>
        <time>2021-07-01T16:23:58Z</time>
      </trkpt>
      <trkpt lat="44.65556" lon="-1.2405">
        <ele>-3.71</ele>
        <time>2021-07-01T16:23:59Z</time>
      </trkpt>
      <trkpt lat="44.65556" lon="-1.24053">
        <ele>-4.19</ele>
        <time>2021-07-01T16:24:00Z</time>
      </trkpt>
      <trkpt lat="44.65572" lon="-1.24108">
        <ele>-5.63</ele>
        <time>2021-07-01T16:24:11Z</time>
      </trkpt>
      <trkpt lat="44.65579" lon="-1.24132">
        <ele>-6.11</ele>
        <time>2021-07-01T16:24:15Z</time>
      </trkpt>
      <trkpt lat="44.65599" lon="-1.24185">
        <ele>-7.07</ele>
        <time>2021-07-01T16:24:26Z</time>
      </trkpt>
      <trkpt lat="44.65602" lon="-1.24186">
        <ele>-7.07</ele>
        <time>2021-07-01T16:24:27Z</time>
      </trkpt>
      <trkpt lat="44.65643" lon="-1.24195">
        <ele>-5.63</ele>
        <time>2021-07-01T16:24:40Z</time>
      </trkpt>
      <trkpt lat="44.65653" lon="-1.24198">
        <ele>-6.11</ele>
        <time>2021-07-01T16:25:05Z</time>
      </trkpt>
      <trkpt lat="44.65652" lon="-1.24261">
        <ele>-6.59</ele>
        <time>2021-07-01T16:25:19Z</time>
      </trkpt>
      <trkpt lat="44.65645" lon="-1.24363">
        <ele>-6.11</ele>
        <time>2021-07-01T16:25:36Z</time>
      </trkpt>
      <trkpt lat="44.65636" lon="-1.24424">
        <ele>-5.63</ele>
        <time>2021-07-01T16:25:51Z</time>
      </trkpt>
      <trkpt lat="44.65635" lon="-1.24428">
        <ele>-4.67</ele>
        <time>2021-07-01T16:26:06Z</time>
      </trkpt>
      <trkpt lat="44.65636" lon="-1.24441">
        <ele>-0.34</ele>
        <time>2021-07-01T16:33:47Z</time>
      </trkpt>
      <trkpt lat="44.65631" lon="-1.24437">
        <ele>-1.79</ele>
        <time>2021-07-01T16:34:03Z</time>
      </trkpt>
      <trkpt lat="44.65631" lon="-1.24442">
        <ele>-1.3</ele>
        <time>2021-07-01T16:34:06Z</time>
      </trkpt>
      <trkpt lat="44.6561" lon="-1.24514">
        <ele>-1.3</ele>
        <time>2021-07-01T16:34:17Z</time>
      </trkpt>
      <trkpt lat="44.65566" lon="-1.24664">
        <ele>-0.34</ele>
        <time>2021-07-01T16:34:33Z</time>
      </trkpt>
      <trkpt lat="44.6553" lon="-1.24786">
        <ele>0.14</ele>
        <time>2021-07-01T16:34:47Z</time>
      </trkpt>
      <trkpt lat="44.65508" lon="-1.24862">
        <ele>-0.82</ele>
        <time>2021-07-01T16:34:57Z</time>
      </trkpt>
      <trkpt lat="44.65506" lon="-1.24868">
        <ele>-1.3</ele>
        <time>2021-07-01T16:34:58Z</time>
      </trkpt>
      <trkpt lat="44.65505" lon="-1.24873">
        <ele>-1.3</ele>
        <time>2021-07-01T16:34:59Z</time>
      </trkpt>
      <trkpt lat="44.65514" lon="-1.24891">
        <ele>-1.79</ele>
        <time>2021-07-01T16:35:02Z</time>
      </trkpt>
      <trkpt lat="44.65515" lon="-1.24897">
        <ele>-1.79</ele>
        <time>2021-07-01T16:35:03Z</time>
      </trkpt>
      <trkpt lat="44.65513" lon="-1.24909">
        <ele>-1.79</ele>
        <time>2021-07-01T16:35:04Z</time>
      </trkpt>
      <trkpt lat="44.65511" lon="-1.24914">
        <ele>-1.79</ele>
        <time>2021-07-01T16:35:05Z</time>
      </trkpt>
      <trkpt lat="44.6551" lon="-1.24918">
        <ele>-1.79</ele>
        <time>2021-07-01T16:35:06Z</time>
      </trkpt>
      <trkpt lat="44.65509" lon="-1.2492">
        <ele>-1.79</ele>
        <time>2021-07-01T16:35:07Z</time>
      </trkpt>
      <trkpt lat="44.65502" lon="-1.24923">
        <ele>-1.79</ele>
        <time>2021-07-01T16:35:08Z</time>
      </trkpt>
      <trkpt lat="44.65498" lon="-1.2493">
        <ele>-1.79</ele>
        <time>2021-07-01T16:35:09Z</time>
      </trkpt>
      <trkpt lat="44.65498" lon="-1.24936">
        <ele>-2.27</ele>
        <time>2021-07-01T16:35:10Z</time>
      </trkpt>
      <trkpt lat="44.65498" lon="-1.24943">
        <ele>-2.27</ele>
        <time>2021-07-01T16:35:11Z</time>
      </trkpt>
      <trkpt lat="44.65498" lon="-1.24951">
        <ele>-2.27</ele>
        <time>2021-07-01T16:35:12Z</time>
      </trkpt>
      <trkpt lat="44.65498" lon="-1.25136">
        <ele>-3.23</ele>
        <time>2021-07-01T16:35:30Z</time>
      </trkpt>
      <trkpt lat="44.65498" lon="-1.25164">
        <ele>-2.75</ele>
        <time>2021-07-01T16:35:37Z</time>
      </trkpt>
      <trkpt lat="44.65508" lon="-1.25183">
        <ele>-2.75</ele>
        <time>2021-07-01T16:35:46Z</time>
      </trkpt>
      <trkpt lat="44.65509" lon="-1.25189">
        <ele>-2.75</ele>
        <time>2021-07-01T16:35:47Z</time>
      </trkpt>
      <trkpt lat="44.65513" lon="-1.25197">
        <ele>-2.75</ele>
        <time>2021-07-01T16:35:48Z</time>
      </trkpt>
      <trkpt lat="44.65519" lon="-1.25196">
        <ele>-3.23</ele>
        <time>2021-07-01T16:35:49Z</time>
      </trkpt>
      <trkpt lat="44.65525" lon="-1.25195">
        <ele>-3.71</ele>
        <time>2021-07-01T16:35:50Z</time>
      </trkpt>
      <trkpt lat="44.65532" lon="-1.25193">
        <ele>-3.71</ele>
        <time>2021-07-01T16:35:51Z</time>
      </trkpt>
      <trkpt lat="44.6554" lon="-1.25192">
        <ele>-3.71</ele>
        <time>2021-07-01T16:35:52Z</time>
      </trkpt>
      <trkpt lat="44.65652" lon="-1.25188">
        <ele>-4.67</ele>
        <time>2021-07-01T16:36:04Z</time>
      </trkpt>
      <trkpt lat="44.65745" lon="-1.25171">
        <ele>-3.23</ele>
        <time>2021-07-01T16:36:13Z</time>
      </trkpt>
      <trkpt lat="44.65778" lon="-1.25159">
        <ele>-2.27</ele>
        <time>2021-07-01T16:36:16Z</time>
      </trkpt>
      <trkpt lat="44.65789" lon="-1.25156">
        <ele>-1.79</ele>
        <time>2021-07-01T16:36:17Z</time>
      </trkpt>
      <trkpt lat="44.658" lon="-1.25152">
        <ele>-1.79</ele>
        <time>2021-07-01T16:36:18Z</time>
      </trkpt>
      <trkpt lat="44.65841" lon="-1.25162">
        <ele>-1.3</ele>
        <time>2021-07-01T16:36:22Z</time>
      </trkpt>
      <trkpt lat="44.65851" lon="-1.25164">
        <ele>-0.82</ele>
        <time>2021-07-01T16:36:23Z</time>
      </trkpt>
      <trkpt lat="44.65861" lon="-1.25167">
        <ele>-0.82</ele>
        <time>2021-07-01T16:36:24Z</time>
      </trkpt>
      <trkpt lat="44.6587" lon="-1.2517">
        <ele>-1.3</ele>
        <time>2021-07-01T16:36:25Z</time>
      </trkpt>
      <trkpt lat="44.65879" lon="-1.25176">
        <ele>-1.3</ele>
        <time>2021-07-01T16:36:26Z</time>
      </trkpt>
      <trkpt lat="44.65897" lon="-1.25188">
        <ele>-0.82</ele>
        <time>2021-07-01T16:36:28Z</time>
      </trkpt>
      <trkpt lat="44.65907" lon="-1.25192">
        <ele>-1.3</ele>
        <time>2021-07-01T16:36:29Z</time>
      </trkpt>
      <trkpt lat="44.65917" lon="-1.25196">
        <ele>-1.79</ele>
        <time>2021-07-01T16:36:30Z</time>
      </trkpt>
      <trkpt lat="44.65927" lon="-1.252">
        <ele>-1.79</ele>
        <time>2021-07-01T16:36:31Z</time>
      </trkpt>
      <trkpt lat="44.65938" lon="-1.25205">
        <ele>-1.79</ele>
        <time>2021-07-01T16:36:32Z</time>
      </trkpt>
      <trkpt lat="44.66054" lon="-1.25204">
        <ele>-0.34</ele>
        <time>2021-07-01T16:36:42Z</time>
      </trkpt>
      <trkpt lat="44.66146" lon="-1.25123">
        <ele>0.62</ele>
        <time>2021-07-01T16:36:50Z</time>
      </trkpt>
      <trkpt lat="44.66268" lon="-1.25013">
        <ele>-0.34</ele>
        <time>2021-07-01T16:37:00Z</time>
      </trkpt>
      <trkpt lat="44.66283" lon="-1.25007">
        <ele>-0.34</ele>
        <time>2021-07-01T16:37:01Z</time>
      </trkpt>
      <trkpt lat="44.66299" lon="-1.25002">
        <ele>-0.82</ele>
        <time>2021-07-01T16:37:02Z</time>
      </trkpt>
      <trkpt lat="44.66315" lon="-1.25001">
        <ele>-1.3</ele>
        <time>2021-07-01T16:37:03Z</time>
      </trkpt>
      <trkpt lat="44.66597" lon="-1.24993">
        <ele>-7.07</ele>
        <time>2021-07-01T16:37:18Z</time>
      </trkpt>
      <trkpt lat="44.66847" lon="-1.24989">
        <ele>-14.76</ele>
        <time>2021-07-01T16:37:33Z</time>
      </trkpt>
      <trkpt lat="44.67059" lon="-1.25023">
        <ele>-12.84</ele>
        <time>2021-07-01T16:37:45Z</time>
      </trkpt>
      <trkpt lat="44.67255" lon="-1.24994">
        <ele>-9.48</ele>
        <time>2021-07-01T16:37:56Z</time>
      </trkpt>
      <trkpt lat="44.6751" lon="-1.2494">
        <ele>-8.03</ele>
        <time>2021-07-01T16:38:11Z</time>
      </trkpt>
      <trkpt lat="44.67526" lon="-1.24934">
        <ele>-8.03</ele>
        <time>2021-07-01T16:38:12Z</time>
      </trkpt>
      <trkpt lat="44.67662" lon="-1.24846">
        <ele>-3.71</ele>
        <time>2021-07-01T16:38:20Z</time>
      </trkpt>
      <trkpt lat="44.67678" lon="-1.24843">
        <ele>-3.23</ele>
        <time>2021-07-01T16:38:21Z</time>
      </trkpt>
      <trkpt lat="44.67678" lon="-1.24843">
        <ele>-2.75</ele>
        <time>2021-07-01T16:38:22Z</time>
      </trkpt>
      <trkpt lat="44.67712" lon="-1.24842">
        <ele>-2.27</ele>
        <time>2021-07-01T16:38:23Z</time>
      </trkpt>
      <trkpt lat="44.67712" lon="-1.24842">
        <ele>-1.79</ele>
        <time>2021-07-01T16:38:24Z</time>
      </trkpt>
      <trkpt lat="44.67885" lon="-1.24862">
        <ele>-2.75</ele>
        <time>2021-07-01T16:38:33Z</time>
      </trkpt>
      <trkpt lat="44.68174" lon="-1.249">
        <ele>-3.71</ele>
        <time>2021-07-01T16:38:47Z</time>
      </trkpt>
      <trkpt lat="44.68319" lon="-1.24892">
        <ele>-2.75</ele>
        <time>2021-07-01T16:38:55Z</time>
      </trkpt>
      <trkpt lat="44.68518" lon="-1.24861">
        <ele>-4.19</ele>
        <time>2021-07-01T16:39:06Z</time>
      </trkpt>
      <trkpt lat="44.68534" lon="-1.24856">
        <ele>-4.67</ele>
        <time>2021-07-01T16:39:07Z</time>
      </trkpt>
      <trkpt lat="44.6855" lon="-1.24848">
        <ele>-4.67</ele>
        <time>2021-07-01T16:39:08Z</time>
      </trkpt>
      <trkpt lat="44.68564" lon="-1.24839">
        <ele>-4.67</ele>
        <time>2021-07-01T16:39:09Z</time>
      </trkpt>
      <trkpt lat="44.68587" lon="-1.24812">
        <ele>-4.67</ele>
        <time>2021-07-01T16:39:10Z</time>
      </trkpt>
      <trkpt lat="44.68587" lon="-1.24812">
        <ele>-5.15</ele>
        <time>2021-07-01T16:39:11Z</time>
      </trkpt>
      <trkpt lat="44.68596" lon="-1.24795">
        <ele>-5.15</ele>
        <time>2021-07-01T16:39:12Z</time>
      </trkpt>
      <trkpt lat="44.68606" lon="-1.24778">
        <ele>-5.15</ele>
        <time>2021-07-01T16:39:13Z</time>
      </trkpt>
      <trkpt lat="44.68613" lon="-1.2476">
        <ele>-5.63</ele>
        <time>2021-07-01T16:39:14Z</time>
      </trkpt>
      <trkpt lat="44.68652" lon="-1.24587">
        <ele>-9.48</ele>
        <time>2021-07-01T16:39:23Z</time>
      </trkpt>
      <trkpt lat="44.68658" lon="-1.24466">
        <ele>-9.48</ele>
        <time>2021-07-01T16:39:29Z</time>
      </trkpt>
      <trkpt lat="44.68657" lon="-1.24444">
        <ele>-8.51</ele>
        <time>2021-07-01T16:39:30Z</time>
      </trkpt>
      <trkpt lat="44.68655" lon="-1.24421">
        <ele>-7.55</ele>
        <time>2021-07-01T16:39:31Z</time>
      </trkpt>
      <trkpt lat="44.68608" lon="-1.24255">
        <ele>-8.03</ele>
        <time>2021-07-01T16:39:39Z</time>
      </trkpt>
      <trkpt lat="44.68585" lon="-1.24168">
        <ele>-6.11</ele>
        <time>2021-07-01T16:39:43Z</time>
      </trkpt>
      <trkpt lat="44.68581" lon="-1.24144">
        <ele>-6.11</ele>
        <time>2021-07-01T16:39:44Z</time>
      </trkpt>
      <trkpt lat="44.6858" lon="-1.24121">
        <ele>-5.15</ele>
        <time>2021-07-01T16:39:45Z</time>
      </trkpt>
      <trkpt lat="44.6858" lon="-1.24096">
        <ele>-4.19</ele>
        <time>2021-07-01T16:39:46Z</time>
      </trkpt>
      <trkpt lat="44.68581" lon="-1.24073">
        <ele>-2.75</ele>
        <time>2021-07-01T16:39:47Z</time>
      </trkpt>
      <trkpt lat="44.68608" lon="-1.23898">
        <ele>-2.27</ele>
        <time>2021-07-01T16:39:55Z</time>
      </trkpt>
      <trkpt lat="44.68623" lon="-1.23819">
        <ele>-4.67</ele>
        <time>2021-07-01T16:40:00Z</time>
      </trkpt>
      <trkpt lat="44.68624" lon="-1.23809">
        <ele>-5.15</ele>
        <time>2021-07-01T16:40:01Z</time>
      </trkpt>
      <trkpt lat="44.68625" lon="-1.238">
        <ele>-5.15</ele>
        <time>2021-07-01T16:40:02Z</time>
      </trkpt>
      <trkpt lat="44.68626" lon="-1.23793">
        <ele>-5.15</ele>
        <time>2021-07-01T16:40:03Z</time>
      </trkpt>
      <trkpt lat="44.68627" lon="-1.23787">
        <ele>-5.63</ele>
        <time>2021-07-01T16:40:04Z</time>
      </trkpt>
      <trkpt lat="44.68627" lon="-1.2378">
        <ele>-5.63</ele>
        <time>2021-07-01T16:40:05Z</time>
      </trkpt>
      <trkpt lat="44.68627" lon="-1.23773">
        <ele>-5.63</ele>
        <time>2021-07-01T16:40:06Z</time>
      </trkpt>
      <trkpt lat="44.6863" lon="-1.23766">
        <ele>-5.63</ele>
        <time>2021-07-01T16:40:07Z</time>
      </trkpt>
      <trkpt lat="44.68634" lon="-1.23762">
        <ele>-5.63</ele>
        <time>2021-07-01T16:40:08Z</time>
      </trkpt>
      <trkpt lat="44.68638" lon="-1.2376">
        <ele>-5.63</ele>
        <time>2021-07-01T16:40:09Z</time>
      </trkpt>
      <trkpt lat="44.68643" lon="-1.23761">
        <ele>-5.63</ele>
        <time>2021-07-01T16:40:10Z</time>
      </trkpt>
      <trkpt lat="44.68648" lon="-1.23762">
        <ele>-5.15</ele>
        <time>2021-07-01T16:40:11Z</time>
      </trkpt>
      <trkpt lat="44.68659" lon="-1.23772">
        <ele>-5.15</ele>
        <time>2021-07-01T16:40:12Z</time>
      </trkpt>
      <trkpt lat="44.68659" lon="-1.23772">
        <ele>-5.15</ele>
        <time>2021-07-01T16:40:13Z</time>
      </trkpt>
      <trkpt lat="44.68665" lon="-1.23775">
        <ele>-4.67</ele>
        <time>2021-07-01T16:40:14Z</time>
      </trkpt>
      <trkpt lat="44.68743" lon="-1.23811">
        <ele>-3.23</ele>
        <time>2021-07-01T16:40:22Z</time>
      </trkpt>
      <trkpt lat="44.68836" lon="-1.23904">
        <ele>1.1</ele>
        <time>2021-07-01T16:40:30Z</time>
      </trkpt>
      <trkpt lat="44.68904" lon="-1.23958">
        <ele>6.39</ele>
        <time>2021-07-01T16:40:36Z</time>
      </trkpt>
      <trkpt lat="44.68904" lon="-1.23958">
        <ele>7.83</ele>
        <time>2021-07-01T16:40:37Z</time>
      </trkpt>
      <trkpt lat="44.68917" lon="-1.23961">
        <ele>7.83</ele>
        <time>2021-07-01T16:40:38Z</time>
      </trkpt>
      <trkpt lat="44.68931" lon="-1.23963">
        <ele>6.87</ele>
        <time>2021-07-01T16:40:39Z</time>
      </trkpt>
      <trkpt lat="44.68945" lon="-1.23965">
        <ele>6.39</ele>
        <time>2021-07-01T16:40:40Z</time>
      </trkpt>
      <trkpt lat="44.68957" lon="-1.23967">
        <ele>6.87</ele>
        <time>2021-07-01T16:40:41Z</time>
      </trkpt>
      <trkpt lat="44.69113" lon="-1.23951">
        <ele>2.06</ele>
        <time>2021-07-01T16:40:52Z</time>
      </trkpt>
      <trkpt lat="44.6921" lon="-1.23883">
        <ele>0.62</ele>
        <time>2021-07-01T16:40:59Z</time>
      </trkpt>
      <trkpt lat="44.693" lon="-1.23746">
        <ele>0.14</ele>
        <time>2021-07-01T16:41:07Z</time>
      </trkpt>
      <trkpt lat="44.69412" lon="-1.23537">
        <ele>6.39</ele>
        <time>2021-07-01T16:41:18Z</time>
      </trkpt>
      <trkpt lat="44.695" lon="-1.23393">
        <ele>4.94</ele>
        <time>2021-07-01T16:41:30Z</time>
      </trkpt>
      <trkpt lat="44.69619" lon="-1.23255">
        <ele>-5.63</ele>
        <time>2021-07-01T16:41:43Z</time>
      </trkpt>
      <trkpt lat="44.69699" lon="-1.23166">
        <ele>-6.11</ele>
        <time>2021-07-01T16:41:52Z</time>
      </trkpt>
      <trkpt lat="44.69741" lon="-1.23109">
        <ele>-4.67</ele>
        <time>2021-07-01T16:42:03Z</time>
      </trkpt>
      <trkpt lat="44.69771" lon="-1.23068">
        <ele>-3.71</ele>
        <time>2021-07-01T16:42:15Z</time>
      </trkpt>
      <trkpt lat="44.69812" lon="-1.23019">
        <ele>-3.23</ele>
        <time>2021-07-01T16:42:25Z</time>
      </trkpt>
      <trkpt lat="44.69863" lon="-1.22991">
        <ele>-3.23</ele>
        <time>2021-07-01T16:42:35Z</time>
      </trkpt>
      <trkpt lat="44.69875" lon="-1.22986">
        <ele>-4.19</ele>
        <time>2021-07-01T16:42:40Z</time>
      </trkpt>
      <trkpt lat="44.69951" lon="-1.22981">
        <ele>-6.59</ele>
        <time>2021-07-01T16:42:57Z</time>
      </trkpt>
      <trkpt lat="44.70007" lon="-1.22991">
        <ele>-5.15</ele>
        <time>2021-07-01T16:43:08Z</time>
      </trkpt>
      <trkpt lat="44.70014" lon="-1.22992">
        <ele>-5.15</ele>
        <time>2021-07-01T16:43:09Z</time>
      </trkpt>
      <trkpt lat="44.70107" lon="-1.22966">
        <ele>-5.15</ele>
        <time>2021-07-01T16:43:20Z</time>
      </trkpt>
      <trkpt lat="44.70209" lon="-1.22873">
        <ele>-5.63</ele>
        <time>2021-07-01T16:43:33Z</time>
      </trkpt>
      <trkpt lat="44.70266" lon="-1.22813">
        <ele>-5.63</ele>
        <time>2021-07-01T16:43:44Z</time>
      </trkpt>
      <trkpt lat="44.7036" lon="-1.22718">
        <ele>-6.11</ele>
        <time>2021-07-01T16:44:00Z</time>
      </trkpt>
      <trkpt lat="44.70444" lon="-1.22631">
        <ele>-7.07</ele>
        <time>2021-07-01T16:44:12Z</time>
      </trkpt>
      <trkpt lat="44.70568" lon="-1.2251">
        <ele>-5.63</ele>
        <time>2021-07-01T16:44:26Z</time>
      </trkpt>
      <trkpt lat="44.70661" lon="-1.22463">
        <ele>-3.71</ele>
        <time>2021-07-01T16:44:36Z</time>
      </trkpt>
      <trkpt lat="44.70778" lon="-1.22473">
        <ele>-5.15</ele>
        <time>2021-07-01T16:44:47Z</time>
      </trkpt>
      <trkpt lat="44.70873" lon="-1.22471">
        <ele>-8.03</ele>
        <time>2021-07-01T16:44:55Z</time>
      </trkpt>
      <trkpt lat="44.70885" lon="-1.22464">
        <ele>-8.51</ele>
        <time>2021-07-01T16:44:56Z</time>
      </trkpt>
      <trkpt lat="44.70897" lon="-1.22458">
        <ele>-9</ele>
        <time>2021-07-01T16:44:57Z</time>
      </trkpt>
      <trkpt lat="44.70968" lon="-1.22379">
        <ele>-9</ele>
        <time>2021-07-01T16:45:05Z</time>
      </trkpt>
      <trkpt lat="44.71074" lon="-1.22189">
        <ele>-9</ele>
        <time>2021-07-01T16:45:21Z</time>
      </trkpt>
      <trkpt lat="44.71145" lon="-1.22011">
        <ele>-9.96</ele>
        <time>2021-07-01T16:45:33Z</time>
      </trkpt>
      <trkpt lat="44.71173" lon="-1.21936">
        <ele>-12.36</ele>
        <time>2021-07-01T16:45:38Z</time>
      </trkpt>
      <trkpt lat="44.7126" lon="-1.21788">
        <ele>-10.92</ele>
        <time>2021-07-01T16:45:49Z</time>
      </trkpt>
      <trkpt lat="44.7135" lon="-1.21649">
        <ele>-10.44</ele>
        <time>2021-07-01T16:46:05Z</time>
      </trkpt>
      <trkpt lat="44.71418" lon="-1.21547">
        <ele>-9</ele>
        <time>2021-07-01T16:46:16Z</time>
      </trkpt>
      <trkpt lat="44.71494" lon="-1.21431">
        <ele>-7.07</ele>
        <time>2021-07-01T16:46:30Z</time>
      </trkpt>
      <trkpt lat="44.71599" lon="-1.21304">
        <ele>-6.59</ele>
        <time>2021-07-01T16:46:43Z</time>
      </trkpt>
      <trkpt lat="44.7176" lon="-1.21164">
        <ele>-6.11</ele>
        <time>2021-07-01T16:47:02Z</time>
      </trkpt>
      <trkpt lat="44.7188" lon="-1.21074">
        <ele>-6.11</ele>
        <time>2021-07-01T16:47:13Z</time>
      </trkpt>
      <trkpt lat="44.71982" lon="-1.21038">
        <ele>-4.67</ele>
        <time>2021-07-01T16:47:23Z</time>
      </trkpt>
      <trkpt lat="44.7206" lon="-1.21015">
        <ele>-3.71</ele>
        <time>2021-07-01T16:47:33Z</time>
      </trkpt>
      <trkpt lat="44.72133" lon="-1.20988">
        <ele>-4.67</ele>
        <time>2021-07-01T16:47:41Z</time>
      </trkpt>
      <trkpt lat="44.72183" lon="-1.20939">
        <ele>-5.63</ele>
        <time>2021-07-01T16:47:46Z</time>
      </trkpt>
      <trkpt lat="44.72199" lon="-1.20913">
        <ele>-6.11</ele>
        <time>2021-07-01T16:47:47Z</time>
      </trkpt>
      <trkpt lat="44.72199" lon="-1.20913">
        <ele>-6.11</ele>
        <time>2021-07-01T16:47:48Z</time>
      </trkpt>
      <trkpt lat="44.72258" lon="-1.20719">
        <ele>0.14</ele>
        <time>2021-07-01T16:47:59Z</time>
      </trkpt>
      <trkpt lat="44.72301" lon="-1.20571">
        <ele>-4.19</ele>
        <time>2021-07-01T16:48:12Z</time>
      </trkpt>
      <trkpt lat="44.7234" lon="-1.2044">
        <ele>-5.15</ele>
        <time>2021-07-01T16:48:22Z</time>
      </trkpt>
      <trkpt lat="44.72343" lon="-1.20429">
        <ele>-5.15</ele>
        <time>2021-07-01T16:48:24Z</time>
      </trkpt>
      <trkpt lat="44.72338" lon="-1.20412">
        <ele>-5.63</ele>
        <time>2021-07-01T16:48:25Z</time>
      </trkpt>
      <trkpt lat="44.72339" lon="-1.20405">
        <ele>-6.11</ele>
        <time>2021-07-01T16:48:26Z</time>
      </trkpt>
      <trkpt lat="44.72348" lon="-1.204">
        <ele>-6.11</ele>
        <time>2021-07-01T16:48:27Z</time>
      </trkpt>
      <trkpt lat="44.72352" lon="-1.20391">
        <ele>-6.11</ele>
        <time>2021-07-01T16:48:28Z</time>
      </trkpt>
      <trkpt lat="44.72355" lon="-1.20381">
        <ele>-6.11</ele>
        <time>2021-07-01T16:48:29Z</time>
      </trkpt>
      <trkpt lat="44.72357" lon="-1.20372">
        <ele>-6.11</ele>
        <time>2021-07-01T16:48:30Z</time>
      </trkpt>
      <trkpt lat="44.72389" lon="-1.20262">
        <ele>-6.11</ele>
        <time>2021-07-01T16:48:42Z</time>
      </trkpt>
      <trkpt lat="44.72414" lon="-1.20195">
        <ele>-7.55</ele>
        <time>2021-07-01T16:48:48Z</time>
      </trkpt>
      <trkpt lat="44.7247" lon="-1.20119">
        <ele>-7.07</ele>
        <time>2021-07-01T16:48:58Z</time>
      </trkpt>
      <trkpt lat="44.72522" lon="-1.20063">
        <ele>-5.63</ele>
        <time>2021-07-01T16:49:08Z</time>
      </trkpt>
      <trkpt lat="44.72608" lon="-1.19982">
        <ele>-5.63</ele>
        <time>2021-07-01T16:49:18Z</time>
      </trkpt>
      <trkpt lat="44.72727" lon="-1.1985">
        <ele>-6.11</ele>
        <time>2021-07-01T16:49:32Z</time>
      </trkpt>
      <trkpt lat="44.72778" lon="-1.19791">
        <ele>-5.15</ele>
        <time>2021-07-01T16:49:43Z</time>
      </trkpt>
      <trkpt lat="44.72832" lon="-1.19735">
        <ele>-6.11</ele>
        <time>2021-07-01T16:49:52Z</time>
      </trkpt>
      <trkpt lat="44.7288" lon="-1.19692">
        <ele>-6.11</ele>
        <time>2021-07-01T16:50:01Z</time>
      </trkpt>
      <trkpt lat="44.72986" lon="-1.19621">
        <ele>-5.15</ele>
        <time>2021-07-01T16:50:12Z</time>
      </trkpt>
      <trkpt lat="44.73036" lon="-1.19605">
        <ele>-5.15</ele>
        <time>2021-07-01T16:50:16Z</time>
      </trkpt>
      <trkpt lat="44.7305" lon="-1.19604">
        <ele>-4.67</ele>
        <time>2021-07-01T16:50:17Z</time>
      </trkpt>
      <trkpt lat="44.73063" lon="-1.19603">
        <ele>-4.67</ele>
        <time>2021-07-01T16:50:18Z</time>
      </trkpt>
      <trkpt lat="44.7325" lon="-1.19628">
        <ele>0.62</ele>
        <time>2021-07-01T16:50:32Z</time>
      </trkpt>
      <trkpt lat="44.73405" lon="-1.1965">
        <ele>-5.15</ele>
        <time>2021-07-01T16:50:44Z</time>
      </trkpt>
      <trkpt lat="44.73543" lon="-1.19664">
        <ele>-1.3</ele>
        <time>2021-07-01T16:50:55Z</time>
      </trkpt>
      <trkpt lat="44.73557" lon="-1.19664">
        <ele>-0.82</ele>
        <time>2021-07-01T16:50:56Z</time>
      </trkpt>
      <trkpt lat="44.73572" lon="-1.19663">
        <ele>-0.82</ele>
        <time>2021-07-01T16:50:57Z</time>
      </trkpt>
      <trkpt lat="44.73584" lon="-1.19656">
        <ele>-1.3</ele>
        <time>2021-07-01T16:50:58Z</time>
      </trkpt>
      <trkpt lat="44.73597" lon="-1.19648">
        <ele>-1.79</ele>
        <time>2021-07-01T16:50:59Z</time>
      </trkpt>
      <trkpt lat="44.73611" lon="-1.1964">
        <ele>-2.27</ele>
        <time>2021-07-01T16:51:00Z</time>
      </trkpt>
      <trkpt lat="44.73623" lon="-1.19629">
        <ele>-1.79</ele>
        <time>2021-07-01T16:51:01Z</time>
      </trkpt>
      <trkpt lat="44.73731" lon="-1.19471">
        <ele>-5.15</ele>
        <time>2021-07-01T16:51:11Z</time>
      </trkpt>
      <trkpt lat="44.738" lon="-1.19336">
        <ele>-4.67</ele>
        <time>2021-07-01T16:51:20Z</time>
      </trkpt>
      <trkpt lat="44.73879" lon="-1.19171">
        <ele>-4.67</ele>
        <time>2021-07-01T16:51:30Z</time>
      </trkpt>
      <trkpt lat="44.73962" lon="-1.19001">
        <ele>-9</ele>
        <time>2021-07-01T16:51:40Z</time>
      </trkpt>
      <trkpt lat="44.7406" lon="-1.18791">
        <ele>-9</ele>
        <time>2021-07-01T16:51:52Z</time>
      </trkpt>
      <trkpt lat="44.74146" lon="-1.18543">
        <ele>-6.59</ele>
        <time>2021-07-01T16:52:05Z</time>
      </trkpt>
      <trkpt lat="44.74199" lon="-1.18388">
        <ele>-6.59</ele>
        <time>2021-07-01T16:52:17Z</time>
      </trkpt>
      <trkpt lat="44.74236" lon="-1.18322">
        <ele>-5.15</ele>
        <time>2021-07-01T16:52:25Z</time>
      </trkpt>
      <trkpt lat="44.74254" lon="-1.18297">
        <ele>-5.15</ele>
        <time>2021-07-01T16:52:41Z</time>
      </trkpt>
      <trkpt lat="44.74272" lon="-1.18276">
        <ele>-4.67</ele>
        <time>2021-07-01T16:52:57Z</time>
      </trkpt>
      <trkpt lat="44.74276" lon="-1.18271">
        <ele>-5.15</ele>
        <time>2021-07-01T16:53:14Z</time>
      </trkpt>
      <trkpt lat="44.74284" lon="-1.18262">
        <ele>-5.15</ele>
        <time>2021-07-01T16:53:30Z</time>
      </trkpt>
      <trkpt lat="44.743" lon="-1.18243">
        <ele>-5.15</ele>
        <time>2021-07-01T16:53:51Z</time>
      </trkpt>
      <trkpt lat="44.74307" lon="-1.18236">
        <ele>-5.15</ele>
        <time>2021-07-01T16:54:06Z</time>
      </trkpt>
      <trkpt lat="44.74319" lon="-1.18221">
        <ele>-5.15</ele>
        <time>2021-07-01T16:54:18Z</time>
      </trkpt>
      <trkpt lat="44.74329" lon="-1.18211">
        <ele>-5.15</ele>
        <time>2021-07-01T16:55:00Z</time>
      </trkpt>
      <trkpt lat="44.74346" lon="-1.18193">
        <ele>-5.63</ele>
        <time>2021-07-01T16:55:20Z</time>
      </trkpt>
      <trkpt lat="44.74352" lon="-1.18186">
        <ele>-5.63</ele>
        <time>2021-07-01T16:55:33Z</time>
      </trkpt>
      <trkpt lat="44.74369" lon="-1.18169">
        <ele>-5.63</ele>
        <time>2021-07-01T16:55:53Z</time>
      </trkpt>
      <trkpt lat="44.74391" lon="-1.18147">
        <ele>-6.11</ele>
        <time>2021-07-01T16:56:12Z</time>
      </trkpt>
      <trkpt lat="44.74412" lon="-1.18138">
        <ele>-6.59</ele>
        <time>2021-07-01T16:56:31Z</time>
      </trkpt>
      <trkpt lat="44.74438" lon="-1.18133">
        <ele>-6.11</ele>
        <time>2021-07-01T16:56:53Z</time>
      </trkpt>
      <trkpt lat="44.74459" lon="-1.18133">
        <ele>-5.63</ele>
        <time>2021-07-01T16:57:13Z</time>
      </trkpt>
      <trkpt lat="44.74476" lon="-1.18133">
        <ele>-5.15</ele>
        <time>2021-07-01T16:57:28Z</time>
      </trkpt>
      <trkpt lat="44.74497" lon="-1.18133">
        <ele>-6.59</ele>
        <time>2021-07-01T16:57:44Z</time>
      </trkpt>
      <trkpt lat="44.74499" lon="-1.18133">
        <ele>-6.11</ele>
        <time>2021-07-01T16:58:03Z</time>
      </trkpt>
      <trkpt lat="44.74499" lon="-1.18133">
        <ele>-6.11</ele>
        <time>2021-07-01T16:59:01Z</time>
      </trkpt>
      <trkpt lat="44.7453" lon="-1.18133">
        <ele>-7.07</ele>
        <time>2021-07-01T16:59:18Z</time>
      </trkpt>
      <trkpt lat="44.74555" lon="-1.18131">
        <ele>-6.11</ele>
        <time>2021-07-01T16:59:32Z</time>
      </trkpt>
      <trkpt lat="44.74568" lon="-1.1813">
        <ele>-6.11</ele>
        <time>2021-07-01T16:59:46Z</time>
      </trkpt>
      <trkpt lat="44.74582" lon="-1.18128">
        <ele>-6.11</ele>
        <time>2021-07-01T17:00:00Z</time>
      </trkpt>
      <trkpt lat="44.74582" lon="-1.18128">
        <ele>-6.11</ele>
        <time>2021-07-01T17:00:24Z</time>
      </trkpt>
      <trkpt lat="44.74601" lon="-1.18126">
        <ele>-5.63</ele>
        <time>2021-07-01T17:00:59Z</time>
      </trkpt>
      <trkpt lat="44.74614" lon="-1.18125">
        <ele>-5.63</ele>
        <time>2021-07-01T17:01:14Z</time>
      </trkpt>
      <trkpt lat="44.74614" lon="-1.18125">
        <ele>-5.63</ele>
        <time>2021-07-01T17:01:30Z</time>
      </trkpt>
      <trkpt lat="44.74614" lon="-1.18125">
        <ele>-5.63</ele>
        <time>2021-07-01T17:01:31Z</time>
      </trkpt>
      <trkpt lat="44.74644" lon="-1.18121">
        <ele>-6.59</ele>
        <time>2021-07-01T17:01:47Z</time>
      </trkpt>
      <trkpt lat="44.74658" lon="-1.18119">
        <ele>-8.03</ele>
        <time>2021-07-01T17:02:17Z</time>
      </trkpt>
      <trkpt lat="44.74665" lon="-1.18119">
        <ele>-7.55</ele>
        <time>2021-07-01T17:02:52Z</time>
      </trkpt>
      <trkpt lat="44.74684" lon="-1.18116">
        <ele>-7.55</ele>
        <time>2021-07-01T17:03:08Z</time>
      </trkpt>
      <trkpt lat="44.74708" lon="-1.18113">
        <ele>-7.55</ele>
        <time>2021-07-01T17:03:28Z</time>
      </trkpt>
      <trkpt lat="44.74723" lon="-1.18112">
        <ele>-7.55</ele>
        <time>2021-07-01T17:03:47Z</time>
      </trkpt>
      <trkpt lat="44.74753" lon="-1.18108">
        <ele>-8.03</ele>
        <time>2021-07-01T17:04:02Z</time>
      </trkpt>
      <trkpt lat="44.74786" lon="-1.18105">
        <ele>-9.96</ele>
        <time>2021-07-01T17:04:16Z</time>
      </trkpt>
      <trkpt lat="44.74814" lon="-1.18101">
        <ele>-8.03</ele>
        <time>2021-07-01T17:04:29Z</time>
      </trkpt>
      <trkpt lat="44.74824" lon="-1.181">
        <ele>-8.03</ele>
        <time>2021-07-01T17:04:43Z</time>
      </trkpt>
      <trkpt lat="44.74846" lon="-1.18097">
        <ele>-7.55</ele>
        <time>2021-07-01T17:04:58Z</time>
      </trkpt>
      <trkpt lat="44.74866" lon="-1.18095">
        <ele>-7.07</ele>
        <time>2021-07-01T17:05:12Z</time>
      </trkpt>
      <trkpt lat="44.74901" lon="-1.18091">
        <ele>-2.75</ele>
        <time>2021-07-01T17:05:34Z</time>
      </trkpt>
      <trkpt lat="44.74913" lon="-1.1809">
        <ele>-0.82</ele>
        <time>2021-07-01T17:05:51Z</time>
      </trkpt>
      <trkpt lat="44.74913" lon="-1.1809">
        <ele>-0.34</ele>
        <time>2021-07-01T17:06:08Z</time>
      </trkpt>
      <trkpt lat="44.74948" lon="-1.18087">
        <ele>1.1</ele>
        <time>2021-07-01T17:06:26Z</time>
      </trkpt>
      <trkpt lat="44.7498" lon="-1.18084">
        <ele>1.58</ele>
        <time>2021-07-01T17:06:48Z</time>
      </trkpt>
      <trkpt lat="44.74983" lon="-1.18083">
        <ele>-0.82</ele>
        <time>2021-07-01T17:07:08Z</time>
      </trkpt>
      <trkpt lat="44.74998" lon="-1.18082">
        <ele>-0.82</ele>
        <time>2021-07-01T17:07:59Z</time>
      </trkpt>
      <trkpt lat="44.75005" lon="-1.18081">
        <ele>-0.82</ele>
        <time>2021-07-01T17:08:16Z</time>
      </trkpt>
      <trkpt lat="44.75023" lon="-1.18079">
        <ele>-0.82</ele>
        <time>2021-07-01T17:08:33Z</time>
      </trkpt>
      <trkpt lat="44.75047" lon="-1.18077">
        <ele>-1.79</ele>
        <time>2021-07-01T17:08:48Z</time>
      </trkpt>
      <trkpt lat="44.75047" lon="-1.18077">
        <ele>-1.79</ele>
        <time>2021-07-01T17:09:14Z</time>
      </trkpt>
      <trkpt lat="44.75047" lon="-1.18077">
        <ele>-1.79</ele>
        <time>2021-07-01T17:09:31Z</time>
      </trkpt>
      <trkpt lat="44.75061" lon="-1.18076">
        <ele>-1.79</ele>
        <time>2021-07-01T17:10:18Z</time>
      </trkpt>
      <trkpt lat="44.75071" lon="-1.18075">
        <ele>-1.79</ele>
        <time>2021-07-01T17:10:32Z</time>
      </trkpt>
      <trkpt lat="44.75071" lon="-1.18075">
        <ele>-1.79</ele>
        <time>2021-07-01T17:10:49Z</time>
      </trkpt>
      <trkpt lat="44.7508" lon="-1.18074">
        <ele>-2.27</ele>
        <time>2021-07-01T17:11:24Z</time>
      </trkpt>
      <trkpt lat="44.75084" lon="-1.18073">
        <ele>-2.75</ele>
        <time>2021-07-01T17:11:37Z</time>
      </trkpt>
      <trkpt lat="44.75087" lon="-1.18073">
        <ele>-2.27</ele>
        <time>2021-07-01T17:11:49Z</time>
      </trkpt>
      <trkpt lat="44.75087" lon="-1.18073">
        <ele>-2.27</ele>
        <time>2021-07-01T17:12:32Z</time>
      </trkpt>
      <trkpt lat="44.75105" lon="-1.1803">
        <ele>-3.23</ele>
        <time>2021-07-01T17:12:43Z</time>
      </trkpt>
      <trkpt lat="44.75072" lon="-1.18027">
        <ele>-4.19</ele>
        <time>2021-07-01T17:12:58Z</time>
      </trkpt>
      <trkpt lat="44.7507" lon="-1.18037">
        <ele>-5.15</ele>
        <time>2021-07-01T17:13:11Z</time>
      </trkpt>
      <trkpt lat="44.75071" lon="-1.18039">
        <ele>-5.15</ele>
        <time>2021-07-01T17:13:35Z</time>
      </trkpt>
      <trkpt lat="44.75073" lon="-1.1804">
        <ele>-5.15</ele>
        <time>2021-07-01T17:15:15Z</time>
      </trkpt>
      <trkpt lat="44.75073" lon="-1.18041">
        <ele>-5.63</ele>
        <time>2021-07-01T17:16:06Z</time>
      </trkpt>
      <trkpt lat="44.75073" lon="-1.18041">
        <ele>-5.63</ele>
        <time>2021-07-01T17:17:17Z</time>
      </trkpt>
      <trkpt lat="44.75075" lon="-1.18033">
        <ele>-0.34</ele>
        <time>2021-07-01T17:17:47Z</time>
      </trkpt>
      <trkpt lat="44.75076" lon="-1.18032">
        <ele>-0.34</ele>
        <time>2021-07-01T17:17:54Z</time>
      </trkpt>
      <trkpt lat="44.75081" lon="-1.18032">
        <ele>-0.34</ele>
        <time>2021-07-01T17:17:58Z</time>
      </trkpt>
      <trkpt lat="44.75108" lon="-1.18034">
        <ele>-2.27</ele>
        <time>2021-07-01T17:18:11Z</time>
      </trkpt>
      <trkpt lat="44.75109" lon="-1.18034">
        <ele>-3.23</ele>
        <time>2021-07-01T17:18:12Z</time>
      </trkpt>
      <trkpt lat="44.7511" lon="-1.18034">
        <ele>-3.71</ele>
        <time>2021-07-01T17:18:13Z</time>
      </trkpt>
      <trkpt lat="44.75106" lon="-1.18045">
        <ele>-4.67</ele>
        <time>2021-07-01T17:18:28Z</time>
      </trkpt>
      <trkpt lat="44.75112" lon="-1.18059">
        <ele>-6.11</ele>
        <time>2021-07-01T17:18:43Z</time>
      </trkpt>
      <trkpt lat="44.75123" lon="-1.1806">
        <ele>-6.59</ele>
        <time>2021-07-01T17:18:57Z</time>
      </trkpt>
      <trkpt lat="44.75143" lon="-1.18062">
        <ele>-8.03</ele>
        <time>2021-07-01T17:19:13Z</time>
      </trkpt>
      <trkpt lat="44.75176" lon="-1.18059">
        <ele>-10.92</ele>
        <time>2021-07-01T17:19:32Z</time>
      </trkpt>
      <trkpt lat="44.7519" lon="-1.18058">
        <ele>-11.88</ele>
        <time>2021-07-01T17:19:45Z</time>
      </trkpt>
      <trkpt lat="44.75205" lon="-1.18057">
        <ele>-12.36</ele>
        <time>2021-07-01T17:20:00Z</time>
      </trkpt>
      <trkpt lat="44.75225" lon="-1.18055">
        <ele>-11.88</ele>
        <time>2021-07-01T17:20:18Z</time>
      </trkpt>
      <trkpt lat="44.75253" lon="-1.18051">
        <ele>-11.4</ele>
        <time>2021-07-01T17:20:36Z</time>
      </trkpt>
      <trkpt lat="44.75278" lon="-1.18048">
        <ele>-11.88</ele>
        <time>2021-07-01T17:20:52Z</time>
      </trkpt>
      <trkpt lat="44.75284" lon="-1.18047">
        <ele>-11.4</ele>
        <time>2021-07-01T17:21:12Z</time>
      </trkpt>
      <trkpt lat="44.75299" lon="-1.18045">
        <ele>-11.4</ele>
        <time>2021-07-01T17:21:23Z</time>
      </trkpt>
      <trkpt lat="44.75324" lon="-1.18042">
        <ele>-11.4</ele>
        <time>2021-07-01T17:21:44Z</time>
      </trkpt>
      <trkpt lat="44.75324" lon="-1.18042">
        <ele>-11.88</ele>
        <time>2021-07-01T17:22:09Z</time>
      </trkpt>
      <trkpt lat="44.75347" lon="-1.18039">
        <ele>-12.36</ele>
        <time>2021-07-01T17:22:23Z</time>
      </trkpt>
      <trkpt lat="44.7538" lon="-1.18035">
        <ele>-13.32</ele>
        <time>2021-07-01T17:22:39Z</time>
      </trkpt>
      <trkpt lat="44.75413" lon="-1.18031">
        <ele>-14.28</ele>
        <time>2021-07-01T17:22:55Z</time>
      </trkpt>
      <trkpt lat="44.75443" lon="-1.18027">
        <ele>-10.44</ele>
        <time>2021-07-01T17:23:16Z</time>
      </trkpt>
      <trkpt lat="44.75443" lon="-1.18027">
        <ele>-9.96</ele>
        <time>2021-07-01T17:23:41Z</time>
      </trkpt>
      <trkpt lat="44.75464" lon="-1.18025">
        <ele>-10.44</ele>
        <time>2021-07-01T17:24:07Z</time>
      </trkpt>
      <trkpt lat="44.755" lon="-1.18019">
        <ele>-10.44</ele>
        <time>2021-07-01T17:24:31Z</time>
      </trkpt>
      <trkpt lat="44.75532" lon="-1.18016">
        <ele>-10.44</ele>
        <time>2021-07-01T17:24:44Z</time>
      </trkpt>
      <trkpt lat="44.75588" lon="-1.1801">
        <ele>-8.51</ele>
        <time>2021-07-01T17:25:05Z</time>
      </trkpt>
      <trkpt lat="44.75601" lon="-1.18009">
        <ele>-8.51</ele>
        <time>2021-07-01T17:25:21Z</time>
      </trkpt>
      <trkpt lat="44.75621" lon="-1.18007">
        <ele>-8.51</ele>
        <time>2021-07-01T17:25:47Z</time>
      </trkpt>
      <trkpt lat="44.75658" lon="-1.18007">
        <ele>-8.03</ele>
        <time>2021-07-01T17:26:01Z</time>
      </trkpt>
      <trkpt lat="44.75697" lon="-1.18007">
        <ele>-7.55</ele>
        <time>2021-07-01T17:26:13Z</time>
      </trkpt>
      <trkpt lat="44.75709" lon="-1.18007">
        <ele>-7.07</ele>
        <time>2021-07-01T17:26:25Z</time>
      </trkpt>
      <trkpt lat="44.75734" lon="-1.18007">
        <ele>-6.59</ele>
        <time>2021-07-01T17:27:20Z</time>
      </trkpt>
      <trkpt lat="44.75832" lon="-1.18004">
        <ele>-6.59</ele>
        <time>2021-07-01T17:27:32Z</time>
      </trkpt>
      <trkpt lat="44.75968" lon="-1.1801">
        <ele>-1.79</ele>
        <time>2021-07-01T17:27:46Z</time>
      </trkpt>
      <trkpt lat="44.76136" lon="-1.18025">
        <ele>-0.82</ele>
        <time>2021-07-01T17:28:00Z</time>
      </trkpt>
      <trkpt lat="44.76308" lon="-1.18042">
        <ele>1.58</ele>
        <time>2021-07-01T17:28:11Z</time>
      </trkpt>
      <trkpt lat="44.76354" lon="-1.18035">
        <ele>2.54</ele>
        <time>2021-07-01T17:28:14Z</time>
      </trkpt>
      <trkpt lat="44.76369" lon="-1.18028">
        <ele>2.54</ele>
        <time>2021-07-01T17:28:15Z</time>
      </trkpt>
      <trkpt lat="44.76384" lon="-1.18022">
        <ele>1.58</ele>
        <time>2021-07-01T17:28:16Z</time>
      </trkpt>
      <trkpt lat="44.76522" lon="-1.17905">
        <ele>4.94</ele>
        <time>2021-07-01T17:28:25Z</time>
      </trkpt>
      <trkpt lat="44.76714" lon="-1.1772">
        <ele>3.02</ele>
        <time>2021-07-01T17:28:39Z</time>
      </trkpt>
      <trkpt lat="44.76958" lon="-1.17486">
        <ele>3.02</ele>
        <time>2021-07-01T17:28:54Z</time>
      </trkpt>
      <trkpt lat="44.77175" lon="-1.17278">
        <ele>3.02</ele>
        <time>2021-07-01T17:29:08Z</time>
      </trkpt>
      <trkpt lat="44.77494" lon="-1.16972">
        <ele>3.5</ele>
        <time>2021-07-01T17:29:30Z</time>
      </trkpt>
      <trkpt lat="44.77606" lon="-1.16864">
        <ele>2.06</ele>
        <time>2021-07-01T17:29:39Z</time>
      </trkpt>
      <trkpt lat="44.77755" lon="-1.16724">
        <ele>3.02</ele>
        <time>2021-07-01T17:29:51Z</time>
      </trkpt>
      <trkpt lat="44.77796" lon="-1.16682">
        <ele>3.5</ele>
        <time>2021-07-01T17:29:57Z</time>
      </trkpt>
      <trkpt lat="44.77799" lon="-1.16666">
        <ele>3.5</ele>
        <time>2021-07-01T17:30:00Z</time>
      </trkpt>
      <trkpt lat="44.778" lon="-1.16659">
        <ele>3.5</ele>
        <time>2021-07-01T17:30:01Z</time>
      </trkpt>
      <trkpt lat="44.77803" lon="-1.1665">
        <ele>3.98</ele>
        <time>2021-07-01T17:30:02Z</time>
      </trkpt>
      <trkpt lat="44.7781" lon="-1.16643">
        <ele>3.98</ele>
        <time>2021-07-01T17:30:03Z</time>
      </trkpt>
      <trkpt lat="44.77817" lon="-1.1664">
        <ele>3.98</ele>
        <time>2021-07-01T17:30:04Z</time>
      </trkpt>
      <trkpt lat="44.77836" lon="-1.16638">
        <ele>3.98</ele>
        <time>2021-07-01T17:30:05Z</time>
      </trkpt>
      <trkpt lat="44.77836" lon="-1.16638">
        <ele>3.5</ele>
        <time>2021-07-01T17:30:06Z</time>
      </trkpt>
      <trkpt lat="44.77916" lon="-1.1654">
        <ele>3.98</ele>
        <time>2021-07-01T17:30:14Z</time>
      </trkpt>
      <trkpt lat="44.78029" lon="-1.16369">
        <ele>4.46</ele>
        <time>2021-07-01T17:30:23Z</time>
      </trkpt>
      <trkpt lat="44.78118" lon="-1.16152">
        <ele>4.94</ele>
        <time>2021-07-01T17:30:33Z</time>
      </trkpt>
      <trkpt lat="44.7818" lon="-1.15867">
        <ele>2.54</ele>
        <time>2021-07-01T17:30:45Z</time>
      </trkpt>
      <trkpt lat="44.78203" lon="-1.15548">
        <ele>3.5</ele>
        <time>2021-07-01T17:30:57Z</time>
      </trkpt>
      <trkpt lat="44.78224" lon="-1.15081">
        <ele>4.46</ele>
        <time>2021-07-01T17:31:12Z</time>
      </trkpt>
      <trkpt lat="44.78228" lon="-1.14809">
        <ele>6.39</ele>
        <time>2021-07-01T17:31:23Z</time>
      </trkpt>
      <trkpt lat="44.78206" lon="-1.14609">
        <ele>8.79</ele>
        <time>2021-07-01T17:31:32Z</time>
      </trkpt>
      <trkpt lat="44.78128" lon="-1.14425">
        <ele>4.46</ele>
        <time>2021-07-01T17:31:43Z</time>
      </trkpt>
      <trkpt lat="44.78117" lon="-1.14367">
        <ele>4.46</ele>
        <time>2021-07-01T17:31:49Z</time>
      </trkpt>
      <trkpt lat="44.7811" lon="-1.14354">
        <ele>4.46</ele>
        <time>2021-07-01T17:31:52Z</time>
      </trkpt>
      <trkpt lat="44.7811" lon="-1.14354">
        <ele>4.46</ele>
        <time>2021-07-01T17:31:53Z</time>
      </trkpt>
      <trkpt lat="44.78109" lon="-1.14352">
        <ele>4.46</ele>
        <time>2021-07-01T17:31:54Z</time>
      </trkpt>
      <trkpt lat="44.781" lon="-1.14346">
        <ele>4.46</ele>
        <time>2021-07-01T17:31:55Z</time>
      </trkpt>
      <trkpt lat="44.78093" lon="-1.14346">
        <ele>4.46</ele>
        <time>2021-07-01T17:31:56Z</time>
      </trkpt>
      <trkpt lat="44.78085" lon="-1.14347">
        <ele>3.98</ele>
        <time>2021-07-01T17:31:57Z</time>
      </trkpt>
      <trkpt lat="44.77967" lon="-1.14348">
        <ele>2.06</ele>
        <time>2021-07-01T17:32:07Z</time>
      </trkpt>
      <trkpt lat="44.77849" lon="-1.1432">
        <ele>4.46</ele>
        <time>2021-07-01T17:32:17Z</time>
      </trkpt>
      <trkpt lat="44.77714" lon="-1.14248">
        <ele>5.91</ele>
        <time>2021-07-01T17:32:28Z</time>
      </trkpt>
      <trkpt lat="44.77576" lon="-1.14169">
        <ele>4.46</ele>
        <time>2021-07-01T17:32:41Z</time>
      </trkpt>
      <trkpt lat="44.77563" lon="-1.14155">
        <ele>4.94</ele>
        <time>2021-07-01T17:32:43Z</time>
      </trkpt>
      <trkpt lat="44.77562" lon="-1.14153">
        <ele>4.94</ele>
        <time>2021-07-01T17:32:44Z</time>
      </trkpt>
      <trkpt lat="44.77455" lon="-1.14122">
        <ele>3.98</ele>
        <time>2021-07-01T17:32:57Z</time>
      </trkpt>
      <trkpt lat="44.7737" lon="-1.14118">
        <ele>2.54</ele>
        <time>2021-07-01T17:33:07Z</time>
      </trkpt>
      <trkpt lat="44.77221" lon="-1.14132">
        <ele>2.54</ele>
        <time>2021-07-01T17:33:21Z</time>
      </trkpt>
      <trkpt lat="44.77109" lon="-1.14113">
        <ele>3.02</ele>
        <time>2021-07-01T17:33:33Z</time>
      </trkpt>
      <trkpt lat="44.77031" lon="-1.14081">
        <ele>5.42</ele>
        <time>2021-07-01T17:33:44Z</time>
      </trkpt>
      <trkpt lat="44.77022" lon="-1.14077">
        <ele>5.42</ele>
        <time>2021-07-01T17:33:50Z</time>
      </trkpt>
      <trkpt lat="44.76966" lon="-1.14061">
        <ele>4.46</ele>
        <time>2021-07-01T17:33:58Z</time>
      </trkpt>
      <trkpt lat="44.76865" lon="-1.14038">
        <ele>3.98</ele>
        <time>2021-07-01T17:34:12Z</time>
      </trkpt>
      <trkpt lat="44.7678" lon="-1.14013">
        <ele>4.94</ele>
        <time>2021-07-01T17:34:26Z</time>
      </trkpt>
      <trkpt lat="44.76752" lon="-1.14025">
        <ele>5.42</ele>
        <time>2021-07-01T17:34:34Z</time>
      </trkpt>
      <trkpt lat="44.76736" lon="-1.1403">
        <ele>5.42</ele>
        <time>2021-07-01T17:34:38Z</time>
      </trkpt>
      <trkpt lat="44.76736" lon="-1.1403">
        <ele>5.42</ele>
        <time>2021-07-01T17:34:39Z</time>
      </trkpt>
      <trkpt lat="44.76732" lon="-1.1403">
        <ele>5.91</ele>
        <time>2021-07-01T17:34:40Z</time>
      </trkpt>
      <trkpt lat="44.76728" lon="-1.14028">
        <ele>6.39</ele>
        <time>2021-07-01T17:34:41Z</time>
      </trkpt>
      <trkpt lat="44.76724" lon="-1.14026">
        <ele>7.35</ele>
        <time>2021-07-01T17:34:42Z</time>
      </trkpt>
      <trkpt lat="44.76719" lon="-1.14023">
        <ele>7.83</ele>
        <time>2021-07-01T17:34:43Z</time>
      </trkpt>
      <trkpt lat="44.76716" lon="-1.14019">
        <ele>7.35</ele>
        <time>2021-07-01T17:34:44Z</time>
      </trkpt>
      <trkpt lat="44.76712" lon="-1.14004">
        <ele>7.35</ele>
        <time>2021-07-01T17:34:45Z</time>
      </trkpt>
      <trkpt lat="44.76711" lon="-1.13996">
        <ele>7.35</ele>
        <time>2021-07-01T17:34:46Z</time>
      </trkpt>
      <trkpt lat="44.76704" lon="-1.13962">
        <ele>6.87</ele>
        <time>2021-07-01T17:34:52Z</time>
      </trkpt>
      <trkpt lat="44.76698" lon="-1.13951">
        <ele>6.87</ele>
        <time>2021-07-01T17:34:53Z</time>
      </trkpt>
      <trkpt lat="44.76692" lon="-1.13939">
        <ele>6.87</ele>
        <time>2021-07-01T17:34:54Z</time>
      </trkpt>
      <trkpt lat="44.76692" lon="-1.13939">
        <ele>6.87</ele>
        <time>2021-07-01T17:34:55Z</time>
      </trkpt>
      <trkpt lat="44.76686" lon="-1.13927">
        <ele>6.87</ele>
        <time>2021-07-01T17:34:56Z</time>
      </trkpt>
      <trkpt lat="44.76597" lon="-1.13864">
        <ele>5.91</ele>
        <time>2021-07-01T17:35:08Z</time>
      </trkpt>
      <trkpt lat="44.7659" lon="-1.13856">
        <ele>5.42</ele>
        <time>2021-07-01T17:35:09Z</time>
      </trkpt>
      <trkpt lat="44.76583" lon="-1.13847">
        <ele>4.94</ele>
        <time>2021-07-01T17:35:10Z</time>
      </trkpt>
      <trkpt lat="44.76577" lon="-1.1384">
        <ele>4.94</ele>
        <time>2021-07-01T17:35:11Z</time>
      </trkpt>
      <trkpt lat="44.76571" lon="-1.13833">
        <ele>4.46</ele>
        <time>2021-07-01T17:35:12Z</time>
      </trkpt>
      <trkpt lat="44.76563" lon="-1.13815">
        <ele>3.98</ele>
        <time>2021-07-01T17:35:13Z</time>
      </trkpt>
      <trkpt lat="44.76563" lon="-1.13815">
        <ele>3.98</ele>
        <time>2021-07-01T17:35:14Z</time>
      </trkpt>
      <trkpt lat="44.76517" lon="-1.13662">
        <ele>2.06</ele>
        <time>2021-07-01T17:35:27Z</time>
      </trkpt>
      <trkpt lat="44.76496" lon="-1.13598">
        <ele>2.54</ele>
        <time>2021-07-01T17:35:33Z</time>
      </trkpt>
      <trkpt lat="44.76492" lon="-1.13587">
        <ele>2.54</ele>
        <time>2021-07-01T17:35:34Z</time>
      </trkpt>
      <trkpt lat="44.76378" lon="-1.13422">
        <ele>2.54</ele>
        <time>2021-07-01T17:35:49Z</time>
      </trkpt>
      <trkpt lat="44.76307" lon="-1.13303">
        <ele>3.98</ele>
        <time>2021-07-01T17:36:01Z</time>
      </trkpt>
      <trkpt lat="44.76285" lon="-1.13249">
        <ele>3.5</ele>
        <time>2021-07-01T17:36:10Z</time>
      </trkpt>
      <trkpt lat="44.76276" lon="-1.13243">
        <ele>3.5</ele>
        <time>2021-07-01T17:36:11Z</time>
      </trkpt>
      <trkpt lat="44.76243" lon="-1.1313">
        <ele>3.02</ele>
        <time>2021-07-01T17:36:26Z</time>
      </trkpt>
      <trkpt lat="44.76196" lon="-1.12998">
        <ele>3.02</ele>
        <time>2021-07-01T17:36:42Z</time>
      </trkpt>
      <trkpt lat="44.7618" lon="-1.12954">
        <ele>3.5</ele>
        <time>2021-07-01T17:36:48Z</time>
      </trkpt>
      <trkpt lat="44.76178" lon="-1.12948">
        <ele>3.5</ele>
        <time>2021-07-01T17:36:49Z</time>
      </trkpt>
      <trkpt lat="44.76169" lon="-1.12943">
        <ele>3.5</ele>
        <time>2021-07-01T17:36:50Z</time>
      </trkpt>
      <trkpt lat="44.76164" lon="-1.12943">
        <ele>3.98</ele>
        <time>2021-07-01T17:36:51Z</time>
      </trkpt>
      <trkpt lat="44.76158" lon="-1.12939">
        <ele>3.98</ele>
        <time>2021-07-01T17:36:52Z</time>
      </trkpt>
      <trkpt lat="44.76154" lon="-1.12933">
        <ele>3.98</ele>
        <time>2021-07-01T17:36:53Z</time>
      </trkpt>
      <trkpt lat="44.76152" lon="-1.12925">
        <ele>3.98</ele>
        <time>2021-07-01T17:36:54Z</time>
      </trkpt>
      <trkpt lat="44.76152" lon="-1.12916">
        <ele>3.98</ele>
        <time>2021-07-01T17:36:55Z</time>
      </trkpt>
      <trkpt lat="44.76152" lon="-1.1291">
        <ele>3.98</ele>
        <time>2021-07-01T17:36:56Z</time>
      </trkpt>
      <trkpt lat="44.76152" lon="-1.1291">
        <ele>3.98</ele>
        <time>2021-07-01T17:36:57Z</time>
      </trkpt>
      <trkpt lat="44.76154" lon="-1.12885">
        <ele>3.5</ele>
        <time>2021-07-01T17:36:58Z</time>
      </trkpt>
      <trkpt lat="44.7615" lon="-1.12875">
        <ele>3.5</ele>
        <time>2021-07-01T17:36:59Z</time>
      </trkpt>
      <trkpt lat="44.76105" lon="-1.12747">
        <ele>2.54</ele>
        <time>2021-07-01T17:37:09Z</time>
      </trkpt>
      <trkpt lat="44.76029" lon="-1.1253">
        <ele>3.5</ele>
        <time>2021-07-01T17:37:23Z</time>
      </trkpt>
      <trkpt lat="44.7594" lon="-1.12289">
        <ele>3.02</ele>
        <time>2021-07-01T17:37:38Z</time>
      </trkpt>
      <trkpt lat="44.75864" lon="-1.12078">
        <ele>3.02</ele>
        <time>2021-07-01T17:37:50Z</time>
      </trkpt>
      <trkpt lat="44.75792" lon="-1.11884">
        <ele>3.98</ele>
        <time>2021-07-01T17:38:02Z</time>
      </trkpt>
      <trkpt lat="44.75784" lon="-1.11864">
        <ele>3.5</ele>
        <time>2021-07-01T17:38:04Z</time>
      </trkpt>
      <trkpt lat="44.75781" lon="-1.11856">
        <ele>3.5</ele>
        <time>2021-07-01T17:38:05Z</time>
      </trkpt>
      <trkpt lat="44.75767" lon="-1.1185">
        <ele>3.02</ele>
        <time>2021-07-01T17:38:07Z</time>
      </trkpt>
      <trkpt lat="44.75763" lon="-1.11845">
        <ele>3.02</ele>
        <time>2021-07-01T17:38:08Z</time>
      </trkpt>
      <trkpt lat="44.75762" lon="-1.11834">
        <ele>3.02</ele>
        <time>2021-07-01T17:38:09Z</time>
      </trkpt>
      <trkpt lat="44.75767" lon="-1.11815">
        <ele>3.5</ele>
        <time>2021-07-01T17:38:11Z</time>
      </trkpt>
      <trkpt lat="44.75764" lon="-1.11806">
        <ele>3.5</ele>
        <time>2021-07-01T17:38:12Z</time>
      </trkpt>
      <trkpt lat="44.75734" lon="-1.11717">
        <ele>1.58</ele>
        <time>2021-07-01T17:38:19Z</time>
      </trkpt>
      <trkpt lat="44.75658" lon="-1.1151">
        <ele>0.14</ele>
        <time>2021-07-01T17:38:30Z</time>
      </trkpt>
      <trkpt lat="44.7561" lon="-1.11402">
        <ele>1.58</ele>
        <time>2021-07-01T17:38:35Z</time>
      </trkpt>
      <trkpt lat="44.75599" lon="-1.11387">
        <ele>2.06</ele>
        <time>2021-07-01T17:38:36Z</time>
      </trkpt>
      <trkpt lat="44.75587" lon="-1.11374">
        <ele>2.06</ele>
        <time>2021-07-01T17:38:37Z</time>
      </trkpt>
      <trkpt lat="44.75429" lon="-1.11218">
        <ele>2.06</ele>
        <time>2021-07-01T17:38:51Z</time>
      </trkpt>
      <trkpt lat="44.75309" lon="-1.111">
        <ele>2.54</ele>
        <time>2021-07-01T17:39:02Z</time>
      </trkpt>
      <trkpt lat="44.7519" lon="-1.10985">
        <ele>4.46</ele>
        <time>2021-07-01T17:39:14Z</time>
      </trkpt>
      <trkpt lat="44.75048" lon="-1.10846">
        <ele>5.42</ele>
        <time>2021-07-01T17:39:29Z</time>
      </trkpt>
      <trkpt lat="44.74965" lon="-1.10763">
        <ele>3.5</ele>
        <time>2021-07-01T17:39:41Z</time>
      </trkpt>
      <trkpt lat="44.74887" lon="-1.10689">
        <ele>3.98</ele>
        <time>2021-07-01T17:39:54Z</time>
      </trkpt>
      <trkpt lat="44.74883" lon="-1.10686">
        <ele>3.98</ele>
        <time>2021-07-01T17:39:55Z</time>
      </trkpt>
      <trkpt lat="44.7488" lon="-1.10684">
        <ele>3.98</ele>
        <time>2021-07-01T17:39:56Z</time>
      </trkpt>
      <trkpt lat="44.74872" lon="-1.10692">
        <ele>3.98</ele>
        <time>2021-07-01T17:39:58Z</time>
      </trkpt>
      <trkpt lat="44.74862" lon="-1.10694">
        <ele>3.98</ele>
        <time>2021-07-01T17:39:59Z</time>
      </trkpt>
      <trkpt lat="44.74856" lon="-1.10691">
        <ele>3.98</ele>
        <time>2021-07-01T17:40:00Z</time>
      </trkpt>
      <trkpt lat="44.74856" lon="-1.10691">
        <ele>3.98</ele>
        <time>2021-07-01T17:40:01Z</time>
      </trkpt>
      <trkpt lat="44.74851" lon="-1.10679">
        <ele>3.98</ele>
        <time>2021-07-01T17:40:02Z</time>
      </trkpt>
      <trkpt lat="44.74851" lon="-1.10679">
        <ele>3.98</ele>
        <time>2021-07-01T17:40:03Z</time>
      </trkpt>
      <trkpt lat="44.7485" lon="-1.10674">
        <ele>3.5</ele>
        <time>2021-07-01T17:40:04Z</time>
      </trkpt>
      <trkpt lat="44.74852" lon="-1.10664">
        <ele>3.5</ele>
        <time>2021-07-01T17:40:05Z</time>
      </trkpt>
      <trkpt lat="44.74852" lon="-1.10664">
        <ele>3.02</ele>
        <time>2021-07-01T17:40:06Z</time>
      </trkpt>
      <trkpt lat="44.74843" lon="-1.10642">
        <ele>3.02</ele>
        <time>2021-07-01T17:40:07Z</time>
      </trkpt>
      <trkpt lat="44.74843" lon="-1.10642">
        <ele>3.02</ele>
        <time>2021-07-01T17:40:08Z</time>
      </trkpt>
      <trkpt lat="44.74838" lon="-1.10637">
        <ele>3.02</ele>
        <time>2021-07-01T17:40:09Z</time>
      </trkpt>
      <trkpt lat="44.74751" lon="-1.10554">
        <ele>2.06</ele>
        <time>2021-07-01T17:40:21Z</time>
      </trkpt>
      <trkpt lat="44.74677" lon="-1.10482">
        <ele>2.06</ele>
        <time>2021-07-01T17:40:31Z</time>
      </trkpt>
      <trkpt lat="44.74603" lon="-1.10408">
        <ele>2.06</ele>
        <time>2021-07-01T17:40:42Z</time>
      </trkpt>
      <trkpt lat="44.74495" lon="-1.10306">
        <ele>3.5</ele>
        <time>2021-07-01T17:40:57Z</time>
      </trkpt>
      <trkpt lat="44.74478" lon="-1.10288">
        <ele>3.5</ele>
        <time>2021-07-01T17:41:05Z</time>
      </trkpt>
      <trkpt lat="44.74462" lon="-1.10272">
        <ele>3.02</ele>
        <time>2021-07-01T17:41:38Z</time>
      </trkpt>
      <trkpt lat="44.74396" lon="-1.10202">
        <ele>2.54</ele>
        <time>2021-07-01T17:41:49Z</time>
      </trkpt>
      <trkpt lat="44.74356" lon="-1.10141">
        <ele>1.1</ele>
        <time>2021-07-01T17:42:00Z</time>
      </trkpt>
      <trkpt lat="44.74343" lon="-1.10119">
        <ele>2.06</ele>
        <time>2021-07-01T17:42:06Z</time>
      </trkpt>
      <trkpt lat="44.74327" lon="-1.10088">
        <ele>1.58</ele>
        <time>2021-07-01T17:42:17Z</time>
      </trkpt>
      <trkpt lat="44.74274" lon="-1.09985">
        <ele>1.58</ele>
        <time>2021-07-01T17:42:34Z</time>
      </trkpt>
      <trkpt lat="44.74228" lon="-1.09896">
        <ele>1.58</ele>
        <time>2021-07-01T17:42:49Z</time>
      </trkpt>
      <trkpt lat="44.742" lon="-1.09848">
        <ele>1.58</ele>
        <time>2021-07-01T17:43:01Z</time>
      </trkpt>
      <trkpt lat="44.74176" lon="-1.09795">
        <ele>1.58</ele>
        <time>2021-07-01T17:43:14Z</time>
      </trkpt>
      <trkpt lat="44.7414" lon="-1.09726">
        <ele>1.58</ele>
        <time>2021-07-01T17:43:29Z</time>
      </trkpt>
      <trkpt lat="44.74089" lon="-1.09626">
        <ele>2.06</ele>
        <time>2021-07-01T17:43:42Z</time>
      </trkpt>
      <trkpt lat="44.74042" lon="-1.09536">
        <ele>1.58</ele>
        <time>2021-07-01T17:43:55Z</time>
      </trkpt>
      <trkpt lat="44.74038" lon="-1.09527">
        <ele>2.54</ele>
        <time>2021-07-01T17:44:02Z</time>
      </trkpt>
      <trkpt lat="44.74025" lon="-1.09502">
        <ele>1.1</ele>
        <time>2021-07-01T17:44:12Z</time>
      </trkpt>
      <trkpt lat="44.73991" lon="-1.09437">
        <ele>0.14</ele>
        <time>2021-07-01T17:44:24Z</time>
      </trkpt>
      <trkpt lat="44.73988" lon="-1.0943">
        <ele>1.58</ele>
        <time>2021-07-01T17:44:33Z</time>
      </trkpt>
      <trkpt lat="44.73971" lon="-1.09397">
        <ele>1.58</ele>
        <time>2021-07-01T17:44:58Z</time>
      </trkpt>
      <trkpt lat="44.7396" lon="-1.09375">
        <ele>2.06</ele>
        <time>2021-07-01T17:45:01Z</time>
      </trkpt>
      <trkpt lat="44.73913" lon="-1.09285">
        <ele>1.58</ele>
        <time>2021-07-01T17:45:14Z</time>
      </trkpt>
      <trkpt lat="44.73862" lon="-1.09183">
        <ele>2.06</ele>
        <time>2021-07-01T17:45:25Z</time>
      </trkpt>
      <trkpt lat="44.73847" lon="-1.09156">
        <ele>2.06</ele>
        <time>2021-07-01T17:45:28Z</time>
      </trkpt>
      <trkpt lat="44.73839" lon="-1.09138">
        <ele>2.54</ele>
        <time>2021-07-01T17:45:30Z</time>
      </trkpt>
      <trkpt lat="44.73802" lon="-1.09068">
        <ele>1.1</ele>
        <time>2021-07-01T17:45:40Z</time>
      </trkpt>
      <trkpt lat="44.73795" lon="-1.09056">
        <ele>0.62</ele>
        <time>2021-07-01T17:45:41Z</time>
      </trkpt>
      <trkpt lat="44.73795" lon="-1.09056">
        <ele>0.62</ele>
        <time>2021-07-01T17:45:42Z</time>
      </trkpt>
      <trkpt lat="44.7379" lon="-1.09062">
        <ele>0.62</ele>
        <time>2021-07-01T17:45:43Z</time>
      </trkpt>
      <trkpt lat="44.73787" lon="-1.09066">
        <ele>0.62</ele>
        <time>2021-07-01T17:45:44Z</time>
      </trkpt>
      <trkpt lat="44.73782" lon="-1.0907">
        <ele>0.62</ele>
        <time>2021-07-01T17:45:45Z</time>
      </trkpt>
      <trkpt lat="44.73726" lon="-1.09125">
        <ele>-0.82</ele>
        <time>2021-07-01T17:45:56Z</time>
      </trkpt>
      <trkpt lat="44.73678" lon="-1.09179">
        <ele>-1.3</ele>
        <time>2021-07-01T17:46:09Z</time>
      </trkpt>
      <trkpt lat="44.73675" lon="-1.09183">
        <ele>-1.3</ele>
        <time>2021-07-01T17:46:10Z</time>
      </trkpt>
      <trkpt lat="44.73672" lon="-1.09186">
        <ele>-1.3</ele>
        <time>2021-07-01T17:46:11Z</time>
      </trkpt>
      <trkpt lat="44.73669" lon="-1.09189">
        <ele>-1.79</ele>
        <time>2021-07-01T17:46:12Z</time>
      </trkpt>
      <trkpt lat="44.73665" lon="-1.09194">
        <ele>-1.79</ele>
        <time>2021-07-01T17:46:13Z</time>
      </trkpt>
      <trkpt lat="44.73666" lon="-1.09199">
        <ele>-2.27</ele>
        <time>2021-07-01T17:46:14Z</time>
      </trkpt>
      <trkpt lat="44.73666" lon="-1.09204">
        <ele>-2.27</ele>
        <time>2021-07-01T17:46:15Z</time>
      </trkpt>
      <trkpt lat="44.73666" lon="-1.09213">
        <ele>-2.27</ele>
        <time>2021-07-01T17:46:16Z</time>
      </trkpt>
      <trkpt lat="44.73666" lon="-1.09213">
        <ele>-2.27</ele>
        <time>2021-07-01T17:46:17Z</time>
      </trkpt>
      <trkpt lat="44.73658" lon="-1.09215">
        <ele>-2.27</ele>
        <time>2021-07-01T17:46:18Z</time>
      </trkpt>
      <trkpt lat="44.73655" lon="-1.09213">
        <ele>-2.27</ele>
        <time>2021-07-01T17:46:19Z</time>
      </trkpt>
      <trkpt lat="44.73652" lon="-1.09211">
        <ele>-2.27</ele>
        <time>2021-07-01T17:46:20Z</time>
      </trkpt>
      <trkpt lat="44.73648" lon="-1.09215">
        <ele>-1.79</ele>
        <time>2021-07-01T17:46:21Z</time>
      </trkpt>
      <trkpt lat="44.73645" lon="-1.09217">
        <ele>-1.79</ele>
        <time>2021-07-01T17:46:22Z</time>
      </trkpt>
      <trkpt lat="44.73643" lon="-1.09219">
        <ele>-1.79</ele>
        <time>2021-07-01T17:46:23Z</time>
      </trkpt>
      <trkpt lat="44.73639" lon="-1.09222">
        <ele>-2.27</ele>
        <time>2021-07-01T17:46:24Z</time>
      </trkpt>
      <trkpt lat="44.73636" lon="-1.09225">
        <ele>-2.27</ele>
        <time>2021-07-01T17:46:25Z</time>
      </trkpt>
      <trkpt lat="44.73591" lon="-1.09264">
        <ele>-1.79</ele>
        <time>2021-07-01T17:46:39Z</time>
      </trkpt>
      <trkpt lat="44.73551" lon="-1.09303">
        <ele>-0.82</ele>
        <time>2021-07-01T17:46:53Z</time>
      </trkpt>
      <trkpt lat="44.73543" lon="-1.09309">
        <ele>-0.82</ele>
        <time>2021-07-01T17:46:54Z</time>
      </trkpt>
      <trkpt lat="44.73543" lon="-1.09309">
        <ele>-0.82</ele>
        <time>2021-07-01T17:46:55Z</time>
      </trkpt>
      <trkpt lat="44.73539" lon="-1.09312">
        <ele>-0.82</ele>
        <time>2021-07-01T17:46:56Z</time>
      </trkpt>
      <trkpt lat="44.73535" lon="-1.09315">
        <ele>-0.34</ele>
        <time>2021-07-01T17:46:57Z</time>
      </trkpt>
      <trkpt lat="44.73531" lon="-1.09316">
        <ele>-0.34</ele>
        <time>2021-07-01T17:46:58Z</time>
      </trkpt>
      <trkpt lat="44.73527" lon="-1.09316">
        <ele>-0.34</ele>
        <time>2021-07-01T17:46:59Z</time>
      </trkpt>
      <trkpt lat="44.73523" lon="-1.09315">
        <ele>-0.34</ele>
        <time>2021-07-01T17:47:00Z</time>
      </trkpt>
      <trkpt lat="44.73463" lon="-1.09307">
        <ele>1.1</ele>
        <time>2021-07-01T17:47:15Z</time>
      </trkpt>
      <trkpt lat="44.73459" lon="-1.09306">
        <ele>1.58</ele>
        <time>2021-07-01T17:47:28Z</time>
      </trkpt>
      <trkpt lat="44.73459" lon="-1.09306">
        <ele>1.58</ele>
        <time>2021-07-01T17:47:34Z</time>
      </trkpt>
      <trkpt lat="44.73456" lon="-1.09306">
        <ele>1.58</ele>
        <time>2021-07-01T17:47:35Z</time>
      </trkpt>
      <trkpt lat="44.73455" lon="-1.09306">
        <ele>1.1</ele>
        <time>2021-07-01T17:47:36Z</time>
      </trkpt>
      <trkpt lat="44.73456" lon="-1.09312">
        <ele>1.1</ele>
        <time>2021-07-01T17:47:50Z</time>
      </trkpt>
      <trkpt lat="44.73457" lon="-1.09312">
        <ele>1.1</ele>
        <time>2021-07-01T17:47:51Z</time>
      </trkpt>
      <trkpt lat="44.73464" lon="-1.09307">
        <ele>0.62</ele>
        <time>2021-07-01T17:47:57Z</time>
      </trkpt>
      <trkpt lat="44.73466" lon="-1.09307">
        <ele>1.1</ele>
        <time>2021-07-01T17:47:58Z</time>
      </trkpt>
      <trkpt lat="44.73503" lon="-1.09313">
        <ele>0.62</ele>
        <time>2021-07-01T17:48:10Z</time>
      </trkpt>
      <trkpt lat="44.73545" lon="-1.09308">
        <ele>0.14</ele>
        <time>2021-07-01T17:48:25Z</time>
      </trkpt>
      <trkpt lat="44.73558" lon="-1.09298">
        <ele>0.14</ele>
        <time>2021-07-01T17:48:31Z</time>
      </trkpt>
      <trkpt lat="44.73557" lon="-1.0929">
        <ele>0.14</ele>
        <time>2021-07-01T17:48:32Z</time>
      </trkpt>
      <trkpt lat="44.73555" lon="-1.09287">
        <ele>0.14</ele>
        <time>2021-07-01T17:48:33Z</time>
      </trkpt>
      <trkpt lat="44.73505" lon="-1.09236">
        <ele>-1.79</ele>
        <time>2021-07-01T17:48:47Z</time>
      </trkpt>
      <trkpt lat="44.73458" lon="-1.09185">
        <ele>-3.23</ele>
        <time>2021-07-01T17:49:01Z</time>
      </trkpt>
      <trkpt lat="44.73392" lon="-1.09118">
        <ele>-3.71</ele>
        <time>2021-07-01T17:49:21Z</time>
      </trkpt>
      <trkpt lat="44.73344" lon="-1.0907">
        <ele>-4.19</ele>
        <time>2021-07-01T17:49:38Z</time>
      </trkpt>
      <trkpt lat="44.73309" lon="-1.09035">
        <ele>-4.67</ele>
        <time>2021-07-01T17:49:50Z</time>
      </trkpt>
      <trkpt lat="44.73224" lon="-1.08982">
        <ele>-4.67</ele>
        <time>2021-07-01T17:50:06Z</time>
      </trkpt>
      <trkpt lat="44.73188" lon="-1.08955">
        <ele>-3.71</ele>
        <time>2021-07-01T17:50:18Z</time>
      </trkpt>
      <trkpt lat="44.73169" lon="-1.08921">
        <ele>-6.11</ele>
        <time>2021-07-01T17:50:29Z</time>
      </trkpt>
      <trkpt lat="44.73132" lon="-1.08942">
        <ele>-4.67</ele>
        <time>2021-07-01T17:50:39Z</time>
      </trkpt>
      <trkpt lat="44.73078" lon="-1.08985">
        <ele>-3.71</ele>
        <time>2021-07-01T17:50:53Z</time>
      </trkpt>
      <trkpt lat="44.7305" lon="-1.08977">
        <ele>-2.27</ele>
        <time>2021-07-01T17:51:04Z</time>
      </trkpt>
      <trkpt lat="44.73024" lon="-1.08933">
        <ele>-2.75</ele>
        <time>2021-07-01T17:51:15Z</time>
      </trkpt>
      <trkpt lat="44.73019" lon="-1.08923">
        <ele>-2.27</ele>
        <time>2021-07-01T17:51:18Z</time>
      </trkpt>
      <trkpt lat="44.73017" lon="-1.08919">
        <ele>-2.27</ele>
        <time>2021-07-01T17:51:19Z</time>
      </trkpt>
      <trkpt lat="44.7302" lon="-1.08917">
        <ele>-2.27</ele>
        <time>2021-07-01T17:51:20Z</time>
      </trkpt>
      <trkpt lat="44.73022" lon="-1.08914">
        <ele>-2.27</ele>
        <time>2021-07-01T17:51:21Z</time>
      </trkpt>
      <trkpt lat="44.73027" lon="-1.08909">
        <ele>-2.27</ele>
        <time>2021-07-01T17:51:22Z</time>
      </trkpt>
      <trkpt lat="44.73048" lon="-1.08889">
        <ele>-2.27</ele>
        <time>2021-07-01T17:51:34Z</time>
      </trkpt>
      <trkpt lat="44.73069" lon="-1.08864">
        <ele>-2.75</ele>
        <time>2021-07-01T17:51:44Z</time>
      </trkpt>
      <trkpt lat="44.73111" lon="-1.08812">
        <ele>-3.23</ele>
        <time>2021-07-01T17:51:55Z</time>
      </trkpt>
      <trkpt lat="44.73179" lon="-1.08739">
        <ele>-3.23</ele>
        <time>2021-07-01T17:52:07Z</time>
      </trkpt>
      <trkpt lat="44.73223" lon="-1.08692">
        <ele>-1.79</ele>
        <time>2021-07-01T17:52:17Z</time>
      </trkpt>
      <trkpt lat="44.73223" lon="-1.08692">
        <ele>-1.79</ele>
        <time>2021-07-01T17:52:18Z</time>
      </trkpt>
      <trkpt lat="44.73221" lon="-1.08687">
        <ele>-1.79</ele>
        <time>2021-07-01T17:52:19Z</time>
      </trkpt>
      <trkpt lat="44.73219" lon="-1.08684">
        <ele>-1.79</ele>
        <time>2021-07-01T17:52:20Z</time>
      </trkpt>
      <trkpt lat="44.73218" lon="-1.08681">
        <ele>-1.79</ele>
        <time>2021-07-01T17:52:21Z</time>
      </trkpt>
      <trkpt lat="44.73216" lon="-1.08677">
        <ele>-1.79</ele>
        <time>2021-07-01T17:52:22Z</time>
      </trkpt>
      <trkpt lat="44.73175" lon="-1.08596">
        <ele>-0.82</ele>
        <time>2021-07-01T17:52:35Z</time>
      </trkpt>
      <trkpt lat="44.7316" lon="-1.08568">
        <ele>0.14</ele>
        <time>2021-07-01T17:52:42Z</time>
      </trkpt>
      <trkpt lat="44.73126" lon="-1.08502">
        <ele>0.62</ele>
        <time>2021-07-01T17:52:55Z</time>
      </trkpt>
      <trkpt lat="44.73117" lon="-1.08485">
        <ele>1.1</ele>
        <time>2021-07-01T17:52:59Z</time>
      </trkpt>
      <trkpt lat="44.73104" lon="-1.08461">
        <ele>1.58</ele>
        <time>2021-07-01T17:53:09Z</time>
      </trkpt>
      <trkpt lat="44.73089" lon="-1.08428">
        <ele>1.58</ele>
        <time>2021-07-01T17:53:19Z</time>
      </trkpt>
      <trkpt lat="44.73055" lon="-1.08356">
        <ele>2.06</ele>
        <time>2021-07-01T17:53:34Z</time>
      </trkpt>
      <trkpt lat="44.7303" lon="-1.08302">
        <ele>1.58</ele>
        <time>2021-07-01T17:53:47Z</time>
      </trkpt>
      <trkpt lat="44.73022" lon="-1.08271">
        <ele>1.58</ele>
        <time>2021-07-01T17:53:57Z</time>
      </trkpt>
      <trkpt lat="44.73023" lon="-1.08267">
        <ele>1.58</ele>
        <time>2021-07-01T17:53:58Z</time>
      </trkpt>
      <trkpt lat="44.73023" lon="-1.08264">
        <ele>2.06</ele>
        <time>2021-07-01T17:53:59Z</time>
      </trkpt>
      <trkpt lat="44.73023" lon="-1.08255">
        <ele>2.06</ele>
        <time>2021-07-01T17:54:00Z</time>
      </trkpt>
      <trkpt lat="44.73021" lon="-1.08254">
        <ele>2.06</ele>
        <time>2021-07-01T17:54:01Z</time>
      </trkpt>
      <trkpt lat="44.73019" lon="-1.08252">
        <ele>2.06</ele>
        <time>2021-07-01T17:54:02Z</time>
      </trkpt>
      <trkpt lat="44.7301" lon="-1.08237">
        <ele>1.58</ele>
        <time>2021-07-01T17:54:09Z</time>
      </trkpt>
      <trkpt lat="44.7301" lon="-1.08235">
        <ele>1.58</ele>
        <time>2021-07-01T17:54:10Z</time>
      </trkpt>
      <trkpt lat="44.73006" lon="-1.08231">
        <ele>1.58</ele>
        <time>2021-07-01T17:54:11Z</time>
      </trkpt>
      <trkpt lat="44.73003" lon="-1.08231">
        <ele>1.1</ele>
        <time>2021-07-01T17:54:12Z</time>
      </trkpt>
      <trkpt lat="44.73" lon="-1.08232">
        <ele>1.1</ele>
        <time>2021-07-01T17:54:13Z</time>
      </trkpt>
      <trkpt lat="44.72997" lon="-1.08232">
        <ele>0.62</ele>
        <time>2021-07-01T17:54:14Z</time>
      </trkpt>
      <trkpt lat="44.72994" lon="-1.08233">
        <ele>1.1</ele>
        <time>2021-07-01T17:54:15Z</time>
      </trkpt>
      <trkpt lat="44.72915" lon="-1.08246">
        <ele>1.1</ele>
        <time>2021-07-01T17:54:30Z</time>
      </trkpt>
      <trkpt lat="44.72826" lon="-1.08273">
        <ele>1.1</ele>
        <time>2021-07-01T17:54:45Z</time>
      </trkpt>
      <trkpt lat="44.72712" lon="-1.0829">
        <ele>1.1</ele>
        <time>2021-07-01T17:55:03Z</time>
      </trkpt>
      <trkpt lat="44.72667" lon="-1.08274">
        <ele>2.06</ele>
        <time>2021-07-01T17:55:13Z</time>
      </trkpt>
      <trkpt lat="44.72667" lon="-1.08274">
        <ele>2.06</ele>
        <time>2021-07-01T17:55:16Z</time>
      </trkpt>
      <trkpt lat="44.72664" lon="-1.08272">
        <ele>2.06</ele>
        <time>2021-07-01T17:55:17Z</time>
      </trkpt>
      <trkpt lat="44.72662" lon="-1.08271">
        <ele>2.06</ele>
        <time>2021-07-01T17:55:18Z</time>
      </trkpt>
      <trkpt lat="44.7266" lon="-1.0827">
        <ele>2.06</ele>
        <time>2021-07-01T17:55:19Z</time>
      </trkpt>
      <trkpt lat="44.72657" lon="-1.08269">
        <ele>1.58</ele>
        <time>2021-07-01T17:55:20Z</time>
      </trkpt>
      <trkpt lat="44.72656" lon="-1.08266">
        <ele>1.58</ele>
        <time>2021-07-01T17:55:21Z</time>
      </trkpt>
      <trkpt lat="44.72629" lon="-1.08199">
        <ele>1.1</ele>
        <time>2021-07-01T17:55:34Z</time>
      </trkpt>
      <trkpt lat="44.72617" lon="-1.08169">
        <ele>0.62</ele>
        <time>2021-07-01T17:55:40Z</time>
      </trkpt>
      <trkpt lat="44.72615" lon="-1.08163">
        <ele>1.1</ele>
        <time>2021-07-01T17:55:41Z</time>
      </trkpt>
      <trkpt lat="44.726" lon="-1.08126">
        <ele>1.1</ele>
        <time>2021-07-01T17:55:52Z</time>
      </trkpt>
      <trkpt lat="44.72598" lon="-1.08121">
        <ele>1.58</ele>
        <time>2021-07-01T17:55:55Z</time>
      </trkpt>
      <trkpt lat="44.72597" lon="-1.08119">
        <ele>1.58</ele>
        <time>2021-07-01T17:55:56Z</time>
      </trkpt>
      <trkpt lat="44.72597" lon="-1.08119">
        <ele>1.58</ele>
        <time>2021-07-01T17:55:57Z</time>
      </trkpt>
      <trkpt lat="44.72599" lon="-1.08114">
        <ele>2.06</ele>
        <time>2021-07-01T17:55:58Z</time>
      </trkpt>
      <trkpt lat="44.72602" lon="-1.08111">
        <ele>2.06</ele>
        <time>2021-07-01T17:55:59Z</time>
      </trkpt>
      <trkpt lat="44.72605" lon="-1.08107">
        <ele>2.54</ele>
        <time>2021-07-01T17:56:00Z</time>
      </trkpt>
      <trkpt lat="44.72626" lon="-1.0808">
        <ele>3.02</ele>
        <time>2021-07-01T17:56:04Z</time>
      </trkpt>
      <trkpt lat="44.72717" lon="-1.07955">
        <ele>3.02</ele>
        <time>2021-07-01T17:56:21Z</time>
      </trkpt>
      <trkpt lat="44.72825" lon="-1.07818">
        <ele>4.46</ele>
        <time>2021-07-01T17:56:36Z</time>
      </trkpt>
      <trkpt lat="44.72989" lon="-1.07608">
        <ele>5.91</ele>
        <time>2021-07-01T17:56:56Z</time>
      </trkpt>
      <trkpt lat="44.73014" lon="-1.07572">
        <ele>5.91</ele>
        <time>2021-07-01T17:57:02Z</time>
      </trkpt>
      <trkpt lat="44.73018" lon="-1.07567">
        <ele>6.39</ele>
        <time>2021-07-01T17:57:03Z</time>
      </trkpt>
      <trkpt lat="44.7302" lon="-1.07563">
        <ele>6.39</ele>
        <time>2021-07-01T17:57:04Z</time>
      </trkpt>
      <trkpt lat="44.73023" lon="-1.07556">
        <ele>6.39</ele>
        <time>2021-07-01T17:57:05Z</time>
      </trkpt>
      <trkpt lat="44.73021" lon="-1.07551">
        <ele>5.91</ele>
        <time>2021-07-01T17:57:06Z</time>
      </trkpt>
      <trkpt lat="44.73018" lon="-1.07545">
        <ele>5.42</ele>
        <time>2021-07-01T17:57:07Z</time>
      </trkpt>
      <trkpt lat="44.73014" lon="-1.07538">
        <ele>4.46</ele>
        <time>2021-07-01T17:57:08Z</time>
      </trkpt>
      <trkpt lat="44.72965" lon="-1.07438">
        <ele>2.54</ele>
        <time>2021-07-01T17:57:17Z</time>
      </trkpt>
      <trkpt lat="44.72885" lon="-1.07284">
        <ele>3.5</ele>
        <time>2021-07-01T17:57:30Z</time>
      </trkpt>
      <trkpt lat="44.72855" lon="-1.07222">
        <ele>4.94</ele>
        <time>2021-07-01T17:57:38Z</time>
      </trkpt>
      <trkpt lat="44.72762" lon="-1.07058">
        <ele>4.46</ele>
        <time>2021-07-01T17:57:50Z</time>
      </trkpt>
      <trkpt lat="44.72762" lon="-1.07058">
        <ele>4.46</ele>
        <time>2021-07-01T17:57:51Z</time>
      </trkpt>
      <trkpt lat="44.72754" lon="-1.07047">
        <ele>4.46</ele>
        <time>2021-07-01T17:57:52Z</time>
      </trkpt>
      <trkpt lat="44.72743" lon="-1.07037">
        <ele>5.91</ele>
        <time>2021-07-01T17:57:53Z</time>
      </trkpt>
      <trkpt lat="44.7272" lon="-1.0702">
        <ele>5.91</ele>
        <time>2021-07-01T17:57:54Z</time>
      </trkpt>
      <trkpt lat="44.7263" lon="-1.06964">
        <ele>4.94</ele>
        <time>2021-07-01T17:58:04Z</time>
      </trkpt>
      <trkpt lat="44.72623" lon="-1.0696">
        <ele>5.42</ele>
        <time>2021-07-01T17:58:05Z</time>
      </trkpt>
      <trkpt lat="44.72612" lon="-1.06954">
        <ele>5.91</ele>
        <time>2021-07-01T17:58:06Z</time>
      </trkpt>
      <trkpt lat="44.72612" lon="-1.06954">
        <ele>5.42</ele>
        <time>2021-07-01T17:58:07Z</time>
      </trkpt>
      <trkpt lat="44.72606" lon="-1.06959">
        <ele>5.42</ele>
        <time>2021-07-01T17:58:08Z</time>
      </trkpt>
      <trkpt lat="44.72599" lon="-1.06964">
        <ele>5.42</ele>
        <time>2021-07-01T17:58:09Z</time>
      </trkpt>
      <trkpt lat="44.72599" lon="-1.06964">
        <ele>5.42</ele>
        <time>2021-07-01T17:58:10Z</time>
      </trkpt>
      <trkpt lat="44.72587" lon="-1.06967">
        <ele>5.42</ele>
        <time>2021-07-01T17:58:11Z</time>
      </trkpt>
      <trkpt lat="44.72578" lon="-1.06988">
        <ele>5.42</ele>
        <time>2021-07-01T17:58:12Z</time>
      </trkpt>
      <trkpt lat="44.72578" lon="-1.06988">
        <ele>4.94</ele>
        <time>2021-07-01T17:58:13Z</time>
      </trkpt>
      <trkpt lat="44.72502" lon="-1.07157">
        <ele>0.62</ele>
        <time>2021-07-01T17:58:25Z</time>
      </trkpt>
      <trkpt lat="44.72437" lon="-1.07303">
        <ele>-0.34</ele>
        <time>2021-07-01T17:58:36Z</time>
      </trkpt>
      <trkpt lat="44.72431" lon="-1.07316">
        <ele>0.14</ele>
        <time>2021-07-01T17:58:37Z</time>
      </trkpt>
      <trkpt lat="44.72391" lon="-1.07406">
        <ele>-1.79</ele>
        <time>2021-07-01T17:58:45Z</time>
      </trkpt>
      <trkpt lat="44.72388" lon="-1.07414">
        <ele>-1.79</ele>
        <time>2021-07-01T17:58:46Z</time>
      </trkpt>
      <trkpt lat="44.72384" lon="-1.07421">
        <ele>-1.79</ele>
        <time>2021-07-01T17:58:47Z</time>
      </trkpt>
      <trkpt lat="44.72382" lon="-1.07427">
        <ele>-1.79</ele>
        <time>2021-07-01T17:58:48Z</time>
      </trkpt>
      <trkpt lat="44.72385" lon="-1.07445">
        <ele>-1.3</ele>
        <time>2021-07-01T17:58:49Z</time>
      </trkpt>
      <trkpt lat="44.72385" lon="-1.07445">
        <ele>-1.3</ele>
        <time>2021-07-01T17:58:50Z</time>
      </trkpt>
      <trkpt lat="44.72385" lon="-1.07452">
        <ele>-1.79</ele>
        <time>2021-07-01T17:58:51Z</time>
      </trkpt>
      <trkpt lat="44.72386" lon="-1.07458">
        <ele>-1.3</ele>
        <time>2021-07-01T17:58:52Z</time>
      </trkpt>
      <trkpt lat="44.72386" lon="-1.07462">
        <ele>-1.3</ele>
        <time>2021-07-01T17:58:53Z</time>
      </trkpt>
      <trkpt lat="44.72385" lon="-1.07464">
        <ele>-0.82</ele>
        <time>2021-07-01T17:58:54Z</time>
      </trkpt>
      <trkpt lat="44.72382" lon="-1.07467">
        <ele>-0.82</ele>
        <time>2021-07-01T17:58:55Z</time>
      </trkpt>
      <trkpt lat="44.7238" lon="-1.0747">
        <ele>-0.82</ele>
        <time>2021-07-01T17:58:56Z</time>
      </trkpt>
      <trkpt lat="44.72378" lon="-1.07473">
        <ele>-0.34</ele>
        <time>2021-07-01T17:58:57Z</time>
      </trkpt>
      <trkpt lat="44.72375" lon="-1.07473">
        <ele>-0.34</ele>
        <time>2021-07-01T17:58:58Z</time>
      </trkpt>
      <trkpt lat="44.72369" lon="-1.07473">
        <ele>-0.34</ele>
        <time>2021-07-01T17:58:59Z</time>
      </trkpt>
      <trkpt lat="44.72366" lon="-1.0747">
        <ele>-0.34</ele>
        <time>2021-07-01T17:59:00Z</time>
      </trkpt>
      <trkpt lat="44.72361" lon="-1.07465">
        <ele>-0.82</ele>
        <time>2021-07-01T17:59:01Z</time>
      </trkpt>
      <trkpt lat="44.72353" lon="-1.07446">
        <ele>-0.82</ele>
        <time>2021-07-01T17:59:02Z</time>
      </trkpt>
      <trkpt lat="44.72353" lon="-1.07446">
        <ele>-0.82</ele>
        <time>2021-07-01T17:59:03Z</time>
      </trkpt>
      <trkpt lat="44.72279" lon="-1.07402">
        <ele>1.1</ele>
        <time>2021-07-01T17:59:14Z</time>
      </trkpt>
      <trkpt lat="44.72228" lon="-1.07352">
        <ele>2.54</ele>
        <time>2021-07-01T17:59:26Z</time>
      </trkpt>
      <trkpt lat="44.72193" lon="-1.0732">
        <ele>0.14</ele>
        <time>2021-07-01T17:59:34Z</time>
      </trkpt>
      <trkpt lat="44.72151" lon="-1.07283">
        <ele>-1.79</ele>
        <time>2021-07-01T17:59:46Z</time>
      </trkpt>
      <trkpt lat="44.72112" lon="-1.07247">
        <ele>-1.3</ele>
        <time>2021-07-01T17:59:58Z</time>
      </trkpt>
      <trkpt lat="44.72083" lon="-1.07222">
        <ele>-0.82</ele>
        <time>2021-07-01T18:00:10Z</time>
      </trkpt>
      <trkpt lat="44.72082" lon="-1.07209">
        <ele>-0.82</ele>
        <time>2021-07-01T18:00:11Z</time>
      </trkpt>
      <trkpt lat="44.72084" lon="-1.07208">
        <ele>-0.82</ele>
        <time>2021-07-01T18:00:12Z</time>
      </trkpt>
      <trkpt lat="44.72113" lon="-1.07174">
        <ele>0.14</ele>
        <time>2021-07-01T18:00:21Z</time>
      </trkpt>
      <trkpt lat="44.72117" lon="-1.0717">
        <ele>0.14</ele>
        <time>2021-07-01T18:00:22Z</time>
      </trkpt>
      <trkpt lat="44.72121" lon="-1.07166">
        <ele>0.14</ele>
        <time>2021-07-01T18:00:23Z</time>
      </trkpt>
      <trkpt lat="44.72126" lon="-1.07162">
        <ele>0.14</ele>
        <time>2021-07-01T18:00:24Z</time>
      </trkpt>
      <trkpt lat="44.7213" lon="-1.07155">
        <ele>0.14</ele>
        <time>2021-07-01T18:00:25Z</time>
      </trkpt>
      <trkpt lat="44.72173" lon="-1.07062">
        <ele>2.06</ele>
        <time>2021-07-01T18:00:38Z</time>
      </trkpt>
      <trkpt lat="44.72212" lon="-1.06972">
        <ele>3.5</ele>
        <time>2021-07-01T18:00:52Z</time>
      </trkpt>
      <trkpt lat="44.72276" lon="-1.06841">
        <ele>5.42</ele>
        <time>2021-07-01T18:01:06Z</time>
      </trkpt>
      <trkpt lat="44.72308" lon="-1.06769">
        <ele>7.35</ele>
        <time>2021-07-01T18:01:17Z</time>
      </trkpt>
      <trkpt lat="44.72309" lon="-1.06768">
        <ele>6.87</ele>
        <time>2021-07-01T18:01:20Z</time>
      </trkpt>
      <trkpt lat="44.72306" lon="-1.06759">
        <ele>6.87</ele>
        <time>2021-07-01T18:01:21Z</time>
      </trkpt>
      <trkpt lat="44.72304" lon="-1.06758">
        <ele>6.87</ele>
        <time>2021-07-01T18:01:22Z</time>
      </trkpt>
      <trkpt lat="44.72301" lon="-1.06756">
        <ele>6.87</ele>
        <time>2021-07-01T18:01:23Z</time>
      </trkpt>
      <trkpt lat="44.72297" lon="-1.06753">
        <ele>6.87</ele>
        <time>2021-07-01T18:01:24Z</time>
      </trkpt>
      <trkpt lat="44.72234" lon="-1.06713">
        <ele>5.91</ele>
        <time>2021-07-01T18:01:34Z</time>
      </trkpt>
      <trkpt lat="44.72155" lon="-1.06663">
        <ele>5.42</ele>
        <time>2021-07-01T18:01:47Z</time>
      </trkpt>
      <trkpt lat="44.72076" lon="-1.06614">
        <ele>3.98</ele>
        <time>2021-07-01T18:01:57Z</time>
      </trkpt>
      <trkpt lat="44.71899" lon="-1.06504">
        <ele>4.94</ele>
        <time>2021-07-01T18:02:14Z</time>
      </trkpt>
      <trkpt lat="44.71681" lon="-1.06368">
        <ele>4.46</ele>
        <time>2021-07-01T18:02:33Z</time>
      </trkpt>
      <trkpt lat="44.71601" lon="-1.06311">
        <ele>2.54</ele>
        <time>2021-07-01T18:02:44Z</time>
      </trkpt>
      <trkpt lat="44.71596" lon="-1.06305">
        <ele>2.54</ele>
        <time>2021-07-01T18:02:45Z</time>
      </trkpt>
      <trkpt lat="44.71533" lon="-1.06201">
        <ele>0.62</ele>
        <time>2021-07-01T18:02:54Z</time>
      </trkpt>
      <trkpt lat="44.71461" lon="-1.06072">
        <ele>0.62</ele>
        <time>2021-07-01T18:03:04Z</time>
      </trkpt>
      <trkpt lat="44.71341" lon="-1.05862">
        <ele>1.58</ele>
        <time>2021-07-01T18:03:19Z</time>
      </trkpt>
      <trkpt lat="44.71231" lon="-1.05667">
        <ele>1.1</ele>
        <time>2021-07-01T18:03:35Z</time>
      </trkpt>
      <trkpt lat="44.71191" lon="-1.05597">
        <ele>0.62</ele>
        <time>2021-07-01T18:03:44Z</time>
      </trkpt>
      <trkpt lat="44.71118" lon="-1.05465">
        <ele>0.62</ele>
        <time>2021-07-01T18:04:00Z</time>
      </trkpt>
      <trkpt lat="44.71061" lon="-1.05364">
        <ele>0.62</ele>
        <time>2021-07-01T18:04:12Z</time>
      </trkpt>
      <trkpt lat="44.70973" lon="-1.05208">
        <ele>2.06</ele>
        <time>2021-07-01T18:04:28Z</time>
      </trkpt>
      <trkpt lat="44.70845" lon="-1.04982">
        <ele>1.1</ele>
        <time>2021-07-01T18:04:47Z</time>
      </trkpt>
      <trkpt lat="44.70733" lon="-1.04769">
        <ele>2.06</ele>
        <time>2021-07-01T18:05:02Z</time>
      </trkpt>
      <trkpt lat="44.70632" lon="-1.04532">
        <ele>2.06</ele>
        <time>2021-07-01T18:05:19Z</time>
      </trkpt>
      <trkpt lat="44.7057" lon="-1.04386">
        <ele>2.06</ele>
        <time>2021-07-01T18:05:34Z</time>
      </trkpt>
      <trkpt lat="44.70565" lon="-1.04374">
        <ele>2.54</ele>
        <time>2021-07-01T18:05:36Z</time>
      </trkpt>
      <trkpt lat="44.70562" lon="-1.04368">
        <ele>2.54</ele>
        <time>2021-07-01T18:05:37Z</time>
      </trkpt>
      <trkpt lat="44.70555" lon="-1.04369">
        <ele>2.54</ele>
        <time>2021-07-01T18:05:39Z</time>
      </trkpt>
      <trkpt lat="44.70548" lon="-1.04365">
        <ele>2.54</ele>
        <time>2021-07-01T18:05:40Z</time>
      </trkpt>
      <trkpt lat="44.70545" lon="-1.04351">
        <ele>2.54</ele>
        <time>2021-07-01T18:05:41Z</time>
      </trkpt>
      <trkpt lat="44.70545" lon="-1.04351">
        <ele>3.02</ele>
        <time>2021-07-01T18:05:42Z</time>
      </trkpt>
      <trkpt lat="44.70545" lon="-1.04347">
        <ele>3.02</ele>
        <time>2021-07-01T18:05:43Z</time>
      </trkpt>
      <trkpt lat="44.70547" lon="-1.04333">
        <ele>3.02</ele>
        <time>2021-07-01T18:05:44Z</time>
      </trkpt>
      <trkpt lat="44.70544" lon="-1.04325">
        <ele>2.54</ele>
        <time>2021-07-01T18:05:45Z</time>
      </trkpt>
      <trkpt lat="44.7054" lon="-1.04317">
        <ele>2.54</ele>
        <time>2021-07-01T18:05:46Z</time>
      </trkpt>
      <trkpt lat="44.70486" lon="-1.04188">
        <ele>2.06</ele>
        <time>2021-07-01T18:05:56Z</time>
      </trkpt>
      <trkpt lat="44.70404" lon="-1.03982">
        <ele>2.06</ele>
        <time>2021-07-01T18:06:11Z</time>
      </trkpt>
      <trkpt lat="44.70382" lon="-1.03895">
        <ele>2.06</ele>
        <time>2021-07-01T18:06:20Z</time>
      </trkpt>
      <trkpt lat="44.7038" lon="-1.03888">
        <ele>2.06</ele>
        <time>2021-07-01T18:06:21Z</time>
      </trkpt>
      <trkpt lat="44.70378" lon="-1.03882">
        <ele>2.54</ele>
        <time>2021-07-01T18:06:22Z</time>
      </trkpt>
      <trkpt lat="44.70372" lon="-1.03876">
        <ele>2.54</ele>
        <time>2021-07-01T18:06:23Z</time>
      </trkpt>
      <trkpt lat="44.70369" lon="-1.03874">
        <ele>2.54</ele>
        <time>2021-07-01T18:06:24Z</time>
      </trkpt>
      <trkpt lat="44.70369" lon="-1.03868">
        <ele>2.54</ele>
        <time>2021-07-01T18:06:25Z</time>
      </trkpt>
      <trkpt lat="44.70369" lon="-1.03861">
        <ele>2.54</ele>
        <time>2021-07-01T18:06:26Z</time>
      </trkpt>
      <trkpt lat="44.70369" lon="-1.03859">
        <ele>2.06</ele>
        <time>2021-07-01T18:06:27Z</time>
      </trkpt>
      <trkpt lat="44.7037" lon="-1.03842">
        <ele>3.02</ele>
        <time>2021-07-01T18:06:28Z</time>
      </trkpt>
      <trkpt lat="44.70368" lon="-1.03833">
        <ele>3.02</ele>
        <time>2021-07-01T18:06:29Z</time>
      </trkpt>
      <trkpt lat="44.70328" lon="-1.03692">
        <ele>3.02</ele>
        <time>2021-07-01T18:06:43Z</time>
      </trkpt>
      <trkpt lat="44.70273" lon="-1.0358">
        <ele>3.02</ele>
        <time>2021-07-01T18:06:57Z</time>
      </trkpt>
      <trkpt lat="44.702" lon="-1.03462">
        <ele>2.54</ele>
        <time>2021-07-01T18:07:13Z</time>
      </trkpt>
      <trkpt lat="44.70167" lon="-1.03353">
        <ele>2.54</ele>
        <time>2021-07-01T18:07:27Z</time>
      </trkpt>
      <trkpt lat="44.70165" lon="-1.03345">
        <ele>2.54</ele>
        <time>2021-07-01T18:07:28Z</time>
      </trkpt>
      <trkpt lat="44.70159" lon="-1.03334">
        <ele>2.54</ele>
        <time>2021-07-01T18:07:29Z</time>
      </trkpt>
      <trkpt lat="44.70153" lon="-1.03329">
        <ele>2.54</ele>
        <time>2021-07-01T18:07:30Z</time>
      </trkpt>
      <trkpt lat="44.70151" lon="-1.03319">
        <ele>2.54</ele>
        <time>2021-07-01T18:07:31Z</time>
      </trkpt>
      <trkpt lat="44.70152" lon="-1.03312">
        <ele>2.54</ele>
        <time>2021-07-01T18:07:32Z</time>
      </trkpt>
      <trkpt lat="44.70152" lon="-1.03312">
        <ele>2.54</ele>
        <time>2021-07-01T18:07:33Z</time>
      </trkpt>
      <trkpt lat="44.70152" lon="-1.03308">
        <ele>2.54</ele>
        <time>2021-07-01T18:07:34Z</time>
      </trkpt>
      <trkpt lat="44.70158" lon="-1.03294">
        <ele>2.54</ele>
        <time>2021-07-01T18:07:35Z</time>
      </trkpt>
      <trkpt lat="44.70157" lon="-1.03284">
        <ele>2.54</ele>
        <time>2021-07-01T18:07:36Z</time>
      </trkpt>
      <trkpt lat="44.70156" lon="-1.03272">
        <ele>2.06</ele>
        <time>2021-07-01T18:07:37Z</time>
      </trkpt>
      <trkpt lat="44.70137" lon="-1.03114">
        <ele>2.06</ele>
        <time>2021-07-01T18:07:46Z</time>
      </trkpt>
      <trkpt lat="44.70103" lon="-1.02848">
        <ele>4.94</ele>
        <time>2021-07-01T18:07:58Z</time>
      </trkpt>
      <trkpt lat="44.70051" lon="-1.02515">
        <ele>3.5</ele>
        <time>2021-07-01T18:08:12Z</time>
      </trkpt>
      <trkpt lat="44.70008" lon="-1.02379">
        <ele>4.46</ele>
        <time>2021-07-01T18:08:20Z</time>
      </trkpt>
      <trkpt lat="44.7" lon="-1.02361">
        <ele>4.94</ele>
        <time>2021-07-01T18:08:21Z</time>
      </trkpt>
      <trkpt lat="44.6999" lon="-1.02346">
        <ele>5.42</ele>
        <time>2021-07-01T18:08:22Z</time>
      </trkpt>
      <trkpt lat="44.6998" lon="-1.02334">
        <ele>8.31</ele>
        <time>2021-07-01T18:08:23Z</time>
      </trkpt>
      <trkpt lat="44.69967" lon="-1.02322">
        <ele>9.27</ele>
        <time>2021-07-01T18:08:24Z</time>
      </trkpt>
      <trkpt lat="44.69952" lon="-1.02313">
        <ele>9.27</ele>
        <time>2021-07-01T18:08:25Z</time>
      </trkpt>
      <trkpt lat="44.69937" lon="-1.02306">
        <ele>10.71</ele>
        <time>2021-07-01T18:08:26Z</time>
      </trkpt>
      <trkpt lat="44.69725" lon="-1.02252">
        <ele>12.63</ele>
        <time>2021-07-01T18:08:40Z</time>
      </trkpt>
      <trkpt lat="44.6952" lon="-1.02202">
        <ele>11.67</ele>
        <time>2021-07-01T18:08:54Z</time>
      </trkpt>
      <trkpt lat="44.69337" lon="-1.02158">
        <ele>13.6</ele>
        <time>2021-07-01T18:09:08Z</time>
      </trkpt>
      <trkpt lat="44.69276" lon="-1.02145">
        <ele>12.15</ele>
        <time>2021-07-01T18:09:16Z</time>
      </trkpt>
      <trkpt lat="44.69271" lon="-1.02144">
        <ele>12.15</ele>
        <time>2021-07-01T18:09:17Z</time>
      </trkpt>
      <trkpt lat="44.69259" lon="-1.02154">
        <ele>12.15</ele>
        <time>2021-07-01T18:09:19Z</time>
      </trkpt>
      <trkpt lat="44.69253" lon="-1.02155">
        <ele>11.67</ele>
        <time>2021-07-01T18:09:20Z</time>
      </trkpt>
      <trkpt lat="44.69247" lon="-1.0215">
        <ele>11.19</ele>
        <time>2021-07-01T18:09:21Z</time>
      </trkpt>
      <trkpt lat="44.69238" lon="-1.02133">
        <ele>10.23</ele>
        <time>2021-07-01T18:09:23Z</time>
      </trkpt>
      <trkpt lat="44.69231" lon="-1.02132">
        <ele>9.75</ele>
        <time>2021-07-01T18:09:24Z</time>
      </trkpt>
      <trkpt lat="44.69223" lon="-1.0213">
        <ele>9.27</ele>
        <time>2021-07-01T18:09:25Z</time>
      </trkpt>
      <trkpt lat="44.69113" lon="-1.02102">
        <ele>8.31</ele>
        <time>2021-07-01T18:09:37Z</time>
      </trkpt>
      <trkpt lat="44.69048" lon="-1.02093">
        <ele>7.35</ele>
        <time>2021-07-01T18:09:46Z</time>
      </trkpt>
      <trkpt lat="44.6893" lon="-1.0207">
        <ele>6.39</ele>
        <time>2021-07-01T18:09:59Z</time>
      </trkpt>
      <trkpt lat="44.68865" lon="-1.02016">
        <ele>6.87</ele>
        <time>2021-07-01T18:10:10Z</time>
      </trkpt>
      <trkpt lat="44.68779" lon="-1.01924">
        <ele>5.91</ele>
        <time>2021-07-01T18:10:26Z</time>
      </trkpt>
      <trkpt lat="44.68771" lon="-1.01919">
        <ele>5.91</ele>
        <time>2021-07-01T18:10:27Z</time>
      </trkpt>
      <trkpt lat="44.68763" lon="-1.01917">
        <ele>5.91</ele>
        <time>2021-07-01T18:10:28Z</time>
      </trkpt>
      <trkpt lat="44.68752" lon="-1.01914">
        <ele>5.42</ele>
        <time>2021-07-01T18:10:29Z</time>
      </trkpt>
      <trkpt lat="44.68677" lon="-1.01891">
        <ele>4.94</ele>
        <time>2021-07-01T18:10:35Z</time>
      </trkpt>
      <trkpt lat="44.68677" lon="-1.01891">
        <ele>4.46</ele>
        <time>2021-07-01T18:10:36Z</time>
      </trkpt>
      <trkpt lat="44.68606" lon="-1.01832">
        <ele>5.42</ele>
        <time>2021-07-01T18:10:46Z</time>
      </trkpt>
      <trkpt lat="44.68509" lon="-1.01733">
        <ele>5.91</ele>
        <time>2021-07-01T18:11:02Z</time>
      </trkpt>
      <trkpt lat="44.68426" lon="-1.0164">
        <ele>5.42</ele>
        <time>2021-07-01T18:11:14Z</time>
      </trkpt>
      <trkpt lat="44.68419" lon="-1.01631">
        <ele>6.87</ele>
        <time>2021-07-01T18:11:15Z</time>
      </trkpt>
      <trkpt lat="44.68339" lon="-1.0154">
        <ele>6.39</ele>
        <time>2021-07-01T18:11:27Z</time>
      </trkpt>
      <trkpt lat="44.68252" lon="-1.01438">
        <ele>5.91</ele>
        <time>2021-07-01T18:11:41Z</time>
      </trkpt>
      <trkpt lat="44.68181" lon="-1.01352">
        <ele>4.94</ele>
        <time>2021-07-01T18:11:53Z</time>
      </trkpt>
      <trkpt lat="44.68177" lon="-1.01347">
        <ele>4.46</ele>
        <time>2021-07-01T18:11:54Z</time>
      </trkpt>
      <trkpt lat="44.68169" lon="-1.0135">
        <ele>4.46</ele>
        <time>2021-07-01T18:11:55Z</time>
      </trkpt>
      <trkpt lat="44.68164" lon="-1.01347">
        <ele>3.98</ele>
        <time>2021-07-01T18:11:56Z</time>
      </trkpt>
      <trkpt lat="44.68161" lon="-1.01345">
        <ele>3.98</ele>
        <time>2021-07-01T18:11:57Z</time>
      </trkpt>
      <trkpt lat="44.68161" lon="-1.01327">
        <ele>3.98</ele>
        <time>2021-07-01T18:11:58Z</time>
      </trkpt>
      <trkpt lat="44.68101" lon="-1.01256">
        <ele>3.98</ele>
        <time>2021-07-01T18:12:08Z</time>
      </trkpt>
      <trkpt lat="44.68064" lon="-1.01208">
        <ele>4.46</ele>
        <time>2021-07-01T18:12:14Z</time>
      </trkpt>
      <trkpt lat="44.68055" lon="-1.01191">
        <ele>4.46</ele>
        <time>2021-07-01T18:12:15Z</time>
      </trkpt>
      <trkpt lat="44.67997" lon="-1.01072">
        <ele>3.5</ele>
        <time>2021-07-01T18:12:28Z</time>
      </trkpt>
      <trkpt lat="44.67913" lon="-1.00953">
        <ele>6.87</ele>
        <time>2021-07-01T18:12:39Z</time>
      </trkpt>
      <trkpt lat="44.67908" lon="-1.00944">
        <ele>6.39</ele>
        <time>2021-07-01T18:12:40Z</time>
      </trkpt>
      <trkpt lat="44.67903" lon="-1.00935">
        <ele>6.39</ele>
        <time>2021-07-01T18:12:41Z</time>
      </trkpt>
      <trkpt lat="44.67903" lon="-1.00935">
        <ele>5.91</ele>
        <time>2021-07-01T18:12:42Z</time>
      </trkpt>
      <trkpt lat="44.67898" lon="-1.00926">
        <ele>5.91</ele>
        <time>2021-07-01T18:12:43Z</time>
      </trkpt>
      <trkpt lat="44.67894" lon="-1.00916">
        <ele>5.91</ele>
        <time>2021-07-01T18:12:44Z</time>
      </trkpt>
      <trkpt lat="44.67891" lon="-1.00905">
        <ele>5.42</ele>
        <time>2021-07-01T18:12:45Z</time>
      </trkpt>
      <trkpt lat="44.6787" lon="-1.00839">
        <ele>4.94</ele>
        <time>2021-07-01T18:12:52Z</time>
      </trkpt>
      <trkpt lat="44.67868" lon="-1.00833">
        <ele>4.94</ele>
        <time>2021-07-01T18:12:53Z</time>
      </trkpt>
      <trkpt lat="44.67856" lon="-1.00829">
        <ele>4.94</ele>
        <time>2021-07-01T18:12:55Z</time>
      </trkpt>
      <trkpt lat="44.67852" lon="-1.00823">
        <ele>4.94</ele>
        <time>2021-07-01T18:12:56Z</time>
      </trkpt>
      <trkpt lat="44.67851" lon="-1.00814">
        <ele>4.94</ele>
        <time>2021-07-01T18:12:57Z</time>
      </trkpt>
      <trkpt lat="44.67849" lon="-1.00794">
        <ele>4.94</ele>
        <time>2021-07-01T18:12:59Z</time>
      </trkpt>
      <trkpt lat="44.67844" lon="-1.00785">
        <ele>4.94</ele>
        <time>2021-07-01T18:13:00Z</time>
      </trkpt>
      <trkpt lat="44.67839" lon="-1.00776">
        <ele>4.46</ele>
        <time>2021-07-01T18:13:01Z</time>
      </trkpt>
      <trkpt lat="44.67753" lon="-1.00646">
        <ele>4.94</ele>
        <time>2021-07-01T18:13:12Z</time>
      </trkpt>
      <trkpt lat="44.67584" lon="-1.00396">
        <ele>6.39</ele>
        <time>2021-07-01T18:13:30Z</time>
      </trkpt>
      <trkpt lat="44.67459" lon="-1.00208">
        <ele>6.39</ele>
        <time>2021-07-01T18:13:43Z</time>
      </trkpt>
      <trkpt lat="44.67317" lon="-1">
        <ele>7.35</ele>
        <time>2021-07-01T18:14:00Z</time>
      </trkpt>
      <trkpt lat="44.67257" lon="-0.99913">
        <ele>8.31</ele>
        <time>2021-07-01T18:14:09Z</time>
      </trkpt>
      <trkpt lat="44.67253" lon="-0.99908">
        <ele>8.31</ele>
        <time>2021-07-01T18:14:10Z</time>
      </trkpt>
      <trkpt lat="44.67249" lon="-0.99903">
        <ele>8.31</ele>
        <time>2021-07-01T18:14:11Z</time>
      </trkpt>
      <trkpt lat="44.67241" lon="-0.99907">
        <ele>8.31</ele>
        <time>2021-07-01T18:14:12Z</time>
      </trkpt>
      <trkpt lat="44.67236" lon="-0.99903">
        <ele>8.31</ele>
        <time>2021-07-01T18:14:13Z</time>
      </trkpt>
      <trkpt lat="44.67232" lon="-0.99901">
        <ele>8.31</ele>
        <time>2021-07-01T18:14:14Z</time>
      </trkpt>
      <trkpt lat="44.67231" lon="-0.99886">
        <ele>8.31</ele>
        <time>2021-07-01T18:14:15Z</time>
      </trkpt>
      <trkpt lat="44.67226" lon="-0.99881">
        <ele>8.31</ele>
        <time>2021-07-01T18:14:16Z</time>
      </trkpt>
      <trkpt lat="44.6722" lon="-0.99876">
        <ele>8.31</ele>
        <time>2021-07-01T18:14:17Z</time>
      </trkpt>
      <trkpt lat="44.67214" lon="-0.9987">
        <ele>7.83</ele>
        <time>2021-07-01T18:14:18Z</time>
      </trkpt>
      <trkpt lat="44.67206" lon="-0.99865">
        <ele>8.31</ele>
        <time>2021-07-01T18:14:19Z</time>
      </trkpt>
      <trkpt lat="44.67197" lon="-0.99859">
        <ele>9.27</ele>
        <time>2021-07-01T18:14:20Z</time>
      </trkpt>
      <trkpt lat="44.67188" lon="-0.99854">
        <ele>8.79</ele>
        <time>2021-07-01T18:14:21Z</time>
      </trkpt>
      <trkpt lat="44.67178" lon="-0.99848">
        <ele>9.27</ele>
        <time>2021-07-01T18:14:22Z</time>
      </trkpt>
      <trkpt lat="44.67065" lon="-0.99821">
        <ele>8.79</ele>
        <time>2021-07-01T18:14:31Z</time>
      </trkpt>
      <trkpt lat="44.6684" lon="-0.99823">
        <ele>7.83</ele>
        <time>2021-07-01T18:14:47Z</time>
      </trkpt>
      <trkpt lat="44.66735" lon="-0.9982">
        <ele>8.31</ele>
        <time>2021-07-01T18:14:55Z</time>
      </trkpt>
      <trkpt lat="44.66711" lon="-0.99811">
        <ele>7.83</ele>
        <time>2021-07-01T18:14:56Z</time>
      </trkpt>
      <trkpt lat="44.66711" lon="-0.99811">
        <ele>7.35</ele>
        <time>2021-07-01T18:14:57Z</time>
      </trkpt>
      <trkpt lat="44.66697" lon="-0.99806">
        <ele>7.35</ele>
        <time>2021-07-01T18:14:58Z</time>
      </trkpt>
      <trkpt lat="44.66684" lon="-0.99797">
        <ele>6.87</ele>
        <time>2021-07-01T18:14:59Z</time>
      </trkpt>
      <trkpt lat="44.66671" lon="-0.99787">
        <ele>6.87</ele>
        <time>2021-07-01T18:15:00Z</time>
      </trkpt>
      <trkpt lat="44.66647" lon="-0.99765">
        <ele>6.87</ele>
        <time>2021-07-01T18:15:01Z</time>
      </trkpt>
      <trkpt lat="44.66647" lon="-0.99765">
        <ele>7.35</ele>
        <time>2021-07-01T18:15:02Z</time>
      </trkpt>
      <trkpt lat="44.66637" lon="-0.99752">
        <ele>6.87</ele>
        <time>2021-07-01T18:15:03Z</time>
      </trkpt>
      <trkpt lat="44.66618" lon="-0.99723">
        <ele>6.39</ele>
        <time>2021-07-01T18:15:04Z</time>
      </trkpt>
      <trkpt lat="44.66618" lon="-0.99723">
        <ele>6.39</ele>
        <time>2021-07-01T18:15:05Z</time>
      </trkpt>
      <trkpt lat="44.6661" lon="-0.99705">
        <ele>6.39</ele>
        <time>2021-07-01T18:15:06Z</time>
      </trkpt>
      <trkpt lat="44.66601" lon="-0.99686">
        <ele>5.91</ele>
        <time>2021-07-01T18:15:07Z</time>
      </trkpt>
      <trkpt lat="44.66496" lon="-0.9944">
        <ele>7.83</ele>
        <time>2021-07-01T18:15:20Z</time>
      </trkpt>
      <trkpt lat="44.66387" lon="-0.99327">
        <ele>9.75</ele>
        <time>2021-07-01T18:15:29Z</time>
      </trkpt>
      <trkpt lat="44.6629" lon="-0.99243">
        <ele>9.27</ele>
        <time>2021-07-01T18:15:39Z</time>
      </trkpt>
      <trkpt lat="44.66284" lon="-0.99238">
        <ele>9.27</ele>
        <time>2021-07-01T18:15:40Z</time>
      </trkpt>
      <trkpt lat="44.66268" lon="-0.9924">
        <ele>8.79</ele>
        <time>2021-07-01T18:15:42Z</time>
      </trkpt>
      <trkpt lat="44.66265" lon="-0.99235">
        <ele>8.79</ele>
        <time>2021-07-01T18:15:43Z</time>
      </trkpt>
      <trkpt lat="44.66262" lon="-0.99231">
        <ele>8.79</ele>
        <time>2021-07-01T18:15:44Z</time>
      </trkpt>
      <trkpt lat="44.66262" lon="-0.99231">
        <ele>8.79</ele>
        <time>2021-07-01T18:15:45Z</time>
      </trkpt>
      <trkpt lat="44.66254" lon="-0.99214">
        <ele>8.79</ele>
        <time>2021-07-01T18:15:46Z</time>
      </trkpt>
      <trkpt lat="44.66247" lon="-0.99208">
        <ele>8.79</ele>
        <time>2021-07-01T18:15:47Z</time>
      </trkpt>
      <trkpt lat="44.66239" lon="-0.99201">
        <ele>9.75</ele>
        <time>2021-07-01T18:15:48Z</time>
      </trkpt>
      <trkpt lat="44.6613" lon="-0.99105">
        <ele>9.75</ele>
        <time>2021-07-01T18:15:58Z</time>
      </trkpt>
      <trkpt lat="44.65959" lon="-0.98956">
        <ele>8.79</ele>
        <time>2021-07-01T18:16:11Z</time>
      </trkpt>
      <trkpt lat="44.65798" lon="-0.9882">
        <ele>8.79</ele>
        <time>2021-07-01T18:16:24Z</time>
      </trkpt>
      <trkpt lat="44.65665" lon="-0.9875">
        <ele>9.27</ele>
        <time>2021-07-01T18:16:37Z</time>
      </trkpt>
      <trkpt lat="44.6563" lon="-0.98735">
        <ele>9.27</ele>
        <time>2021-07-01T18:16:43Z</time>
      </trkpt>
      <trkpt lat="44.65625" lon="-0.98733">
        <ele>10.23</ele>
        <time>2021-07-01T18:16:53Z</time>
      </trkpt>
      <trkpt lat="44.65602" lon="-0.98722">
        <ele>10.71</ele>
        <time>2021-07-01T18:17:16Z</time>
      </trkpt>
      <trkpt lat="44.65525" lon="-0.98686">
        <ele>10.71</ele>
        <time>2021-07-01T18:17:24Z</time>
      </trkpt>
      <trkpt lat="44.65298" lon="-0.9858">
        <ele>11.19</ele>
        <time>2021-07-01T18:17:42Z</time>
      </trkpt>
      <trkpt lat="44.65126" lon="-0.98499">
        <ele>10.23</ele>
        <time>2021-07-01T18:17:57Z</time>
      </trkpt>
      <trkpt lat="44.64952" lon="-0.98418">
        <ele>9.75</ele>
        <time>2021-07-01T18:18:12Z</time>
      </trkpt>
      <trkpt lat="44.64779" lon="-0.98338">
        <ele>9.27</ele>
        <time>2021-07-01T18:18:27Z</time>
      </trkpt>
      <trkpt lat="44.64668" lon="-0.98294">
        <ele>8.79</ele>
        <time>2021-07-01T18:18:38Z</time>
      </trkpt>
      <trkpt lat="44.64605" lon="-0.98295">
        <ele>8.79</ele>
        <time>2021-07-01T18:18:48Z</time>
      </trkpt>
      <trkpt lat="44.64553" lon="-0.98299">
        <ele>8.31</ele>
        <time>2021-07-01T18:18:57Z</time>
      </trkpt>
      <trkpt lat="44.64541" lon="-0.98293">
        <ele>8.31</ele>
        <time>2021-07-01T18:19:04Z</time>
      </trkpt>
      <trkpt lat="44.64537" lon="-0.98291">
        <ele>8.31</ele>
        <time>2021-07-01T18:19:05Z</time>
      </trkpt>
      <trkpt lat="44.64536" lon="-0.9829">
        <ele>8.31</ele>
        <time>2021-07-01T18:19:06Z</time>
      </trkpt>
      <trkpt lat="44.64533" lon="-0.98286">
        <ele>7.83</ele>
        <time>2021-07-01T18:19:07Z</time>
      </trkpt>
      <trkpt lat="44.64529" lon="-0.98282">
        <ele>8.31</ele>
        <time>2021-07-01T18:19:08Z</time>
      </trkpt>
      <trkpt lat="44.64509" lon="-0.98244">
        <ele>8.31</ele>
        <time>2021-07-01T18:19:13Z</time>
      </trkpt>
      <trkpt lat="44.64503" lon="-0.98217">
        <ele>8.31</ele>
        <time>2021-07-01T18:19:14Z</time>
      </trkpt>
      <trkpt lat="44.64492" lon="-0.98096">
        <ele>8.79</ele>
        <time>2021-07-01T18:19:25Z</time>
      </trkpt>
      <trkpt lat="44.64489" lon="-0.98085">
        <ele>8.31</ele>
        <time>2021-07-01T18:19:26Z</time>
      </trkpt>
      <trkpt lat="44.64487" lon="-0.98075">
        <ele>8.31</ele>
        <time>2021-07-01T18:19:27Z</time>
      </trkpt>
      <trkpt lat="44.64441" lon="-0.97933">
        <ele>6.87</ele>
        <time>2021-07-01T18:19:39Z</time>
      </trkpt>
      <trkpt lat="44.64423" lon="-0.97868">
        <ele>5.91</ele>
        <time>2021-07-01T18:19:48Z</time>
      </trkpt>
      <trkpt lat="44.64421" lon="-0.9786">
        <ele>5.42</ele>
        <time>2021-07-01T18:19:50Z</time>
      </trkpt>
      <trkpt lat="44.64413" lon="-0.97852">
        <ele>5.42</ele>
        <time>2021-07-01T18:19:51Z</time>
      </trkpt>
      <trkpt lat="44.64411" lon="-0.97842">
        <ele>5.42</ele>
        <time>2021-07-01T18:19:52Z</time>
      </trkpt>
      <trkpt lat="44.64407" lon="-0.97839">
        <ele>5.91</ele>
        <time>2021-07-01T18:19:53Z</time>
      </trkpt>
      <trkpt lat="44.64402" lon="-0.97835">
        <ele>6.39</ele>
        <time>2021-07-01T18:19:54Z</time>
      </trkpt>
      <trkpt lat="44.64396" lon="-0.97831">
        <ele>6.87</ele>
        <time>2021-07-01T18:19:55Z</time>
      </trkpt>
      <trkpt lat="44.6439" lon="-0.97828">
        <ele>6.87</ele>
        <time>2021-07-01T18:19:56Z</time>
      </trkpt>
      <trkpt lat="44.64383" lon="-0.97826">
        <ele>6.87</ele>
        <time>2021-07-01T18:19:57Z</time>
      </trkpt>
      <trkpt lat="44.64299" lon="-0.97811">
        <ele>8.31</ele>
        <time>2021-07-01T18:20:08Z</time>
      </trkpt>
      <trkpt lat="44.64294" lon="-0.97815">
        <ele>8.79</ele>
        <time>2021-07-01T18:20:16Z</time>
      </trkpt>
      <trkpt lat="44.6427" lon="-0.97821">
        <ele>8.79</ele>
        <time>2021-07-01T18:20:26Z</time>
      </trkpt>
      <trkpt lat="44.64265" lon="-0.97823">
        <ele>8.79</ele>
        <time>2021-07-01T18:20:27Z</time>
      </trkpt>
      <trkpt lat="44.64179" lon="-0.97818">
        <ele>9.75</ele>
        <time>2021-07-01T18:20:38Z</time>
      </trkpt>
      <trkpt lat="44.64049" lon="-0.97798">
        <ele>9.27</ele>
        <time>2021-07-01T18:20:48Z</time>
      </trkpt>
      <trkpt lat="44.64049" lon="-0.97798">
        <ele>8.79</ele>
        <time>2021-07-01T18:20:49Z</time>
      </trkpt>
      <trkpt lat="44.64036" lon="-0.978">
        <ele>8.31</ele>
        <time>2021-07-01T18:20:50Z</time>
      </trkpt>
      <trkpt lat="44.63933" lon="-0.97856">
        <ele>4.46</ele>
        <time>2021-07-01T18:21:00Z</time>
      </trkpt>
      <trkpt lat="44.63906" lon="-0.97872">
        <ele>5.42</ele>
        <time>2021-07-01T18:21:06Z</time>
      </trkpt>
      <trkpt lat="44.63884" lon="-0.97883">
        <ele>5.91</ele>
        <time>2021-07-01T18:22:18Z</time>
      </trkpt>
      <trkpt lat="44.63818" lon="-0.97892">
        <ele>6.39</ele>
        <time>2021-07-01T18:22:30Z</time>
      </trkpt>
      <trkpt lat="44.63768" lon="-0.97869">
        <ele>6.87</ele>
        <time>2021-07-01T18:22:41Z</time>
      </trkpt>
      <trkpt lat="44.63733" lon="-0.97852">
        <ele>6.87</ele>
        <time>2021-07-01T18:22:50Z</time>
      </trkpt>
      <trkpt lat="44.63614" lon="-0.97835">
        <ele>6.39</ele>
        <time>2021-07-01T18:23:05Z</time>
      </trkpt>
      <trkpt lat="44.63503" lon="-0.97876">
        <ele>3.5</ele>
        <time>2021-07-01T18:23:16Z</time>
      </trkpt>
      <trkpt lat="44.63313" lon="-0.97954">
        <ele>1.1</ele>
        <time>2021-07-01T18:23:34Z</time>
      </trkpt>
      <trkpt lat="44.63284" lon="-0.97965">
        <ele>2.54</ele>
        <time>2021-07-01T18:23:41Z</time>
      </trkpt>
      <trkpt lat="44.63276" lon="-0.97968">
        <ele>2.06</ele>
        <time>2021-07-01T18:23:50Z</time>
      </trkpt>
      <trkpt lat="44.63271" lon="-0.97972">
        <ele>2.06</ele>
        <time>2021-07-01T18:24:00Z</time>
      </trkpt>
      <trkpt lat="44.63268" lon="-0.97976">
        <ele>2.06</ele>
        <time>2021-07-01T18:24:01Z</time>
      </trkpt>
      <trkpt lat="44.63267" lon="-0.97978">
        <ele>2.06</ele>
        <time>2021-07-01T18:24:02Z</time>
      </trkpt>
      <trkpt lat="44.63249" lon="-0.97988">
        <ele>2.06</ele>
        <time>2021-07-01T18:24:03Z</time>
      </trkpt>
      <trkpt lat="44.63245" lon="-0.97998">
        <ele>1.58</ele>
        <time>2021-07-01T18:24:04Z</time>
      </trkpt>
      <trkpt lat="44.63245" lon="-0.97998">
        <ele>2.06</ele>
        <time>2021-07-01T18:24:05Z</time>
      </trkpt>
      <trkpt lat="44.63241" lon="-0.98009">
        <ele>2.54</ele>
        <time>2021-07-01T18:24:06Z</time>
      </trkpt>
      <trkpt lat="44.63183" lon="-0.9814">
        <ele>1.58</ele>
        <time>2021-07-01T18:24:15Z</time>
      </trkpt>
      <trkpt lat="44.63089" lon="-0.98351">
        <ele>0.14</ele>
        <time>2021-07-01T18:24:26Z</time>
      </trkpt>
      <trkpt lat="44.62887" lon="-0.98799">
        <ele>0.62</ele>
        <time>2021-07-01T18:24:48Z</time>
      </trkpt>
      <trkpt lat="44.627" lon="-0.99212">
        <ele>1.58</ele>
        <time>2021-07-01T18:25:07Z</time>
      </trkpt>
      <trkpt lat="44.62665" lon="-0.99372">
        <ele>2.54</ele>
        <time>2021-07-01T18:25:14Z</time>
      </trkpt>
      <trkpt lat="44.62634" lon="-0.99675">
        <ele>3.02</ele>
        <time>2021-07-01T18:25:27Z</time>
      </trkpt>
      <trkpt lat="44.62613" lon="-0.99918">
        <ele>3.5</ele>
        <time>2021-07-01T18:25:40Z</time>
      </trkpt>
      <trkpt lat="44.62582" lon="-1.00196">
        <ele>3.98</ele>
        <time>2021-07-01T18:25:54Z</time>
      </trkpt>
      <trkpt lat="44.62571" lon="-1.00353">
        <ele>5.91</ele>
        <time>2021-07-01T18:26:02Z</time>
      </trkpt>
      <trkpt lat="44.62573" lon="-1.00378">
        <ele>6.87</ele>
        <time>2021-07-01T18:26:03Z</time>
      </trkpt>
      <trkpt lat="44.62578" lon="-1.00402">
        <ele>7.35</ele>
        <time>2021-07-01T18:26:04Z</time>
      </trkpt>
      <trkpt lat="44.62584" lon="-1.00425">
        <ele>7.83</ele>
        <time>2021-07-01T18:26:05Z</time>
      </trkpt>
      <trkpt lat="44.6259" lon="-1.00448">
        <ele>8.31</ele>
        <time>2021-07-01T18:26:06Z</time>
      </trkpt>
      <trkpt lat="44.62709" lon="-1.00861">
        <ele>15.04</ele>
        <time>2021-07-01T18:26:24Z</time>
      </trkpt>
      <trkpt lat="44.62766" lon="-1.01057">
        <ele>18.88</ele>
        <time>2021-07-01T18:26:35Z</time>
      </trkpt>
      <trkpt lat="44.62785" lon="-1.01099">
        <ele>20.32</ele>
        <time>2021-07-01T18:26:41Z</time>
      </trkpt>
      <trkpt lat="44.62793" lon="-1.01111">
        <ele>15.04</ele>
        <time>2021-07-01T18:26:50Z</time>
      </trkpt>
      <trkpt lat="44.62797" lon="-1.01116">
        <ele>15.04</ele>
        <time>2021-07-01T18:26:51Z</time>
      </trkpt>
      <trkpt lat="44.62792" lon="-1.01132">
        <ele>14.56</ele>
        <time>2021-07-01T18:26:52Z</time>
      </trkpt>
      <trkpt lat="44.62794" lon="-1.01139">
        <ele>14.56</ele>
        <time>2021-07-01T18:26:53Z</time>
      </trkpt>
      <trkpt lat="44.62796" lon="-1.0115">
        <ele>14.08</ele>
        <time>2021-07-01T18:26:54Z</time>
      </trkpt>
      <trkpt lat="44.62798" lon="-1.01162">
        <ele>15.04</ele>
        <time>2021-07-01T18:26:55Z</time>
      </trkpt>
      <trkpt lat="44.62804" lon="-1.01188">
        <ele>16.48</ele>
        <time>2021-07-01T18:26:56Z</time>
      </trkpt>
      <trkpt lat="44.62839" lon="-1.01327">
        <ele>14.56</ele>
        <time>2021-07-01T18:27:05Z</time>
      </trkpt>
      <trkpt lat="44.62887" lon="-1.016">
        <ele>13.6</ele>
        <time>2021-07-01T18:27:20Z</time>
      </trkpt>
      <trkpt lat="44.62902" lon="-1.0168">
        <ele>14.56</ele>
        <time>2021-07-01T18:27:25Z</time>
      </trkpt>
      <trkpt lat="44.62911" lon="-1.01709">
        <ele>13.6</ele>
        <time>2021-07-01T18:27:26Z</time>
      </trkpt>
      <trkpt lat="44.62911" lon="-1.01709">
        <ele>13.12</ele>
        <time>2021-07-01T18:27:27Z</time>
      </trkpt>
      <trkpt lat="44.62925" lon="-1.01727">
        <ele>11.67</ele>
        <time>2021-07-01T18:27:28Z</time>
      </trkpt>
      <trkpt lat="44.62932" lon="-1.01735">
        <ele>11.19</ele>
        <time>2021-07-01T18:27:29Z</time>
      </trkpt>
      <trkpt lat="44.62932" lon="-1.01735">
        <ele>10.23</ele>
        <time>2021-07-01T18:27:30Z</time>
      </trkpt>
      <trkpt lat="44.62997" lon="-1.01796">
        <ele>9.75</ele>
        <time>2021-07-01T18:27:38Z</time>
      </trkpt>
      <trkpt lat="44.63003" lon="-1.01804">
        <ele>9.75</ele>
        <time>2021-07-01T18:27:39Z</time>
      </trkpt>
      <trkpt lat="44.63008" lon="-1.01811">
        <ele>9.27</ele>
        <time>2021-07-01T18:27:40Z</time>
      </trkpt>
      <trkpt lat="44.63013" lon="-1.01819">
        <ele>9.27</ele>
        <time>2021-07-01T18:27:41Z</time>
      </trkpt>
      <trkpt lat="44.63017" lon="-1.01826">
        <ele>8.79</ele>
        <time>2021-07-01T18:27:42Z</time>
      </trkpt>
      <trkpt lat="44.63018" lon="-1.01827">
        <ele>8.79</ele>
        <time>2021-07-01T18:27:43Z</time>
      </trkpt>
      <trkpt lat="44.63033" lon="-1.01825">
        <ele>8.79</ele>
        <time>2021-07-01T18:27:44Z</time>
      </trkpt>
      <trkpt lat="44.63042" lon="-1.01848">
        <ele>8.31</ele>
        <time>2021-07-01T18:27:46Z</time>
      </trkpt>
      <trkpt lat="44.63048" lon="-1.0185">
        <ele>8.31</ele>
        <time>2021-07-01T18:27:47Z</time>
      </trkpt>
      <trkpt lat="44.6307" lon="-1.01862">
        <ele>8.31</ele>
        <time>2021-07-01T18:27:49Z</time>
      </trkpt>
      <trkpt lat="44.6307" lon="-1.01862">
        <ele>8.31</ele>
        <time>2021-07-01T18:27:50Z</time>
      </trkpt>
      <trkpt lat="44.6316" lon="-1.01943">
        <ele>7.35</ele>
        <time>2021-07-01T18:28:01Z</time>
      </trkpt>
      <trkpt lat="44.63246" lon="-1.0202">
        <ele>7.83</ele>
        <time>2021-07-01T18:28:15Z</time>
      </trkpt>
      <trkpt lat="44.63246" lon="-1.0202">
        <ele>7.83</ele>
        <time>2021-07-01T18:28:16Z</time>
      </trkpt>
      <trkpt lat="44.63251" lon="-1.02027">
        <ele>7.35</ele>
        <time>2021-07-01T18:28:17Z</time>
      </trkpt>
      <trkpt lat="44.63364" lon="-1.02075">
        <ele>5.91</ele>
        <time>2021-07-01T18:28:29Z</time>
      </trkpt>
      <trkpt lat="44.63471" lon="-1.021">
        <ele>4.46</ele>
        <time>2021-07-01T18:28:41Z</time>
      </trkpt>
      <trkpt lat="44.63502" lon="-1.021">
        <ele>5.42</ele>
        <time>2021-07-01T18:28:45Z</time>
      </trkpt>
      <trkpt lat="44.63508" lon="-1.021">
        <ele>5.42</ele>
        <time>2021-07-01T18:28:46Z</time>
      </trkpt>
      <trkpt lat="44.63514" lon="-1.02097">
        <ele>5.91</ele>
        <time>2021-07-01T18:28:47Z</time>
      </trkpt>
      <trkpt lat="44.63518" lon="-1.02093">
        <ele>6.39</ele>
        <time>2021-07-01T18:28:48Z</time>
      </trkpt>
      <trkpt lat="44.63524" lon="-1.02092">
        <ele>6.39</ele>
        <time>2021-07-01T18:28:49Z</time>
      </trkpt>
      <trkpt lat="44.63528" lon="-1.02095">
        <ele>6.39</ele>
        <time>2021-07-01T18:28:50Z</time>
      </trkpt>
      <trkpt lat="44.63528" lon="-1.02096">
        <ele>6.39</ele>
        <time>2021-07-01T18:28:51Z</time>
      </trkpt>
      <trkpt lat="44.63528" lon="-1.02103">
        <ele>6.87</ele>
        <time>2021-07-01T18:28:52Z</time>
      </trkpt>
      <trkpt lat="44.63528" lon="-1.02116">
        <ele>6.87</ele>
        <time>2021-07-01T18:28:53Z</time>
      </trkpt>
      <trkpt lat="44.63531" lon="-1.02121">
        <ele>6.39</ele>
        <time>2021-07-01T18:28:54Z</time>
      </trkpt>
      <trkpt lat="44.63533" lon="-1.02125">
        <ele>6.39</ele>
        <time>2021-07-01T18:28:55Z</time>
      </trkpt>
      <trkpt lat="44.63555" lon="-1.02164">
        <ele>7.35</ele>
        <time>2021-07-01T18:29:03Z</time>
      </trkpt>
      <trkpt lat="44.63557" lon="-1.0217">
        <ele>7.35</ele>
        <time>2021-07-01T18:29:04Z</time>
      </trkpt>
      <trkpt lat="44.6356" lon="-1.02186">
        <ele>7.83</ele>
        <time>2021-07-01T18:29:05Z</time>
      </trkpt>
      <trkpt lat="44.6356" lon="-1.02186">
        <ele>7.83</ele>
        <time>2021-07-01T18:29:06Z</time>
      </trkpt>
      <trkpt lat="44.63563" lon="-1.02204">
        <ele>7.35</ele>
        <time>2021-07-01T18:29:07Z</time>
      </trkpt>
      <trkpt lat="44.63579" lon="-1.02285">
        <ele>6.39</ele>
        <time>2021-07-01T18:29:17Z</time>
      </trkpt>
      <trkpt lat="44.6358" lon="-1.02292">
        <ele>6.87</ele>
        <time>2021-07-01T18:29:18Z</time>
      </trkpt>
      <trkpt lat="44.63584" lon="-1.0231">
        <ele>6.87</ele>
        <time>2021-07-01T18:29:19Z</time>
      </trkpt>
      <trkpt lat="44.63584" lon="-1.0231">
        <ele>6.87</ele>
        <time>2021-07-01T18:29:20Z</time>
      </trkpt>
      <trkpt lat="44.63588" lon="-1.0232">
        <ele>6.87</ele>
        <time>2021-07-01T18:29:21Z</time>
      </trkpt>
      <trkpt lat="44.63619" lon="-1.02393">
        <ele>7.35</ele>
        <time>2021-07-01T18:29:29Z</time>
      </trkpt>
      <trkpt lat="44.63705" lon="-1.02573">
        <ele>8.31</ele>
        <time>2021-07-01T18:29:40Z</time>
      </trkpt>
      <trkpt lat="44.63774" lon="-1.02813">
        <ele>5.42</ele>
        <time>2021-07-01T18:29:51Z</time>
      </trkpt>
      <trkpt lat="44.63825" lon="-1.03137">
        <ele>5.91</ele>
        <time>2021-07-01T18:30:04Z</time>
      </trkpt>
      <trkpt lat="44.63871" lon="-1.03428">
        <ele>5.91</ele>
        <time>2021-07-01T18:30:17Z</time>
      </trkpt>
      <trkpt lat="44.63912" lon="-1.03671">
        <ele>6.87</ele>
        <time>2021-07-01T18:30:29Z</time>
      </trkpt>
      <trkpt lat="44.63956" lon="-1.03945">
        <ele>6.87</ele>
        <time>2021-07-01T18:30:43Z</time>
      </trkpt>
      <trkpt lat="44.63987" lon="-1.04221">
        <ele>4.94</ele>
        <time>2021-07-01T18:30:57Z</time>
      </trkpt>
      <trkpt lat="44.64014" lon="-1.04452">
        <ele>7.35</ele>
        <time>2021-07-01T18:31:10Z</time>
      </trkpt>
      <trkpt lat="44.64056" lon="-1.04707">
        <ele>3.02</ele>
        <time>2021-07-01T18:31:25Z</time>
      </trkpt>
      <trkpt lat="44.64056" lon="-1.04895">
        <ele>2.06</ele>
        <time>2021-07-01T18:31:38Z</time>
      </trkpt>
      <trkpt lat="44.64024" lon="-1.0517">
        <ele>2.54</ele>
        <time>2021-07-01T18:31:55Z</time>
      </trkpt>
      <trkpt lat="44.64002" lon="-1.05286">
        <ele>3.02</ele>
        <time>2021-07-01T18:32:05Z</time>
      </trkpt>
      <trkpt lat="44.64002" lon="-1.05299">
        <ele>1.58</ele>
        <time>2021-07-01T18:32:16Z</time>
      </trkpt>
      <trkpt lat="44.64006" lon="-1.05314">
        <ele>1.58</ele>
        <time>2021-07-01T18:32:17Z</time>
      </trkpt>
      <trkpt lat="44.64006" lon="-1.05314">
        <ele>1.58</ele>
        <time>2021-07-01T18:32:18Z</time>
      </trkpt>
      <trkpt lat="44.64005" lon="-1.0532">
        <ele>1.58</ele>
        <time>2021-07-01T18:32:19Z</time>
      </trkpt>
      <trkpt lat="44.63993" lon="-1.05334">
        <ele>1.58</ele>
        <time>2021-07-01T18:32:21Z</time>
      </trkpt>
      <trkpt lat="44.63991" lon="-1.05344">
        <ele>1.58</ele>
        <time>2021-07-01T18:32:22Z</time>
      </trkpt>
      <trkpt lat="44.63961" lon="-1.05514">
        <ele>1.58</ele>
        <time>2021-07-01T18:32:34Z</time>
      </trkpt>
      <trkpt lat="44.63946" lon="-1.05611">
        <ele>0.62</ele>
        <time>2021-07-01T18:32:40Z</time>
      </trkpt>
      <trkpt lat="44.63943" lon="-1.05643">
        <ele>-0.34</ele>
        <time>2021-07-01T18:32:41Z</time>
      </trkpt>
      <trkpt lat="44.63947" lon="-1.05782">
        <ele>-0.82</ele>
        <time>2021-07-01T18:32:53Z</time>
      </trkpt>
      <trkpt lat="44.63951" lon="-1.0592">
        <ele>0.14</ele>
        <time>2021-07-01T18:33:06Z</time>
      </trkpt>
      <trkpt lat="44.63951" lon="-1.0593">
        <ele>0.14</ele>
        <time>2021-07-01T18:33:07Z</time>
      </trkpt>
      <trkpt lat="44.6395" lon="-1.05941">
        <ele>0.14</ele>
        <time>2021-07-01T18:33:08Z</time>
      </trkpt>
      <trkpt lat="44.63936" lon="-1.06067">
        <ele>1.1</ele>
        <time>2021-07-01T18:33:21Z</time>
      </trkpt>
      <trkpt lat="44.63925" lon="-1.06124">
        <ele>2.06</ele>
        <time>2021-07-01T18:33:32Z</time>
      </trkpt>
      <trkpt lat="44.63918" lon="-1.06165">
        <ele>3.02</ele>
        <time>2021-07-01T18:33:43Z</time>
      </trkpt>
      <trkpt lat="44.63907" lon="-1.06202">
        <ele>3.5</ele>
        <time>2021-07-01T18:33:49Z</time>
      </trkpt>
      <trkpt lat="44.63878" lon="-1.06294">
        <ele>3.5</ele>
        <time>2021-07-01T18:34:02Z</time>
      </trkpt>
      <trkpt lat="44.63852" lon="-1.06394">
        <ele>3.5</ele>
        <time>2021-07-01T18:34:16Z</time>
      </trkpt>
      <trkpt lat="44.63826" lon="-1.06493">
        <ele>3.98</ele>
        <time>2021-07-01T18:34:25Z</time>
      </trkpt>
      <trkpt lat="44.63759" lon="-1.06706">
        <ele>2.54</ele>
        <time>2021-07-01T18:34:41Z</time>
      </trkpt>
      <trkpt lat="44.63677" lon="-1.06929">
        <ele>1.58</ele>
        <time>2021-07-01T18:34:58Z</time>
      </trkpt>
      <trkpt lat="44.63664" lon="-1.07007">
        <ele>0.62</ele>
        <time>2021-07-01T18:35:06Z</time>
      </trkpt>
      <trkpt lat="44.63658" lon="-1.07086">
        <ele>0.14</ele>
        <time>2021-07-01T18:35:16Z</time>
      </trkpt>
      <trkpt lat="44.63652" lon="-1.07164">
        <ele>-0.34</ele>
        <time>2021-07-01T18:35:28Z</time>
      </trkpt>
      <trkpt lat="44.63647" lon="-1.07191">
        <ele>-0.34</ele>
        <time>2021-07-01T18:35:32Z</time>
      </trkpt>
      <trkpt lat="44.63647" lon="-1.07191">
        <ele>0.14</ele>
        <time>2021-07-01T18:35:33Z</time>
      </trkpt>
      <trkpt lat="44.63646" lon="-1.07197">
        <ele>-0.34</ele>
        <time>2021-07-01T18:35:34Z</time>
      </trkpt>
      <trkpt lat="44.63644" lon="-1.072">
        <ele>-0.34</ele>
        <time>2021-07-01T18:35:35Z</time>
      </trkpt>
      <trkpt lat="44.63641" lon="-1.07205">
        <ele>-0.34</ele>
        <time>2021-07-01T18:35:36Z</time>
      </trkpt>
      <trkpt lat="44.63635" lon="-1.07213">
        <ele>-0.34</ele>
        <time>2021-07-01T18:35:37Z</time>
      </trkpt>
      <trkpt lat="44.63635" lon="-1.07213">
        <ele>0.14</ele>
        <time>2021-07-01T18:35:38Z</time>
      </trkpt>
      <trkpt lat="44.63606" lon="-1.07251">
        <ele>0.14</ele>
        <time>2021-07-01T18:35:48Z</time>
      </trkpt>
      <trkpt lat="44.63599" lon="-1.07261">
        <ele>0.14</ele>
        <time>2021-07-01T18:35:49Z</time>
      </trkpt>
      <trkpt lat="44.63599" lon="-1.07261">
        <ele>0.14</ele>
        <time>2021-07-01T18:35:50Z</time>
      </trkpt>
      <trkpt lat="44.63601" lon="-1.07271">
        <ele>-0.34</ele>
        <time>2021-07-01T18:35:51Z</time>
      </trkpt>
      <trkpt lat="44.63601" lon="-1.07276">
        <ele>-0.34</ele>
        <time>2021-07-01T18:35:52Z</time>
      </trkpt>
      <trkpt lat="44.63593" lon="-1.07292">
        <ele>-0.34</ele>
        <time>2021-07-01T18:35:53Z</time>
      </trkpt>
      <trkpt lat="44.63595" lon="-1.07301">
        <ele>-0.34</ele>
        <time>2021-07-01T18:35:54Z</time>
      </trkpt>
      <trkpt lat="44.63597" lon="-1.0731">
        <ele>-0.34</ele>
        <time>2021-07-01T18:35:55Z</time>
      </trkpt>
      <trkpt lat="44.63608" lon="-1.07427">
        <ele>-0.82</ele>
        <time>2021-07-01T18:36:09Z</time>
      </trkpt>
      <trkpt lat="44.63614" lon="-1.07438">
        <ele>-0.82</ele>
        <time>2021-07-01T18:36:11Z</time>
      </trkpt>
      <trkpt lat="44.63614" lon="-1.07443">
        <ele>-0.82</ele>
        <time>2021-07-01T18:36:12Z</time>
      </trkpt>
      <trkpt lat="44.63614" lon="-1.07447">
        <ele>-0.82</ele>
        <time>2021-07-01T18:36:13Z</time>
      </trkpt>
      <trkpt lat="44.63608" lon="-1.07456">
        <ele>-0.82</ele>
        <time>2021-07-01T18:36:14Z</time>
      </trkpt>
      <trkpt lat="44.63608" lon="-1.07462">
        <ele>-0.82</ele>
        <time>2021-07-01T18:36:15Z</time>
      </trkpt>
      <trkpt lat="44.63609" lon="-1.07468">
        <ele>-0.34</ele>
        <time>2021-07-01T18:36:16Z</time>
      </trkpt>
      <trkpt lat="44.63615" lon="-1.07571">
        <ele>-0.34</ele>
        <time>2021-07-01T18:36:28Z</time>
      </trkpt>
      <trkpt lat="44.63623" lon="-1.07712">
        <ele>-0.34</ele>
        <time>2021-07-01T18:36:44Z</time>
      </trkpt>
      <trkpt lat="44.63642" lon="-1.07855">
        <ele>-0.34</ele>
        <time>2021-07-01T18:36:59Z</time>
      </trkpt>
      <trkpt lat="44.6365" lon="-1.07926">
        <ele>-0.34</ele>
        <time>2021-07-01T18:37:08Z</time>
      </trkpt>
      <trkpt lat="44.6365" lon="-1.07926">
        <ele>-0.34</ele>
        <time>2021-07-01T18:37:09Z</time>
      </trkpt>
      <trkpt lat="44.63649" lon="-1.07933">
        <ele>-0.34</ele>
        <time>2021-07-01T18:37:10Z</time>
      </trkpt>
      <trkpt lat="44.63628" lon="-1.08054">
        <ele>0.14</ele>
        <time>2021-07-01T18:37:24Z</time>
      </trkpt>
      <trkpt lat="44.63617" lon="-1.0815">
        <ele>0.14</ele>
        <time>2021-07-01T18:37:38Z</time>
      </trkpt>
      <trkpt lat="44.63627" lon="-1.08249">
        <ele>0.14</ele>
        <time>2021-07-01T18:37:53Z</time>
      </trkpt>
      <trkpt lat="44.63644" lon="-1.084">
        <ele>-0.34</ele>
        <time>2021-07-01T18:38:08Z</time>
      </trkpt>
      <trkpt lat="44.63648" lon="-1.08597">
        <ele>-0.82</ele>
        <time>2021-07-01T18:38:22Z</time>
      </trkpt>
      <trkpt lat="44.63651" lon="-1.08934">
        <ele>-1.3</ele>
        <time>2021-07-01T18:38:42Z</time>
      </trkpt>
      <trkpt lat="44.63633" lon="-1.09104">
        <ele>0.14</ele>
        <time>2021-07-01T18:38:52Z</time>
      </trkpt>
      <trkpt lat="44.63627" lon="-1.09285">
        <ele>-1.3</ele>
        <time>2021-07-01T18:39:02Z</time>
      </trkpt>
      <trkpt lat="44.63646" lon="-1.09544">
        <ele>-1.79</ele>
        <time>2021-07-01T18:39:20Z</time>
      </trkpt>
      <trkpt lat="44.63653" lon="-1.09619">
        <ele>-1.3</ele>
        <time>2021-07-01T18:39:28Z</time>
      </trkpt>
      <trkpt lat="44.63665" lon="-1.09743">
        <ele>-1.3</ele>
        <time>2021-07-01T18:39:41Z</time>
      </trkpt>
      <trkpt lat="44.63693" lon="-1.09897">
        <ele>-0.82</ele>
        <time>2021-07-01T18:39:56Z</time>
      </trkpt>
      <trkpt lat="44.63715" lon="-1.10005">
        <ele>-0.82</ele>
        <time>2021-07-01T18:40:07Z</time>
      </trkpt>
      <trkpt lat="44.63728" lon="-1.10093">
        <ele>-0.82</ele>
        <time>2021-07-01T18:40:19Z</time>
      </trkpt>
      <trkpt lat="44.63731" lon="-1.1012">
        <ele>-0.82</ele>
        <time>2021-07-01T18:40:28Z</time>
      </trkpt>
      <trkpt lat="44.63742" lon="-1.10203">
        <ele>-0.82</ele>
        <time>2021-07-01T18:40:37Z</time>
      </trkpt>
      <trkpt lat="44.63752" lon="-1.10355">
        <ele>-0.34</ele>
        <time>2021-07-01T18:40:49Z</time>
      </trkpt>
      <trkpt lat="44.63752" lon="-1.10558">
        <ele>-0.82</ele>
        <time>2021-07-01T18:41:05Z</time>
      </trkpt>
      <trkpt lat="44.63752" lon="-1.10597">
        <ele>-1.3</ele>
        <time>2021-07-01T18:41:13Z</time>
      </trkpt>
      <trkpt lat="44.63754" lon="-1.10687">
        <ele>-0.82</ele>
        <time>2021-07-01T18:41:23Z</time>
      </trkpt>
      <trkpt lat="44.63766" lon="-1.10885">
        <ele>-1.79</ele>
        <time>2021-07-01T18:41:37Z</time>
      </trkpt>
      <trkpt lat="44.63775" lon="-1.10988">
        <ele>-1.79</ele>
        <time>2021-07-01T18:41:46Z</time>
      </trkpt>
      <trkpt lat="44.63798" lon="-1.11137">
        <ele>-0.82</ele>
        <time>2021-07-01T18:42:00Z</time>
      </trkpt>
      <trkpt lat="44.63816" lon="-1.11219">
        <ele>-0.34</ele>
        <time>2021-07-01T18:42:10Z</time>
      </trkpt>
      <trkpt lat="44.63838" lon="-1.11279">
        <ele>-0.82</ele>
        <time>2021-07-01T18:42:20Z</time>
      </trkpt>
      <trkpt lat="44.6384" lon="-1.11282">
        <ele>-1.3</ele>
        <time>2021-07-01T18:42:21Z</time>
      </trkpt>
      <trkpt lat="44.6384" lon="-1.11282">
        <ele>-1.3</ele>
        <time>2021-07-01T18:42:22Z</time>
      </trkpt>
      <trkpt lat="44.63847" lon="-1.11284">
        <ele>-1.3</ele>
        <time>2021-07-01T18:42:23Z</time>
      </trkpt>
      <trkpt lat="44.63851" lon="-1.11288">
        <ele>-1.3</ele>
        <time>2021-07-01T18:42:24Z</time>
      </trkpt>
      <trkpt lat="44.63862" lon="-1.11294">
        <ele>-1.3</ele>
        <time>2021-07-01T18:42:27Z</time>
      </trkpt>
      <trkpt lat="44.63945" lon="-1.11329">
        <ele>-0.82</ele>
        <time>2021-07-01T18:42:38Z</time>
      </trkpt>
      <trkpt lat="44.64036" lon="-1.11363">
        <ele>0.62</ele>
        <time>2021-07-01T18:42:50Z</time>
      </trkpt>
      <trkpt lat="44.64109" lon="-1.11372">
        <ele>-0.34</ele>
        <time>2021-07-01T18:43:02Z</time>
      </trkpt>
      <trkpt lat="44.64223" lon="-1.11377">
        <ele>-1.3</ele>
        <time>2021-07-01T18:43:18Z</time>
      </trkpt>
      <trkpt lat="44.64292" lon="-1.1139">
        <ele>-0.82</ele>
        <time>2021-07-01T18:43:28Z</time>
      </trkpt>
      <trkpt lat="44.64298" lon="-1.11391">
        <ele>-0.82</ele>
        <time>2021-07-01T18:43:29Z</time>
      </trkpt>
      <trkpt lat="44.64303" lon="-1.11392">
        <ele>-0.34</ele>
        <time>2021-07-01T18:43:30Z</time>
      </trkpt>
      <trkpt lat="44.64307" lon="-1.11393">
        <ele>-0.34</ele>
        <time>2021-07-01T18:43:31Z</time>
      </trkpt>
      <trkpt lat="44.64309" lon="-1.11397">
        <ele>-0.34</ele>
        <time>2021-07-01T18:43:32Z</time>
      </trkpt>
      <trkpt lat="44.64313" lon="-1.11409">
        <ele>-0.34</ele>
        <time>2021-07-01T18:43:33Z</time>
      </trkpt>
      <trkpt lat="44.64315" lon="-1.11415">
        <ele>-0.34</ele>
        <time>2021-07-01T18:43:34Z</time>
      </trkpt>
      <trkpt lat="44.64315" lon="-1.11415">
        <ele>-0.82</ele>
        <time>2021-07-01T18:43:35Z</time>
      </trkpt>
      <trkpt lat="44.64341" lon="-1.11511">
        <ele>-1.3</ele>
        <time>2021-07-01T18:43:48Z</time>
      </trkpt>
      <trkpt lat="44.64377" lon="-1.11581">
        <ele>-0.34</ele>
        <time>2021-07-01T18:43:59Z</time>
      </trkpt>
      <trkpt lat="44.64395" lon="-1.11625">
        <ele>-0.82</ele>
        <time>2021-07-01T18:44:09Z</time>
      </trkpt>
      <trkpt lat="44.64376" lon="-1.11637">
        <ele>-0.82</ele>
        <time>2021-07-01T18:44:17Z</time>
      </trkpt>
      <trkpt lat="44.64322" lon="-1.11636">
        <ele>-1.3</ele>
        <time>2021-07-01T18:44:31Z</time>
      </trkpt>
      <trkpt lat="44.64319" lon="-1.11636">
        <ele>-1.3</ele>
        <time>2021-07-01T18:44:32Z</time>
      </trkpt>
      <trkpt lat="44.64317" lon="-1.11636">
        <ele>-1.3</ele>
        <time>2021-07-01T18:44:33Z</time>
      </trkpt>
      <trkpt lat="44.64316" lon="-1.11636">
        <ele>-1.3</ele>
        <time>2021-07-01T18:44:49Z</time>
      </trkpt>
      <trkpt lat="44.64321" lon="-1.11638">
        <ele>3.02</ele>
        <time>2021-07-01T18:47:44Z</time>
      </trkpt>
      <trkpt lat="44.64317" lon="-1.11624">
        <ele>-0.34</ele>
        <time>2021-07-01T18:48:56Z</time>
      </trkpt>
      <trkpt lat="44.64317" lon="-1.11625">
        <ele>-0.82</ele>
        <time>2021-07-01T18:53:22Z</time>
      </trkpt>
      <trkpt lat="44.64317" lon="-1.11625">
        <ele>-0.82</ele>
        <time>2021-07-01T18:55:11Z</time>
      </trkpt>
      <trkpt lat="44.6432" lon="-1.11631">
        <ele>-1.3</ele>
        <time>2021-07-01T18:55:27Z</time>
      </trkpt>
      <trkpt lat="44.64321" lon="-1.11632">
        <ele>-1.3</ele>
        <time>2021-07-01T18:55:30Z</time>
      </trkpt>
      <trkpt lat="44.64281" lon="-1.11636">
        <ele>-1.3</ele>
        <time>2021-07-01T18:55:45Z</time>
      </trkpt>
      <trkpt lat="44.64218" lon="-1.11655">
        <ele>-1.79</ele>
        <time>2021-07-01T18:56:02Z</time>
      </trkpt>
      <trkpt lat="44.6412" lon="-1.11692">
        <ele>-2.27</ele>
        <time>2021-07-01T18:56:25Z</time>
      </trkpt>
      <trkpt lat="44.6405" lon="-1.11719">
        <ele>-1.79</ele>
        <time>2021-07-01T18:56:41Z</time>
      </trkpt>
      <trkpt lat="44.64048" lon="-1.11719">
        <ele>-1.79</ele>
        <time>2021-07-01T18:56:42Z</time>
      </trkpt>
      <trkpt lat="44.64045" lon="-1.11713">
        <ele>-1.79</ele>
        <time>2021-07-01T18:56:43Z</time>
      </trkpt>
      <trkpt lat="44.64028" lon="-1.11676">
        <ele>-1.79</ele>
        <time>2021-07-01T18:56:48Z</time>
      </trkpt>
      <trkpt lat="44.64025" lon="-1.1167">
        <ele>-1.79</ele>
        <time>2021-07-01T18:56:49Z</time>
      </trkpt>
      <trkpt lat="44.64023" lon="-1.11656">
        <ele>-1.79</ele>
        <time>2021-07-01T18:56:50Z</time>
      </trkpt>
      <trkpt lat="44.64023" lon="-1.11656">
        <ele>-2.27</ele>
        <time>2021-07-01T18:56:51Z</time>
      </trkpt>
      <trkpt lat="44.64025" lon="-1.11651">
        <ele>-2.75</ele>
        <time>2021-07-01T18:56:52Z</time>
      </trkpt>
      <trkpt lat="44.64029" lon="-1.11645">
        <ele>-3.23</ele>
        <time>2021-07-01T18:56:53Z</time>
      </trkpt>
      <trkpt lat="44.64071" lon="-1.116">
        <ele>-4.19</ele>
        <time>2021-07-01T18:57:01Z</time>
      </trkpt>
      <trkpt lat="44.64074" lon="-1.11596">
        <ele>-4.67</ele>
        <time>2021-07-01T18:57:02Z</time>
      </trkpt>
      <trkpt lat="44.64075" lon="-1.11585">
        <ele>-4.67</ele>
        <time>2021-07-01T18:57:03Z</time>
      </trkpt>
      <trkpt lat="44.6407" lon="-1.11536">
        <ele>-4.19</ele>
        <time>2021-07-01T18:57:09Z</time>
      </trkpt>
      <trkpt lat="44.64069" lon="-1.11527">
        <ele>-4.19</ele>
        <time>2021-07-01T18:57:10Z</time>
      </trkpt>
      <trkpt lat="44.64069" lon="-1.11518">
        <ele>-4.19</ele>
        <time>2021-07-01T18:57:11Z</time>
      </trkpt>
      <trkpt lat="44.64069" lon="-1.11509">
        <ele>-4.19</ele>
        <time>2021-07-01T18:57:12Z</time>
      </trkpt>
      <trkpt lat="44.64071" lon="-1.11499">
        <ele>-3.71</ele>
        <time>2021-07-01T18:57:13Z</time>
      </trkpt>
      <trkpt lat="44.64075" lon="-1.11494">
        <ele>-3.71</ele>
        <time>2021-07-01T18:57:14Z</time>
      </trkpt>
      <trkpt lat="44.64078" lon="-1.1149">
        <ele>-3.23</ele>
        <time>2021-07-01T18:57:15Z</time>
      </trkpt>
      <trkpt lat="44.64082" lon="-1.1149">
        <ele>-3.23</ele>
        <time>2021-07-01T18:57:16Z</time>
      </trkpt>
      <trkpt lat="44.64088" lon="-1.1149">
        <ele>-3.23</ele>
        <time>2021-07-01T18:57:17Z</time>
      </trkpt>
      <trkpt lat="44.64094" lon="-1.1149">
        <ele>-3.23</ele>
        <time>2021-07-01T18:57:18Z</time>
      </trkpt>
      <trkpt lat="44.64152" lon="-1.11492">
        <ele>-3.71</ele>
        <time>2021-07-01T18:57:27Z</time>
      </trkpt>
      <trkpt lat="44.64157" lon="-1.11492">
        <ele>-3.71</ele>
        <time>2021-07-01T18:57:28Z</time>
      </trkpt>
      <trkpt lat="44.64161" lon="-1.11492">
        <ele>-3.71</ele>
        <time>2021-07-01T18:57:29Z</time>
      </trkpt>
      <trkpt lat="44.64166" lon="-1.11489">
        <ele>-3.71</ele>
        <time>2021-07-01T18:57:30Z</time>
      </trkpt>
      <trkpt lat="44.64167" lon="-1.11483">
        <ele>-3.71</ele>
        <time>2021-07-01T18:57:31Z</time>
      </trkpt>
      <trkpt lat="44.64168" lon="-1.11477">
        <ele>-3.71</ele>
        <time>2021-07-01T18:57:32Z</time>
      </trkpt>
      <trkpt lat="44.64182" lon="-1.11396">
        <ele>-2.27</ele>
        <time>2021-07-01T18:57:43Z</time>
      </trkpt>
      <trkpt lat="44.64183" lon="-1.11388">
        <ele>-1.79</ele>
        <time>2021-07-01T18:57:46Z</time>
      </trkpt>
      <trkpt lat="44.64176" lon="-1.11376">
        <ele>-1.79</ele>
        <time>2021-07-01T18:57:47Z</time>
      </trkpt>
      <trkpt lat="44.64173" lon="-1.11376">
        <ele>-1.79</ele>
        <time>2021-07-01T18:57:48Z</time>
      </trkpt>
      <trkpt lat="44.64108" lon="-1.11372">
        <ele>-0.82</ele>
        <time>2021-07-01T18:58:00Z</time>
      </trkpt>
      <trkpt lat="44.6404" lon="-1.11364">
        <ele>0.14</ele>
        <time>2021-07-01T18:58:13Z</time>
      </trkpt>
      <trkpt lat="44.63969" lon="-1.11341">
        <ele>0.14</ele>
        <time>2021-07-01T18:58:24Z</time>
      </trkpt>
      <trkpt lat="44.63858" lon="-1.11292">
        <ele>1.58</ele>
        <time>2021-07-01T18:58:41Z</time>
      </trkpt>
      <trkpt lat="44.63853" lon="-1.1129">
        <ele>1.58</ele>
        <time>2021-07-01T18:58:46Z</time>
      </trkpt>
      <trkpt lat="44.63853" lon="-1.1129">
        <ele>1.58</ele>
        <time>2021-07-01T18:58:47Z</time>
      </trkpt>
      <trkpt lat="44.63852" lon="-1.11292">
        <ele>1.1</ele>
        <time>2021-07-01T18:58:48Z</time>
      </trkpt>
      <trkpt lat="44.63846" lon="-1.11301">
        <ele>1.1</ele>
        <time>2021-07-01T18:58:49Z</time>
      </trkpt>
      <trkpt lat="44.63846" lon="-1.11301">
        <ele>1.1</ele>
        <time>2021-07-01T18:58:50Z</time>
      </trkpt>
      <trkpt lat="44.63848" lon="-1.11306">
        <ele>1.1</ele>
        <time>2021-07-01T18:58:51Z</time>
      </trkpt>
      <trkpt lat="44.6385" lon="-1.11312">
        <ele>1.1</ele>
        <time>2021-07-01T18:58:52Z</time>
      </trkpt>
      <trkpt lat="44.6388" lon="-1.114">
        <ele>-0.82</ele>
        <time>2021-07-01T18:59:02Z</time>
      </trkpt>
      <trkpt lat="44.63919" lon="-1.11523">
        <ele>-2.27</ele>
        <time>2021-07-01T18:59:15Z</time>
      </trkpt>
      <trkpt lat="44.63928" lon="-1.11553">
        <ele>-3.23</ele>
        <time>2021-07-01T18:59:25Z</time>
      </trkpt>
      <trkpt lat="44.63947" lon="-1.11597">
        <ele>-3.23</ele>
        <time>2021-07-01T18:59:31Z</time>
      </trkpt>
      <trkpt lat="44.63966" lon="-1.11679">
        <ele>-4.19</ele>
        <time>2021-07-01T18:59:40Z</time>
      </trkpt>
      <trkpt lat="44.63969" lon="-1.11689">
        <ele>-4.67</ele>
        <time>2021-07-01T18:59:41Z</time>
      </trkpt>
      <trkpt lat="44.6397" lon="-1.11701">
        <ele>-4.67</ele>
        <time>2021-07-01T18:59:42Z</time>
      </trkpt>
      <trkpt lat="44.6397" lon="-1.11712">
        <ele>-5.15</ele>
        <time>2021-07-01T18:59:43Z</time>
      </trkpt>
      <trkpt lat="44.63966" lon="-1.11739">
        <ele>-5.63</ele>
        <time>2021-07-01T18:59:44Z</time>
      </trkpt>
      <trkpt lat="44.63966" lon="-1.11739">
        <ele>-7.07</ele>
        <time>2021-07-01T18:59:45Z</time>
      </trkpt>
      <trkpt lat="44.63963" lon="-1.11753">
        <ele>-7.07</ele>
        <time>2021-07-01T18:59:46Z</time>
      </trkpt>
      <trkpt lat="44.63914" lon="-1.11986">
        <ele>-6.11</ele>
        <time>2021-07-01T19:00:02Z</time>
      </trkpt>
      <trkpt lat="44.63873" lon="-1.12129">
        <ele>-4.67</ele>
        <time>2021-07-01T19:00:13Z</time>
      </trkpt>
      <trkpt lat="44.6387" lon="-1.1214">
        <ele>-5.15</ele>
        <time>2021-07-01T19:00:14Z</time>
      </trkpt>
      <trkpt lat="44.63868" lon="-1.12146">
        <ele>-5.15</ele>
        <time>2021-07-01T19:00:15Z</time>
      </trkpt>
      <trkpt lat="44.63872" lon="-1.1216">
        <ele>-5.15</ele>
        <time>2021-07-01T19:00:16Z</time>
      </trkpt>
      <trkpt lat="44.63869" lon="-1.12172">
        <ele>-4.67</ele>
        <time>2021-07-01T19:00:17Z</time>
      </trkpt>
      <trkpt lat="44.63868" lon="-1.12174">
        <ele>-4.19</ele>
        <time>2021-07-01T19:00:18Z</time>
      </trkpt>
      <trkpt lat="44.63856" lon="-1.12183">
        <ele>-4.67</ele>
        <time>2021-07-01T19:00:19Z</time>
      </trkpt>
      <trkpt lat="44.63854" lon="-1.12192">
        <ele>-5.15</ele>
        <time>2021-07-01T19:00:20Z</time>
      </trkpt>
      <trkpt lat="44.63807" lon="-1.12336">
        <ele>-5.63</ele>
        <time>2021-07-01T19:00:31Z</time>
      </trkpt>
      <trkpt lat="44.63752" lon="-1.12511">
        <ele>-4.67</ele>
        <time>2021-07-01T19:00:45Z</time>
      </trkpt>
      <trkpt lat="44.63735" lon="-1.12582">
        <ele>-5.15</ele>
        <time>2021-07-01T19:00:53Z</time>
      </trkpt>
      <trkpt lat="44.63721" lon="-1.1272">
        <ele>-5.63</ele>
        <time>2021-07-01T19:01:04Z</time>
      </trkpt>
      <trkpt lat="44.63715" lon="-1.12816">
        <ele>-5.63</ele>
        <time>2021-07-01T19:01:15Z</time>
      </trkpt>
      <trkpt lat="44.6372" lon="-1.12885">
        <ele>-5.63</ele>
        <time>2021-07-01T19:01:26Z</time>
      </trkpt>
      <trkpt lat="44.63722" lon="-1.12891">
        <ele>-5.63</ele>
        <time>2021-07-01T19:01:27Z</time>
      </trkpt>
      <trkpt lat="44.63712" lon="-1.12909">
        <ele>-5.63</ele>
        <time>2021-07-01T19:01:29Z</time>
      </trkpt>
      <trkpt lat="44.637" lon="-1.13029">
        <ele>-5.15</ele>
        <time>2021-07-01T19:01:43Z</time>
      </trkpt>
      <trkpt lat="44.63704" lon="-1.13047">
        <ele>-5.15</ele>
        <time>2021-07-01T19:01:44Z</time>
      </trkpt>
      <trkpt lat="44.63707" lon="-1.13051">
        <ele>-5.15</ele>
        <time>2021-07-01T19:01:46Z</time>
      </trkpt>
      <trkpt lat="44.63709" lon="-1.13064">
        <ele>-5.15</ele>
        <time>2021-07-01T19:01:47Z</time>
      </trkpt>
      <trkpt lat="44.63701" lon="-1.13083">
        <ele>-4.67</ele>
        <time>2021-07-01T19:01:49Z</time>
      </trkpt>
      <trkpt lat="44.63701" lon="-1.13218">
        <ele>-4.19</ele>
        <time>2021-07-01T19:01:58Z</time>
      </trkpt>
      <trkpt lat="44.63709" lon="-1.13285">
        <ele>-1.3</ele>
        <time>2021-07-01T19:02:02Z</time>
      </trkpt>
      <trkpt lat="44.63713" lon="-1.13302">
        <ele>0.14</ele>
        <time>2021-07-01T19:02:03Z</time>
      </trkpt>
      <trkpt lat="44.63725" lon="-1.13332">
        <ele>1.1</ele>
        <time>2021-07-01T19:02:05Z</time>
      </trkpt>
      <trkpt lat="44.63733" lon="-1.13348">
        <ele>-0.34</ele>
        <time>2021-07-01T19:02:06Z</time>
      </trkpt>
      <trkpt lat="44.63741" lon="-1.13364">
        <ele>-1.3</ele>
        <time>2021-07-01T19:02:07Z</time>
      </trkpt>
      <trkpt lat="44.63837" lon="-1.1354">
        <ele>-1.3</ele>
        <time>2021-07-01T19:02:19Z</time>
      </trkpt>
      <trkpt lat="44.63868" lon="-1.13624">
        <ele>-3.71</ele>
        <time>2021-07-01T19:02:24Z</time>
      </trkpt>
      <trkpt lat="44.63872" lon="-1.13643">
        <ele>-2.75</ele>
        <time>2021-07-01T19:02:25Z</time>
      </trkpt>
      <trkpt lat="44.63876" lon="-1.13659">
        <ele>-2.75</ele>
        <time>2021-07-01T19:02:26Z</time>
      </trkpt>
      <trkpt lat="44.63874" lon="-1.13845">
        <ele>-3.71</ele>
        <time>2021-07-01T19:02:37Z</time>
      </trkpt>
      <trkpt lat="44.63874" lon="-1.1388">
        <ele>-5.63</ele>
        <time>2021-07-01T19:02:40Z</time>
      </trkpt>
      <trkpt lat="44.63874" lon="-1.1389">
        <ele>-4.67</ele>
        <time>2021-07-01T19:02:41Z</time>
      </trkpt>
      <trkpt lat="44.63879" lon="-1.13898">
        <ele>-4.67</ele>
        <time>2021-07-01T19:02:42Z</time>
      </trkpt>
      <trkpt lat="44.63882" lon="-1.13906">
        <ele>-4.67</ele>
        <time>2021-07-01T19:02:43Z</time>
      </trkpt>
      <trkpt lat="44.63874" lon="-1.13919">
        <ele>-4.67</ele>
        <time>2021-07-01T19:02:44Z</time>
      </trkpt>
      <trkpt lat="44.63874" lon="-1.13923">
        <ele>-4.19</ele>
        <time>2021-07-01T19:02:45Z</time>
      </trkpt>
      <trkpt lat="44.63873" lon="-1.13931">
        <ele>-4.19</ele>
        <time>2021-07-01T19:02:46Z</time>
      </trkpt>
      <trkpt lat="44.63858" lon="-1.14031">
        <ele>-0.82</ele>
        <time>2021-07-01T19:02:54Z</time>
      </trkpt>
      <trkpt lat="44.63804" lon="-1.14185">
        <ele>-0.82</ele>
        <time>2021-07-01T19:03:06Z</time>
      </trkpt>
      <trkpt lat="44.63783" lon="-1.14288">
        <ele>-4.19</ele>
        <time>2021-07-01T19:03:15Z</time>
      </trkpt>
      <trkpt lat="44.63782" lon="-1.14309">
        <ele>-4.19</ele>
        <time>2021-07-01T19:03:17Z</time>
      </trkpt>
      <trkpt lat="44.63782" lon="-1.14309">
        <ele>-4.19</ele>
        <time>2021-07-01T19:03:18Z</time>
      </trkpt>
      <trkpt lat="44.63785" lon="-1.1432">
        <ele>-3.71</ele>
        <time>2021-07-01T19:03:19Z</time>
      </trkpt>
      <trkpt lat="44.63788" lon="-1.14323">
        <ele>-3.71</ele>
        <time>2021-07-01T19:03:20Z</time>
      </trkpt>
      <trkpt lat="44.63788" lon="-1.14323">
        <ele>-3.71</ele>
        <time>2021-07-01T19:03:21Z</time>
      </trkpt>
      <trkpt lat="44.6379" lon="-1.14326">
        <ele>-3.71</ele>
        <time>2021-07-01T19:03:22Z</time>
      </trkpt>
      <trkpt lat="44.63791" lon="-1.14333">
        <ele>-3.71</ele>
        <time>2021-07-01T19:03:23Z</time>
      </trkpt>
      <trkpt lat="44.63791" lon="-1.14333">
        <ele>-4.19</ele>
        <time>2021-07-01T19:03:24Z</time>
      </trkpt>
      <trkpt lat="44.63791" lon="-1.14336">
        <ele>-4.67</ele>
        <time>2021-07-01T19:03:25Z</time>
      </trkpt>
      <trkpt lat="44.6379" lon="-1.14337">
        <ele>-4.67</ele>
        <time>2021-07-01T19:03:26Z</time>
      </trkpt>
      <trkpt lat="44.6379" lon="-1.14337">
        <ele>-4.67</ele>
        <time>2021-07-01T19:03:27Z</time>
      </trkpt>
      <trkpt lat="44.63785" lon="-1.14351">
        <ele>-5.15</ele>
        <time>2021-07-01T19:03:29Z</time>
      </trkpt>
      <trkpt lat="44.63785" lon="-1.14356">
        <ele>-5.15</ele>
        <time>2021-07-01T19:03:30Z</time>
      </trkpt>
      <trkpt lat="44.63786" lon="-1.14361">
        <ele>-4.67</ele>
        <time>2021-07-01T19:03:31Z</time>
      </trkpt>
      <trkpt lat="44.63787" lon="-1.14367">
        <ele>-4.67</ele>
        <time>2021-07-01T19:03:32Z</time>
      </trkpt>
      <trkpt lat="44.63788" lon="-1.14373">
        <ele>-4.67</ele>
        <time>2021-07-01T19:03:33Z</time>
      </trkpt>
      <trkpt lat="44.63789" lon="-1.14378">
        <ele>-4.67</ele>
        <time>2021-07-01T19:03:34Z</time>
      </trkpt>
      <trkpt lat="44.63796" lon="-1.1441">
        <ele>-6.11</ele>
        <time>2021-07-01T19:03:44Z</time>
      </trkpt>
      <trkpt lat="44.63802" lon="-1.14428">
        <ele>-5.63</ele>
        <time>2021-07-01T19:03:54Z</time>
      </trkpt>
      <trkpt lat="44.63813" lon="-1.14451">
        <ele>-6.11</ele>
        <time>2021-07-01T19:04:01Z</time>
      </trkpt>
      <trkpt lat="44.63854" lon="-1.14536">
        <ele>-6.59</ele>
        <time>2021-07-01T19:04:14Z</time>
      </trkpt>
      <trkpt lat="44.63909" lon="-1.14655">
        <ele>-5.63</ele>
        <time>2021-07-01T19:04:31Z</time>
      </trkpt>
      <trkpt lat="44.63931" lon="-1.14684">
        <ele>-6.11</ele>
        <time>2021-07-01T19:04:40Z</time>
      </trkpt>
      <trkpt lat="44.63934" lon="-1.14707">
        <ele>-6.59</ele>
        <time>2021-07-01T19:04:43Z</time>
      </trkpt>
      <trkpt lat="44.63941" lon="-1.14722">
        <ele>-6.59</ele>
        <time>2021-07-01T19:04:44Z</time>
      </trkpt>
      <trkpt lat="44.63985" lon="-1.14815">
        <ele>-8.03</ele>
        <time>2021-07-01T19:04:51Z</time>
      </trkpt>
      <trkpt lat="44.64071" lon="-1.14999">
        <ele>-4.19</ele>
        <time>2021-07-01T19:05:02Z</time>
      </trkpt>
      <trkpt lat="44.64212" lon="-1.15294">
        <ele>-6.11</ele>
        <time>2021-07-01T19:05:19Z</time>
      </trkpt>
      <trkpt lat="44.64308" lon="-1.15416">
        <ele>-7.55</ele>
        <time>2021-07-01T19:05:27Z</time>
      </trkpt>
      <trkpt lat="44.64446" lon="-1.15488">
        <ele>-7.07</ele>
        <time>2021-07-01T19:05:36Z</time>
      </trkpt>
      <trkpt lat="44.64592" lon="-1.15475">
        <ele>-6.59</ele>
        <time>2021-07-01T19:05:44Z</time>
      </trkpt>
      <trkpt lat="44.647" lon="-1.15407">
        <ele>-2.75</ele>
        <time>2021-07-01T19:05:52Z</time>
      </trkpt>
      <trkpt lat="44.64752" lon="-1.15348">
        <ele>-4.19</ele>
        <time>2021-07-01T19:05:58Z</time>
      </trkpt>
      <trkpt lat="44.64764" lon="-1.15331">
        <ele>-3.71</ele>
        <time>2021-07-01T19:06:05Z</time>
      </trkpt>
      <trkpt lat="44.64787" lon="-1.15304">
        <ele>-2.75</ele>
        <time>2021-07-01T19:06:16Z</time>
      </trkpt>
      <trkpt lat="44.64793" lon="-1.15297">
        <ele>-3.23</ele>
        <time>2021-07-01T19:06:18Z</time>
      </trkpt>
      <trkpt lat="44.64802" lon="-1.15287">
        <ele>-3.23</ele>
        <time>2021-07-01T19:06:19Z</time>
      </trkpt>
      <trkpt lat="44.64805" lon="-1.1528">
        <ele>-3.23</ele>
        <time>2021-07-01T19:06:21Z</time>
      </trkpt>
      <trkpt lat="44.64808" lon="-1.15271">
        <ele>-3.23</ele>
        <time>2021-07-01T19:06:22Z</time>
      </trkpt>
      <trkpt lat="44.64834" lon="-1.15247">
        <ele>-2.75</ele>
        <time>2021-07-01T19:06:26Z</time>
      </trkpt>
      <trkpt lat="44.64841" lon="-1.15239">
        <ele>-3.23</ele>
        <time>2021-07-01T19:06:27Z</time>
      </trkpt>
      <trkpt lat="44.64919" lon="-1.15123">
        <ele>-3.23</ele>
        <time>2021-07-01T19:06:38Z</time>
      </trkpt>
      <trkpt lat="44.64982" lon="-1.15039">
        <ele>-3.23</ele>
        <time>2021-07-01T19:06:49Z</time>
      </trkpt>
      <trkpt lat="44.64996" lon="-1.15022">
        <ele>-2.75</ele>
        <time>2021-07-01T19:06:56Z</time>
      </trkpt>
      <trkpt lat="44.65006" lon="-1.15007">
        <ele>-2.27</ele>
        <time>2021-07-01T19:07:01Z</time>
      </trkpt>
      <trkpt lat="44.65008" lon="-1.15003">
        <ele>-2.27</ele>
        <time>2021-07-01T19:07:02Z</time>
      </trkpt>
      <trkpt lat="44.65014" lon="-1.14995">
        <ele>-2.27</ele>
        <time>2021-07-01T19:07:04Z</time>
      </trkpt>
      <trkpt lat="44.65015" lon="-1.14989">
        <ele>-2.27</ele>
        <time>2021-07-01T19:07:05Z</time>
      </trkpt>
      <trkpt lat="44.65017" lon="-1.14982">
        <ele>-2.27</ele>
        <time>2021-07-01T19:07:06Z</time>
      </trkpt>
      <trkpt lat="44.65061" lon="-1.14921">
        <ele>-2.27</ele>
        <time>2021-07-01T19:07:14Z</time>
      </trkpt>
      <trkpt lat="44.65156" lon="-1.14791">
        <ele>-2.27</ele>
        <time>2021-07-01T19:07:27Z</time>
      </trkpt>
      <trkpt lat="44.65232" lon="-1.14713">
        <ele>-2.27</ele>
        <time>2021-07-01T19:07:38Z</time>
      </trkpt>
      <trkpt lat="44.65321" lon="-1.14658">
        <ele>-0.82</ele>
        <time>2021-07-01T19:07:51Z</time>
      </trkpt>
      <trkpt lat="44.65341" lon="-1.14649">
        <ele>-0.34</ele>
        <time>2021-07-01T19:07:55Z</time>
      </trkpt>
      <trkpt lat="44.65344" lon="-1.14648">
        <ele>0.14</ele>
        <time>2021-07-01T19:07:56Z</time>
      </trkpt>
      <trkpt lat="44.65347" lon="-1.14641">
        <ele>0.14</ele>
        <time>2021-07-01T19:07:57Z</time>
      </trkpt>
      <trkpt lat="44.65346" lon="-1.14642">
        <ele>0.14</ele>
        <time>2021-07-01T19:07:58Z</time>
      </trkpt>
      <trkpt lat="44.65346" lon="-1.14642">
        <ele>-0.34</ele>
        <time>2021-07-01T19:07:59Z</time>
      </trkpt>
      <trkpt lat="44.65347" lon="-1.14634">
        <ele>-0.34</ele>
        <time>2021-07-01T19:08:00Z</time>
      </trkpt>
      <trkpt lat="44.65345" lon="-1.14629">
        <ele>-0.34</ele>
        <time>2021-07-01T19:08:01Z</time>
      </trkpt>
      <trkpt lat="44.65343" lon="-1.14622">
        <ele>-0.82</ele>
        <time>2021-07-01T19:08:02Z</time>
      </trkpt>
      <trkpt lat="44.65341" lon="-1.14614">
        <ele>-0.82</ele>
        <time>2021-07-01T19:08:03Z</time>
      </trkpt>
      <trkpt lat="44.65312" lon="-1.14505">
        <ele>-1.79</ele>
        <time>2021-07-01T19:08:15Z</time>
      </trkpt>
      <trkpt lat="44.65273" lon="-1.14387">
        <ele>-2.27</ele>
        <time>2021-07-01T19:08:28Z</time>
      </trkpt>
      <trkpt lat="44.65225" lon="-1.14239">
        <ele>-2.75</ele>
        <time>2021-07-01T19:08:48Z</time>
      </trkpt>
      <trkpt lat="44.65219" lon="-1.14201">
        <ele>-1.79</ele>
        <time>2021-07-01T19:08:57Z</time>
      </trkpt>
      <trkpt lat="44.65221" lon="-1.14196">
        <ele>-2.27</ele>
        <time>2021-07-01T19:08:59Z</time>
      </trkpt>
      <trkpt lat="44.65222" lon="-1.14195">
        <ele>-2.27</ele>
        <time>2021-07-01T19:09:00Z</time>
      </trkpt>
      <trkpt lat="44.65228" lon="-1.14194">
        <ele>-2.27</ele>
        <time>2021-07-01T19:09:01Z</time>
      </trkpt>
      <trkpt lat="44.65229" lon="-1.14196">
        <ele>-2.27</ele>
        <time>2021-07-01T19:09:02Z</time>
      </trkpt>
      <trkpt lat="44.6523" lon="-1.142">
        <ele>-2.75</ele>
        <time>2021-07-01T19:09:03Z</time>
      </trkpt>
      <trkpt lat="44.65232" lon="-1.14206">
        <ele>-3.23</ele>
        <time>2021-07-01T19:09:04Z</time>
      </trkpt>
      <trkpt lat="44.65255" lon="-1.14282">
        <ele>-3.71</ele>
        <time>2021-07-01T19:09:13Z</time>
      </trkpt>
      <trkpt lat="44.65264" lon="-1.14313">
        <ele>-3.71</ele>
        <time>2021-07-01T19:09:19Z</time>
      </trkpt>
      <trkpt lat="44.65266" lon="-1.14316">
        <ele>-4.19</ele>
        <time>2021-07-01T19:09:20Z</time>
      </trkpt>
      <trkpt lat="44.65266" lon="-1.14318">
        <ele>-4.19</ele>
        <time>2021-07-01T19:09:21Z</time>
      </trkpt>
      <trkpt lat="44.65272" lon="-1.14316">
        <ele>-4.19</ele>
        <time>2021-07-01T19:09:22Z</time>
      </trkpt>
      <trkpt lat="44.65274" lon="-1.14312">
        <ele>-4.19</ele>
        <time>2021-07-01T19:09:23Z</time>
      </trkpt>
      <trkpt lat="44.65275" lon="-1.14307">
        <ele>-4.19</ele>
        <time>2021-07-01T19:09:24Z</time>
      </trkpt>
      <trkpt lat="44.65278" lon="-1.143">
        <ele>-4.19</ele>
        <time>2021-07-01T19:09:25Z</time>
      </trkpt>
      <trkpt lat="44.65335" lon="-1.14213">
        <ele>-5.63</ele>
        <time>2021-07-01T19:09:39Z</time>
      </trkpt>
      <trkpt lat="44.65378" lon="-1.14143">
        <ele>-6.11</ele>
        <time>2021-07-01T19:09:54Z</time>
      </trkpt>
      <trkpt lat="44.65382" lon="-1.14137">
        <ele>-6.11</ele>
        <time>2021-07-01T19:09:59Z</time>
      </trkpt>
      <trkpt lat="44.65384" lon="-1.14134">
        <ele>-5.63</ele>
        <time>2021-07-01T19:10:00Z</time>
      </trkpt>
      <trkpt lat="44.65388" lon="-1.14139">
        <ele>-6.11</ele>
        <time>2021-07-01T19:10:01Z</time>
      </trkpt>
      <trkpt lat="44.6539" lon="-1.14142">
        <ele>-6.11</ele>
        <time>2021-07-01T19:10:02Z</time>
      </trkpt>
      <trkpt lat="44.65393" lon="-1.14146">
        <ele>-6.11</ele>
        <time>2021-07-01T19:10:03Z</time>
      </trkpt>
      <trkpt lat="44.65396" lon="-1.1415">
        <ele>-6.11</ele>
        <time>2021-07-01T19:10:04Z</time>
      </trkpt>
      <trkpt lat="44.6544" lon="-1.14213">
        <ele>-4.19</ele>
        <time>2021-07-01T19:10:17Z</time>
      </trkpt>
      <trkpt lat="44.65502" lon="-1.14301">
        <ele>-3.71</ele>
        <time>2021-07-01T19:10:32Z</time>
      </trkpt>
      <trkpt lat="44.65518" lon="-1.14328">
        <ele>-4.19</ele>
        <time>2021-07-01T19:10:38Z</time>
      </trkpt>
      <trkpt lat="44.6552" lon="-1.14333">
        <ele>-4.67</ele>
        <time>2021-07-01T19:10:39Z</time>
      </trkpt>
      <trkpt lat="44.65522" lon="-1.14338">
        <ele>-4.67</ele>
        <time>2021-07-01T19:10:40Z</time>
      </trkpt>
      <trkpt lat="44.65533" lon="-1.14361">
        <ele>-4.67</ele>
        <time>2021-07-01T19:10:45Z</time>
      </trkpt>
      <trkpt lat="44.65533" lon="-1.14361">
        <ele>-4.67</ele>
        <time>2021-07-01T19:10:46Z</time>
      </trkpt>
      <trkpt lat="44.65536" lon="-1.14358">
        <ele>-4.67</ele>
        <time>2021-07-01T19:10:47Z</time>
      </trkpt>
      <trkpt lat="44.65538" lon="-1.14356">
        <ele>-4.67</ele>
        <time>2021-07-01T19:10:48Z</time>
      </trkpt>
      <trkpt lat="44.6554" lon="-1.14355">
        <ele>-4.19</ele>
        <time>2021-07-01T19:10:49Z</time>
      </trkpt>
      <trkpt lat="44.65581" lon="-1.14319">
        <ele>-4.19</ele>
        <time>2021-07-01T19:11:01Z</time>
      </trkpt>
      <trkpt lat="44.6561" lon="-1.14303">
        <ele>-5.15</ele>
        <time>2021-07-01T19:11:12Z</time>
      </trkpt>
      <trkpt lat="44.65614" lon="-1.14303">
        <ele>-4.67</ele>
        <time>2021-07-01T19:11:13Z</time>
      </trkpt>
      <trkpt lat="44.65618" lon="-1.14303">
        <ele>-4.67</ele>
        <time>2021-07-01T19:11:14Z</time>
      </trkpt>
      <trkpt lat="44.65619" lon="-1.14303">
        <ele>-4.67</ele>
        <time>2021-07-01T19:11:15Z</time>
      </trkpt>
      <trkpt lat="44.65621" lon="-1.14308">
        <ele>-4.67</ele>
        <time>2021-07-01T19:11:16Z</time>
      </trkpt>
      <trkpt lat="44.65623" lon="-1.14314">
        <ele>-4.67</ele>
        <time>2021-07-01T19:11:17Z</time>
      </trkpt>
      <trkpt lat="44.65654" lon="-1.14394">
        <ele>-4.67</ele>
        <time>2021-07-01T19:11:34Z</time>
      </trkpt>
      <trkpt lat="44.65661" lon="-1.1441">
        <ele>-5.15</ele>
        <time>2021-07-01T19:11:39Z</time>
      </trkpt>
      <trkpt lat="44.65666" lon="-1.1441">
        <ele>-5.15</ele>
        <time>2021-07-01T19:11:40Z</time>
      </trkpt>
      <trkpt lat="44.65668" lon="-1.14408">
        <ele>-5.15</ele>
        <time>2021-07-01T19:11:41Z</time>
      </trkpt>
      <trkpt lat="44.65676" lon="-1.14404">
        <ele>-4.19</ele>
        <time>2021-07-01T19:11:54Z</time>
      </trkpt>
      <trkpt lat="44.6568" lon="-1.14401">
        <ele>-4.19</ele>
        <time>2021-07-01T19:11:55Z</time>
      </trkpt>
      <trkpt lat="44.65682" lon="-1.14413">
        <ele>-3.23</ele>
        <time>2021-07-01T19:12:06Z</time>
      </trkpt>
      <trkpt lat="44.65671" lon="-1.14407">
        <ele>-3.71</ele>
        <time>2021-07-01T19:12:11Z</time>
      </trkpt>
      <trkpt lat="44.65669" lon="-1.14408">
        <ele>-4.19</ele>
        <time>2021-07-01T19:12:12Z</time>
      </trkpt>
      <trkpt lat="44.65665" lon="-1.14424">
        <ele>-3.71</ele>
        <time>2021-07-01T19:12:13Z</time>
      </trkpt>
      <trkpt lat="44.65666" lon="-1.14427">
        <ele>-4.19</ele>
        <time>2021-07-01T19:12:14Z</time>
      </trkpt>
      <trkpt lat="44.65669" lon="-1.14435">
        <ele>-4.19</ele>
        <time>2021-07-01T19:12:15Z</time>
      </trkpt>
      <trkpt lat="44.65669" lon="-1.14435">
        <ele>-4.19</ele>
        <time>2021-07-01T19:12:16Z</time>
      </trkpt>
      <trkpt lat="44.6567" lon="-1.14439">
        <ele>-4.19</ele>
        <time>2021-07-01T19:12:17Z</time>
      </trkpt>
      <trkpt lat="44.65705" lon="-1.14546">
        <ele>-4.67</ele>
        <time>2021-07-01T19:12:35Z</time>
      </trkpt>
      <trkpt lat="44.65744" lon="-1.14656">
        <ele>-5.15</ele>
        <time>2021-07-01T19:12:50Z</time>
      </trkpt>
      <trkpt lat="44.65793" lon="-1.14781">
        <ele>-5.15</ele>
        <time>2021-07-01T19:13:09Z</time>
      </trkpt>
      <trkpt lat="44.65803" lon="-1.14842">
        <ele>-4.19</ele>
        <time>2021-07-01T19:13:22Z</time>
      </trkpt>
      <trkpt lat="44.65779" lon="-1.14861">
        <ele>-5.15</ele>
        <time>2021-07-01T19:13:33Z</time>
      </trkpt>
      <trkpt lat="44.65741" lon="-1.1489">
        <ele>-2.75</ele>
        <time>2021-07-01T19:13:47Z</time>
      </trkpt>
      <trkpt lat="44.65741" lon="-1.1489">
        <ele>-1.79</ele>
        <time>2021-07-01T19:13:56Z</time>
      </trkpt>
      <trkpt lat="44.65737" lon="-1.14892">
        <ele>-1.79</ele>
        <time>2021-07-01T19:13:57Z</time>
      </trkpt>
      <trkpt lat="44.65739" lon="-1.149">
        <ele>-1.79</ele>
        <time>2021-07-01T19:13:58Z</time>
      </trkpt>
      <trkpt lat="44.65775" lon="-1.14983">
        <ele>-2.27</ele>
        <time>2021-07-01T19:14:12Z</time>
      </trkpt>
      <trkpt lat="44.65783" lon="-1.15004">
        <ele>-2.27</ele>
        <time>2021-07-01T19:14:17Z</time>
      </trkpt>
      <trkpt lat="44.6583" lon="-1.15099">
        <ele>-1.79</ele>
        <time>2021-07-01T19:14:30Z</time>
      </trkpt>
      <trkpt lat="44.65881" lon="-1.15175">
        <ele>-2.75</ele>
        <time>2021-07-01T19:14:43Z</time>
      </trkpt>
      <trkpt lat="44.65958" lon="-1.15283">
        <ele>-3.23</ele>
        <time>2021-07-01T19:15:00Z</time>
      </trkpt>
      <trkpt lat="44.6603" lon="-1.15434">
        <ele>-3.23</ele>
        <time>2021-07-01T19:15:18Z</time>
      </trkpt>
      <trkpt lat="44.6608" lon="-1.15542">
        <ele>-2.75</ele>
        <time>2021-07-01T19:15:31Z</time>
      </trkpt>
      <trkpt lat="44.66128" lon="-1.15648">
        <ele>-3.23</ele>
        <time>2021-07-01T19:15:44Z</time>
      </trkpt>
      <trkpt lat="44.66154" lon="-1.15703">
        <ele>-5.63</ele>
        <time>2021-07-01T19:15:54Z</time>
      </trkpt>
      <trkpt lat="44.66191" lon="-1.15794">
        <ele>-3.71</ele>
        <time>2021-07-01T19:16:07Z</time>
      </trkpt>
      <trkpt lat="44.66233" lon="-1.15934">
        <ele>-3.71</ele>
        <time>2021-07-01T19:16:23Z</time>
      </trkpt>
      <trkpt lat="44.66256" lon="-1.16056">
        <ele>-2.75</ele>
        <time>2021-07-01T19:16:37Z</time>
      </trkpt>
      <trkpt lat="44.66268" lon="-1.16225">
        <ele>-1.79</ele>
        <time>2021-07-01T19:16:55Z</time>
      </trkpt>
      <trkpt lat="44.66269" lon="-1.16353">
        <ele>-1.79</ele>
        <time>2021-07-01T19:17:11Z</time>
      </trkpt>
      <trkpt lat="44.66269" lon="-1.1638">
        <ele>-1.3</ele>
        <time>2021-07-01T19:17:20Z</time>
      </trkpt>
      <trkpt lat="44.66266" lon="-1.16422">
        <ele>-0.82</ele>
        <time>2021-07-01T19:17:32Z</time>
      </trkpt>
      <trkpt lat="44.6626" lon="-1.16457">
        <ele>-0.82</ele>
        <time>2021-07-01T19:17:43Z</time>
      </trkpt>
      <trkpt lat="44.66249" lon="-1.16459">
        <ele>-0.82</ele>
        <time>2021-07-01T19:17:45Z</time>
      </trkpt>
      <trkpt lat="44.66214" lon="-1.16466">
        <ele>-4.19</ele>
        <time>2021-07-01T19:17:54Z</time>
      </trkpt>
      <trkpt lat="44.66206" lon="-1.16467">
        <ele>-4.19</ele>
        <time>2021-07-01T19:17:55Z</time>
      </trkpt>
      <trkpt lat="44.66206" lon="-1.16467">
        <ele>-5.15</ele>
        <time>2021-07-01T19:17:56Z</time>
      </trkpt>
      <trkpt lat="44.66155" lon="-1.16476">
        <ele>-8.03</ele>
        <time>2021-07-01T19:18:09Z</time>
      </trkpt>
      <trkpt lat="44.66084" lon="-1.16491">
        <ele>-7.55</ele>
        <time>2021-07-01T19:18:21Z</time>
      </trkpt>
      <trkpt lat="44.65995" lon="-1.16509">
        <ele>-8.51</ele>
        <time>2021-07-01T19:18:35Z</time>
      </trkpt>
      <trkpt lat="44.65957" lon="-1.16517">
        <ele>-0.82</ele>
        <time>2021-07-01T19:18:44Z</time>
      </trkpt>
      <trkpt lat="44.65952" lon="-1.16544">
        <ele>-1.3</ele>
        <time>2021-07-01T19:18:52Z</time>
      </trkpt>
      <trkpt lat="44.65975" lon="-1.16619">
        <ele>-1.79</ele>
        <time>2021-07-01T19:19:04Z</time>
      </trkpt>
      <trkpt lat="44.65984" lon="-1.16646">
        <ele>-0.82</ele>
        <time>2021-07-01T19:19:08Z</time>
      </trkpt>
      <trkpt lat="44.66011" lon="-1.16739">
        <ele>0.14</ele>
        <time>2021-07-01T19:19:22Z</time>
      </trkpt>
      <trkpt lat="44.66021" lon="-1.16815">
        <ele>0.62</ele>
        <time>2021-07-01T19:19:38Z</time>
      </trkpt>
    </trkseg>
  </trk>
</gpx>